<?xml version="1.0" encoding="UTF-8" standalone="no" ?>
<gpx xmlns="http://www.topografix.com/GPX/1/1" xmlns:xsi="http://www.w3.org/2001/XMLSchema-instance" xsi:schemaLocation="http://www.topografix.com/GPX/1/1 http://www.topografix.com/GPX/1/1/gpx.xsd" version="1.1" creator="VisuGPX - https://www.visugpx.com">
  <metadata>
    <name>Roc d'Azur 2015 à 2023</name>
    <desc><![CDATA[Tous les ingrédients sont de la partie : sections cassantes, piquantes, rugueuses mais parfois lisses et rapides.

Le Fournel, La Flûte, Les Clapiers, La Bastide Neuve, Le Car Brûlé, Le Bougnon, La Gaillarde, La Dalle en Béton, La plage de La Galiote sont autant de point marquant du parcours qui ne laisseront sans aucun de doute que des souvenirs mémorable d’une belle randonnée surplombant la Méditerranée et retour par le bord de mer.
Superbe et toujours une belle organistaion]]></desc>
  </metadata>
  <trk>
    <name><![CDATA[2021]]></name>
    <extensions>
      <line xmlns="http://www.topografix.com/GPX/gpx_style/0/2">
        <color>ff9300</color>
        <width>4</width>
      </line>
    </extensions>
    <trkseg>
      <trkpt lat="43.41704" lon="6.73684">
        <ele>4</ele>
        <time>2021-10-09T09:46:15Z</time>
      </trkpt>
      <trkpt lat="43.41676" lon="6.73664">
        <ele>3.527</ele>
        <time>2021-10-09T09:46:25Z</time>
      </trkpt>
      <trkpt lat="43.41641" lon="6.73617">
        <ele>3</ele>
        <time>2021-10-09T09:46:40Z</time>
      </trkpt>
      <trkpt lat="43.41618" lon="6.73562">
        <ele>3</ele>
        <time>2021-10-09T09:46:52Z</time>
      </trkpt>
      <trkpt lat="43.41617" lon="6.73528">
        <ele>3.047</ele>
        <time>2021-10-09T09:46:58Z</time>
      </trkpt>
      <trkpt lat="43.41619" lon="6.73511">
        <ele>3.105</ele>
        <time>2021-10-09T09:47:01Z</time>
      </trkpt>
      <trkpt lat="43.41625" lon="6.73496">
        <ele>3.279</ele>
        <time>2021-10-09T09:47:04Z</time>
      </trkpt>
      <trkpt lat="43.41704" lon="6.73349">
        <ele>4</ele>
        <time>2021-10-09T09:47:37Z</time>
      </trkpt>
      <trkpt lat="43.4172" lon="6.73308">
        <ele>4.195</ele>
        <time>2021-10-09T09:47:46Z</time>
      </trkpt>
      <trkpt lat="43.41726" lon="6.73278">
        <ele>4.308</ele>
        <time>2021-10-09T09:47:52Z</time>
      </trkpt>
      <trkpt lat="43.41727" lon="6.73149">
        <ele>4.832</ele>
        <time>2021-10-09T09:48:16Z</time>
      </trkpt>
      <trkpt lat="43.4172" lon="6.73102">
        <ele>5</ele>
        <time>2021-10-09T09:48:25Z</time>
      </trkpt>
      <trkpt lat="43.41682" lon="6.72954">
        <ele>5</ele>
        <time>2021-10-09T09:48:55Z</time>
      </trkpt>
      <trkpt lat="43.41647" lon="6.72833">
        <ele>4.201</ele>
        <time>2021-10-09T09:49:22Z</time>
      </trkpt>
      <trkpt lat="43.41641" lon="6.72822">
        <ele>4.03</ele>
        <time>2021-10-09T09:49:26Z</time>
      </trkpt>
      <trkpt lat="43.41633" lon="6.72817">
        <ele>3.949</ele>
        <time>2021-10-09T09:49:30Z</time>
      </trkpt>
      <trkpt lat="43.41602" lon="6.72814">
        <ele>3.941</ele>
        <time>2021-10-09T09:49:41Z</time>
      </trkpt>
      <trkpt lat="43.4158" lon="6.72823">
        <ele>3.688</ele>
        <time>2021-10-09T09:49:47Z</time>
      </trkpt>
      <trkpt lat="43.4157" lon="6.72831">
        <ele>3.575</ele>
        <time>2021-10-09T09:49:50Z</time>
      </trkpt>
      <trkpt lat="43.41558" lon="6.72835">
        <ele>3.45</ele>
        <time>2021-10-09T09:49:56Z</time>
      </trkpt>
      <trkpt lat="43.41549" lon="6.72823">
        <ele>3.153</ele>
        <time>2021-10-09T09:49:59Z</time>
      </trkpt>
      <trkpt lat="43.41562" lon="6.72803">
        <ele>3.051</ele>
        <time>2021-10-09T09:50:02Z</time>
      </trkpt>
      <trkpt lat="43.41593" lon="6.72776">
        <ele>3.234</ele>
        <time>2021-10-09T09:50:08Z</time>
      </trkpt>
      <trkpt lat="43.41609" lon="6.72766">
        <ele>3.166</ele>
        <time>2021-10-09T09:50:11Z</time>
      </trkpt>
      <trkpt lat="43.41622" lon="6.72745">
        <ele>2.903</ele>
        <time>2021-10-09T09:50:14Z</time>
      </trkpt>
      <trkpt lat="43.4151" lon="6.72686">
        <ele>2</ele>
        <time>2021-10-09T09:53:27Z</time>
      </trkpt>
      <trkpt lat="43.41508" lon="6.72675">
        <ele>2.02</ele>
        <time>2021-10-09T09:54:22Z</time>
      </trkpt>
      <trkpt lat="43.41515" lon="6.7266">
        <ele>2</ele>
        <time>2021-10-09T09:54:25Z</time>
      </trkpt>
      <trkpt lat="43.41507" lon="6.72652">
        <ele>2.073</ele>
        <time>2021-10-09T09:54:29Z</time>
      </trkpt>
      <trkpt lat="43.41439" lon="6.72614">
        <ele>3</ele>
        <time>2021-10-09T09:54:54Z</time>
      </trkpt>
      <trkpt lat="43.41432" lon="6.72589">
        <ele>3</ele>
        <time>2021-10-09T09:55:00Z</time>
      </trkpt>
      <trkpt lat="43.41408" lon="6.72539">
        <ele>3.442</ele>
        <time>2021-10-09T09:55:13Z</time>
      </trkpt>
      <trkpt lat="43.41405" lon="6.72526">
        <ele>3.51</ele>
        <time>2021-10-09T09:55:20Z</time>
      </trkpt>
      <trkpt lat="43.41371" lon="6.72477">
        <ele>4</ele>
        <time>2021-10-09T09:55:45Z</time>
      </trkpt>
      <trkpt lat="43.41336" lon="6.72453">
        <ele>4</ele>
        <time>2021-10-09T09:56:18Z</time>
      </trkpt>
      <trkpt lat="43.41296" lon="6.72463">
        <ele>4</ele>
        <time>2021-10-09T09:56:44Z</time>
      </trkpt>
      <trkpt lat="43.41279" lon="6.72475">
        <ele>4.056</ele>
        <time>2021-10-09T09:56:54Z</time>
      </trkpt>
      <trkpt lat="43.41239" lon="6.72478">
        <ele>4.29</ele>
        <time>2021-10-09T09:57:16Z</time>
      </trkpt>
      <trkpt lat="43.4121" lon="6.72474">
        <ele>4.907</ele>
        <time>2021-10-09T09:57:35Z</time>
      </trkpt>
      <trkpt lat="43.41174" lon="6.72453">
        <ele>5</ele>
        <time>2021-10-09T09:58:10Z</time>
      </trkpt>
      <trkpt lat="43.41165" lon="6.72459">
        <ele>5</ele>
        <time>2021-10-09T09:58:17Z</time>
      </trkpt>
      <trkpt lat="43.4115" lon="6.72485">
        <ele>4.656</ele>
        <time>2021-10-09T09:58:21Z</time>
      </trkpt>
      <trkpt lat="43.41143" lon="6.7249">
        <ele>4.471</ele>
        <time>2021-10-09T09:58:23Z</time>
      </trkpt>
      <trkpt lat="43.41098" lon="6.72465">
        <ele>4.053</ele>
        <time>2021-10-09T09:58:37Z</time>
      </trkpt>
      <trkpt lat="43.4107" lon="6.72444">
        <ele>4</ele>
        <time>2021-10-09T09:58:47Z</time>
      </trkpt>
      <trkpt lat="43.41052" lon="6.72425">
        <ele>4</ele>
        <time>2021-10-09T09:58:53Z</time>
      </trkpt>
      <trkpt lat="43.41024" lon="6.72413">
        <ele>4</ele>
        <time>2021-10-09T09:58:59Z</time>
      </trkpt>
      <trkpt lat="43.40971" lon="6.72409">
        <ele>4</ele>
        <time>2021-10-09T09:59:09Z</time>
      </trkpt>
      <trkpt lat="43.40927" lon="6.7242">
        <ele>3.904</ele>
        <time>2021-10-09T09:59:19Z</time>
      </trkpt>
      <trkpt lat="43.40915" lon="6.72418">
        <ele>3.809</ele>
        <time>2021-10-09T09:59:22Z</time>
      </trkpt>
      <trkpt lat="43.40908" lon="6.72401">
        <ele>3.918</ele>
        <time>2021-10-09T09:59:25Z</time>
      </trkpt>
      <trkpt lat="43.40902" lon="6.72368">
        <ele>4</ele>
        <time>2021-10-09T09:59:29Z</time>
      </trkpt>
      <trkpt lat="43.40894" lon="6.72357">
        <ele>3.973</ele>
        <time>2021-10-09T09:59:31Z</time>
      </trkpt>
      <trkpt lat="43.40861" lon="6.72334">
        <ele>3.217</ele>
        <time>2021-10-09T09:59:37Z</time>
      </trkpt>
      <trkpt lat="43.40824" lon="6.72331">
        <ele>3</ele>
        <time>2021-10-09T09:59:43Z</time>
      </trkpt>
      <trkpt lat="43.40744" lon="6.723">
        <ele>2</ele>
        <time>2021-10-09T09:59:57Z</time>
      </trkpt>
      <trkpt lat="43.40734" lon="6.7229">
        <ele>2</ele>
        <time>2021-10-09T09:59:59Z</time>
      </trkpt>
      <trkpt lat="43.40728" lon="6.72276">
        <ele>2</ele>
        <time>2021-10-09T10:00:01Z</time>
      </trkpt>
      <trkpt lat="43.40726" lon="6.7226">
        <ele>2</ele>
        <time>2021-10-09T10:00:03Z</time>
      </trkpt>
      <trkpt lat="43.40731" lon="6.72244">
        <ele>2.051</ele>
        <time>2021-10-09T10:00:05Z</time>
      </trkpt>
      <trkpt lat="43.40778" lon="6.72147">
        <ele>3</ele>
        <time>2021-10-09T10:00:19Z</time>
      </trkpt>
      <trkpt lat="43.40787" lon="6.72121">
        <ele>3.102</ele>
        <time>2021-10-09T10:00:23Z</time>
      </trkpt>
      <trkpt lat="43.4079" lon="6.72062">
        <ele>3.405</ele>
        <time>2021-10-09T10:00:31Z</time>
      </trkpt>
      <trkpt lat="43.40803" lon="6.7199">
        <ele>3.62</ele>
        <time>2021-10-09T10:00:41Z</time>
      </trkpt>
      <trkpt lat="43.40841" lon="6.7188">
        <ele>3.849</ele>
        <time>2021-10-09T10:00:57Z</time>
      </trkpt>
      <trkpt lat="43.40864" lon="6.7183">
        <ele>3.825</ele>
        <time>2021-10-09T10:01:05Z</time>
      </trkpt>
      <trkpt lat="43.40893" lon="6.71785">
        <ele>4.433</ele>
        <time>2021-10-09T10:01:13Z</time>
      </trkpt>
      <trkpt lat="43.40944" lon="6.71516">
        <ele>7.082</ele>
        <time>2021-10-09T10:01:52Z</time>
      </trkpt>
      <trkpt lat="43.40942" lon="6.71501">
        <ele>7.138</ele>
        <time>2021-10-09T10:01:55Z</time>
      </trkpt>
      <trkpt lat="43.40946" lon="6.71488">
        <ele>7.256</ele>
        <time>2021-10-09T10:01:56Z</time>
      </trkpt>
      <trkpt lat="43.40958" lon="6.71473">
        <ele>7.583</ele>
        <time>2021-10-09T10:01:58Z</time>
      </trkpt>
      <trkpt lat="43.40976" lon="6.71462">
        <ele>7.988</ele>
        <time>2021-10-09T10:02:00Z</time>
      </trkpt>
      <trkpt lat="43.40986" lon="6.7146">
        <ele>8</ele>
        <time>2021-10-09T10:02:02Z</time>
      </trkpt>
      <trkpt lat="43.41005" lon="6.71446">
        <ele>8</ele>
        <time>2021-10-09T10:02:05Z</time>
      </trkpt>
      <trkpt lat="43.41031" lon="6.71419">
        <ele>8</ele>
        <time>2021-10-09T10:02:09Z</time>
      </trkpt>
      <trkpt lat="43.41062" lon="6.71377">
        <ele>8</ele>
        <time>2021-10-09T10:02:15Z</time>
      </trkpt>
      <trkpt lat="43.41099" lon="6.71299">
        <ele>8</ele>
        <time>2021-10-09T10:02:34Z</time>
      </trkpt>
      <trkpt lat="43.41112" lon="6.71285">
        <ele>8.033</ele>
        <time>2021-10-09T10:02:39Z</time>
      </trkpt>
      <trkpt lat="43.41151" lon="6.7127">
        <ele>8</ele>
        <time>2021-10-09T10:02:49Z</time>
      </trkpt>
      <trkpt lat="43.41201" lon="6.71214">
        <ele>8</ele>
        <time>2021-10-09T10:03:00Z</time>
      </trkpt>
      <trkpt lat="43.41222" lon="6.71187">
        <ele>8</ele>
        <time>2021-10-09T10:03:01Z</time>
      </trkpt>
      <trkpt lat="43.41244" lon="6.71146">
        <ele>8</ele>
        <time>2021-10-09T10:03:04Z</time>
      </trkpt>
      <trkpt lat="43.41247" lon="6.71132">
        <ele>8</ele>
        <time>2021-10-09T10:03:08Z</time>
      </trkpt>
      <trkpt lat="43.41261" lon="6.71091">
        <ele>8.003</ele>
        <time>2021-10-09T10:03:20Z</time>
      </trkpt>
      <trkpt lat="43.41308" lon="6.71009">
        <ele>8.048</ele>
        <time>2021-10-09T10:03:49Z</time>
      </trkpt>
      <trkpt lat="43.41322" lon="6.70994">
        <ele>7.798</ele>
        <time>2021-10-09T10:03:56Z</time>
      </trkpt>
      <trkpt lat="43.41326" lon="6.70985">
        <ele>7.78</ele>
        <time>2021-10-09T10:03:59Z</time>
      </trkpt>
      <trkpt lat="43.41385" lon="6.70906">
        <ele>7.43</ele>
        <time>2021-10-09T10:04:04Z</time>
      </trkpt>
      <trkpt lat="43.41411" lon="6.70855">
        <ele>6.954</ele>
        <time>2021-10-09T10:04:05Z</time>
      </trkpt>
      <trkpt lat="43.41419" lon="6.70826">
        <ele>7.02</ele>
        <time>2021-10-09T10:04:06Z</time>
      </trkpt>
      <trkpt lat="43.41425" lon="6.70768">
        <ele>7.644</ele>
        <time>2021-10-09T10:04:32Z</time>
      </trkpt>
      <trkpt lat="43.41438" lon="6.70732">
        <ele>7.407</ele>
        <time>2021-10-09T10:04:50Z</time>
      </trkpt>
      <trkpt lat="43.4146" lon="6.70686">
        <ele>6.957</ele>
        <time>2021-10-09T10:05:15Z</time>
      </trkpt>
      <trkpt lat="43.41475" lon="6.70666">
        <ele>6.64</ele>
        <time>2021-10-09T10:05:28Z</time>
      </trkpt>
      <trkpt lat="43.41505" lon="6.70603">
        <ele>6.754</ele>
        <time>2021-10-09T10:06:03Z</time>
      </trkpt>
      <trkpt lat="43.4152" lon="6.70581">
        <ele>6.707</ele>
        <time>2021-10-09T10:06:03Z</time>
      </trkpt>
      <trkpt lat="43.41544" lon="6.70558">
        <ele>6.2</ele>
        <time>2021-10-09T10:06:04Z</time>
      </trkpt>
      <trkpt lat="43.41572" lon="6.70537">
        <ele>6</ele>
        <time>2021-10-09T10:06:05Z</time>
      </trkpt>
      <trkpt lat="43.41628" lon="6.70501">
        <ele>6</ele>
        <time>2021-10-09T10:06:07Z</time>
      </trkpt>
      <trkpt lat="43.41649" lon="6.70457">
        <ele>6.313</ele>
        <time>2021-10-09T10:06:07Z</time>
      </trkpt>
      <trkpt lat="43.41681" lon="6.70369">
        <ele>7</ele>
        <time>2021-10-09T10:06:09Z</time>
      </trkpt>
      <trkpt lat="43.41682" lon="6.70357">
        <ele>7</ele>
        <time>2021-10-09T10:06:11Z</time>
      </trkpt>
      <trkpt lat="43.41664" lon="6.70347">
        <ele>7</ele>
        <time>2021-10-09T10:06:11Z</time>
      </trkpt>
      <trkpt lat="43.41637" lon="6.70316">
        <ele>7</ele>
        <time>2021-10-09T10:06:11Z</time>
      </trkpt>
      <trkpt lat="43.41569" lon="6.70222">
        <ele>7</ele>
        <time>2021-10-09T10:06:13Z</time>
      </trkpt>
      <trkpt lat="43.41527" lon="6.70178">
        <ele>7</ele>
        <time>2021-10-09T10:06:14Z</time>
      </trkpt>
      <trkpt lat="43.41501" lon="6.70156">
        <ele>7.511</ele>
        <time>2021-10-09T10:06:14Z</time>
      </trkpt>
      <trkpt lat="43.41484" lon="6.70135">
        <ele>7.923</ele>
        <time>2021-10-09T10:06:15Z</time>
      </trkpt>
      <trkpt lat="43.4143" lon="6.70143">
        <ele>8.095</ele>
        <time>2021-10-09T10:06:18Z</time>
      </trkpt>
      <trkpt lat="43.41329" lon="6.7013">
        <ele>9.549</ele>
        <time>2021-10-09T10:06:38Z</time>
      </trkpt>
      <trkpt lat="43.41313" lon="6.70108">
        <ele>9.963</ele>
        <time>2021-10-09T10:06:40Z</time>
      </trkpt>
      <trkpt lat="43.41296" lon="6.70117">
        <ele>12.041</ele>
        <time>2021-10-09T10:06:42Z</time>
      </trkpt>
      <trkpt lat="43.41294" lon="6.70142">
        <ele>13.098</ele>
        <time>2021-10-09T10:06:44Z</time>
      </trkpt>
      <trkpt lat="43.41311" lon="6.70158">
        <ele>12.229</ele>
        <time>2021-10-09T10:06:46Z</time>
      </trkpt>
      <trkpt lat="43.41322" lon="6.70199">
        <ele>13.845</ele>
        <time>2021-10-09T10:06:49Z</time>
      </trkpt>
      <trkpt lat="43.41331" lon="6.70264">
        <ele>13.354</ele>
        <time>2021-10-09T10:06:51Z</time>
      </trkpt>
      <trkpt lat="43.41333" lon="6.70314">
        <ele>10.792</ele>
        <time>2021-10-09T10:06:54Z</time>
      </trkpt>
      <trkpt lat="43.4133" lon="6.70347">
        <ele>9.792</ele>
        <time>2021-10-09T10:06:57Z</time>
      </trkpt>
      <trkpt lat="43.41315" lon="6.704">
        <ele>8.259</ele>
        <time>2021-10-09T10:06:59Z</time>
      </trkpt>
      <trkpt lat="43.41213" lon="6.70635">
        <ele>11.407</ele>
        <time>2021-10-09T10:07:07Z</time>
      </trkpt>
      <trkpt lat="43.41196" lon="6.70665">
        <ele>10.555</ele>
        <time>2021-10-09T10:07:08Z</time>
      </trkpt>
      <trkpt lat="43.41161" lon="6.70711">
        <ele>10.618</ele>
        <time>2021-10-09T10:09:01Z</time>
      </trkpt>
      <trkpt lat="43.41098" lon="6.70749">
        <ele>9.061</ele>
        <time>2021-10-09T10:09:02Z</time>
      </trkpt>
      <trkpt lat="43.40978" lon="6.70805">
        <ele>9.757</ele>
        <time>2021-10-09T10:09:05Z</time>
      </trkpt>
      <trkpt lat="43.40973" lon="6.70803">
        <ele>9.792</ele>
        <time>2021-10-09T10:09:05Z</time>
      </trkpt>
      <trkpt lat="43.40966" lon="6.70792">
        <ele>10.066</ele>
        <time>2021-10-09T10:09:05Z</time>
      </trkpt>
      <trkpt lat="43.40957" lon="6.70764">
        <ele>10.909</ele>
        <time>2021-10-09T10:09:05Z</time>
      </trkpt>
      <trkpt lat="43.40957" lon="6.70754">
        <ele>11.219</ele>
        <time>2021-10-09T10:09:06Z</time>
      </trkpt>
      <trkpt lat="43.40974" lon="6.70754">
        <ele>12.048</ele>
        <time>2021-10-09T10:09:06Z</time>
      </trkpt>
      <trkpt lat="43.40997" lon="6.70777">
        <ele>11.606</ele>
        <time>2021-10-09T10:09:07Z</time>
      </trkpt>
      <trkpt lat="43.41005" lon="6.70778">
        <ele>11.746</ele>
        <time>2021-10-09T10:09:07Z</time>
      </trkpt>
      <trkpt lat="43.41031" lon="6.70761">
        <ele>12.829</ele>
        <time>2021-10-09T10:09:07Z</time>
      </trkpt>
      <trkpt lat="43.41046" lon="6.70741">
        <ele>14.757</ele>
        <time>2021-10-09T10:09:08Z</time>
      </trkpt>
      <trkpt lat="43.41045" lon="6.70731">
        <ele>16.14</ele>
        <time>2021-10-09T10:09:08Z</time>
      </trkpt>
      <trkpt lat="43.41028" lon="6.70728">
        <ele>16.782</ele>
        <time>2021-10-09T10:09:09Z</time>
      </trkpt>
      <trkpt lat="43.41025" lon="6.70734">
        <ele>15.94</ele>
        <time>2021-10-09T10:09:10Z</time>
      </trkpt>
      <trkpt lat="43.41018" lon="6.70732">
        <ele>16.238</ele>
        <time>2021-10-09T10:09:11Z</time>
      </trkpt>
      <trkpt lat="43.41012" lon="6.70724">
        <ele>17.368</ele>
        <time>2021-10-09T10:09:14Z</time>
      </trkpt>
      <trkpt lat="43.41012" lon="6.70704">
        <ele>20.072</ele>
        <time>2021-10-09T10:09:19Z</time>
      </trkpt>
      <trkpt lat="43.41022" lon="6.70637">
        <ele>28.669</ele>
        <time>2021-10-09T10:09:35Z</time>
      </trkpt>
      <trkpt lat="43.41024" lon="6.70569">
        <ele>36.996</ele>
        <time>2021-10-09T10:09:58Z</time>
      </trkpt>
      <trkpt lat="43.41021" lon="6.70537">
        <ele>40.612</ele>
        <time>2021-10-09T10:10:10Z</time>
      </trkpt>
      <trkpt lat="43.41013" lon="6.70491">
        <ele>45.739</ele>
        <time>2021-10-09T10:10:30Z</time>
      </trkpt>
      <trkpt lat="43.41012" lon="6.70464">
        <ele>47.651</ele>
        <time>2021-10-09T10:10:42Z</time>
      </trkpt>
      <trkpt lat="43.41003" lon="6.70445">
        <ele>48.828</ele>
        <time>2021-10-09T10:10:49Z</time>
      </trkpt>
      <trkpt lat="43.40993" lon="6.7044">
        <ele>49.18</ele>
        <time>2021-10-09T10:10:56Z</time>
      </trkpt>
      <trkpt lat="43.40971" lon="6.70435">
        <ele>49.349</ele>
        <time>2021-10-09T10:11:08Z</time>
      </trkpt>
      <trkpt lat="43.40946" lon="6.70424">
        <ele>49.235</ele>
        <time>2021-10-09T10:11:24Z</time>
      </trkpt>
      <trkpt lat="43.40936" lon="6.70412">
        <ele>49.693</ele>
        <time>2021-10-09T10:11:31Z</time>
      </trkpt>
      <trkpt lat="43.40933" lon="6.70386">
        <ele>51.322</ele>
        <time>2021-10-09T10:11:44Z</time>
      </trkpt>
      <trkpt lat="43.40936" lon="6.70353">
        <ele>53.534</ele>
        <time>2021-10-09T10:11:55Z</time>
      </trkpt>
      <trkpt lat="43.40953" lon="6.70289">
        <ele>58.408</ele>
        <time>2021-10-09T10:12:21Z</time>
      </trkpt>
      <trkpt lat="43.4096" lon="6.70277">
        <ele>58.888</ele>
        <time>2021-10-09T10:12:27Z</time>
      </trkpt>
      <trkpt lat="43.40927" lon="6.70262">
        <ele>59.599</ele>
        <time>2021-10-09T10:12:41Z</time>
      </trkpt>
      <trkpt lat="43.40893" lon="6.70258">
        <ele>59.33</ele>
        <time>2021-10-09T10:12:53Z</time>
      </trkpt>
      <trkpt lat="43.40881" lon="6.70253">
        <ele>59.38</ele>
        <time>2021-10-09T10:12:56Z</time>
      </trkpt>
      <trkpt lat="43.40863" lon="6.70238">
        <ele>59.842</ele>
        <time>2021-10-09T10:13:01Z</time>
      </trkpt>
      <trkpt lat="43.4085" lon="6.70236">
        <ele>59.585</ele>
        <time>2021-10-09T10:13:03Z</time>
      </trkpt>
      <trkpt lat="43.40834" lon="6.70243">
        <ele>58.878</ele>
        <time>2021-10-09T10:13:05Z</time>
      </trkpt>
      <trkpt lat="43.40824" lon="6.70254">
        <ele>58.194</ele>
        <time>2021-10-09T10:13:07Z</time>
      </trkpt>
      <trkpt lat="43.40803" lon="6.70253">
        <ele>58.124</ele>
        <time>2021-10-09T10:13:10Z</time>
      </trkpt>
      <trkpt lat="43.40784" lon="6.70242">
        <ele>58.549</ele>
        <time>2021-10-09T10:13:13Z</time>
      </trkpt>
      <trkpt lat="43.40735" lon="6.70192">
        <ele>61.191</ele>
        <time>2021-10-09T10:13:37Z</time>
      </trkpt>
      <trkpt lat="43.4069" lon="6.70165">
        <ele>64.042</ele>
        <time>2021-10-09T10:14:07Z</time>
      </trkpt>
      <trkpt lat="43.4065" lon="6.7015">
        <ele>65.03</ele>
        <time>2021-10-09T10:14:27Z</time>
      </trkpt>
      <trkpt lat="43.40584" lon="6.70117">
        <ele>64.993</ele>
        <time>2021-10-09T10:14:46Z</time>
      </trkpt>
      <trkpt lat="43.40499" lon="6.70102">
        <ele>69.034</ele>
        <time>2021-10-09T10:15:06Z</time>
      </trkpt>
      <trkpt lat="43.4045" lon="6.70106">
        <ele>74.104</ele>
        <time>2021-10-09T10:15:27Z</time>
      </trkpt>
      <trkpt lat="43.40407" lon="6.70079">
        <ele>79.085</ele>
        <time>2021-10-09T10:15:57Z</time>
      </trkpt>
      <trkpt lat="43.4036" lon="6.70058">
        <ele>80.303</ele>
        <time>2021-10-09T10:16:18Z</time>
      </trkpt>
      <trkpt lat="43.40307" lon="6.70021">
        <ele>81.215</ele>
        <time>2021-10-09T10:16:37Z</time>
      </trkpt>
      <trkpt lat="43.40262" lon="6.69968">
        <ele>79.918</ele>
        <time>2021-10-09T10:16:52Z</time>
      </trkpt>
      <trkpt lat="43.40233" lon="6.69946">
        <ele>76.619</ele>
        <time>2021-10-09T10:16:58Z</time>
      </trkpt>
      <trkpt lat="43.40219" lon="6.69945">
        <ele>74.217</ele>
        <time>2021-10-09T10:17:00Z</time>
      </trkpt>
      <trkpt lat="43.40187" lon="6.6997">
        <ele>69.33</ele>
        <time>2021-10-09T10:17:04Z</time>
      </trkpt>
      <trkpt lat="43.40122" lon="6.70047">
        <ele>68.358</ele>
        <time>2021-10-09T10:17:12Z</time>
      </trkpt>
      <trkpt lat="43.40105" lon="6.70074">
        <ele>69.872</ele>
        <time>2021-10-09T10:17:16Z</time>
      </trkpt>
      <trkpt lat="43.40086" lon="6.7011">
        <ele>73.112</ele>
        <time>2021-10-09T10:17:29Z</time>
      </trkpt>
      <trkpt lat="43.40073" lon="6.70129">
        <ele>77.922</ele>
        <time>2021-10-09T10:17:42Z</time>
      </trkpt>
      <trkpt lat="43.40064" lon="6.70132">
        <ele>80.328</ele>
        <time>2021-10-09T10:17:50Z</time>
      </trkpt>
      <trkpt lat="43.40018" lon="6.70108">
        <ele>86.379</ele>
        <time>2021-10-09T10:18:22Z</time>
      </trkpt>
      <trkpt lat="43.39999" lon="6.70107">
        <ele>89.477</ele>
        <time>2021-10-09T10:18:36Z</time>
      </trkpt>
      <trkpt lat="43.39933" lon="6.70131">
        <ele>98.051</ele>
        <time>2021-10-09T10:19:29Z</time>
      </trkpt>
      <trkpt lat="43.39915" lon="6.70134">
        <ele>99.268</ele>
        <time>2021-10-09T10:19:45Z</time>
      </trkpt>
      <trkpt lat="43.39896" lon="6.70142">
        <ele>100.728</ele>
        <time>2021-10-09T10:20:00Z</time>
      </trkpt>
      <trkpt lat="43.39857" lon="6.70185">
        <ele>102.539</ele>
        <time>2021-10-09T10:20:31Z</time>
      </trkpt>
      <trkpt lat="43.39847" lon="6.70189">
        <ele>102.728</ele>
        <time>2021-10-09T10:20:35Z</time>
      </trkpt>
      <trkpt lat="43.39735" lon="6.70172">
        <ele>104</ele>
        <time>2021-10-09T10:21:14Z</time>
      </trkpt>
      <trkpt lat="43.39693" lon="6.70156">
        <ele>104.524</ele>
        <time>2021-10-09T10:21:26Z</time>
      </trkpt>
      <trkpt lat="43.3966" lon="6.70124">
        <ele>105.183</ele>
        <time>2021-10-09T10:21:39Z</time>
      </trkpt>
      <trkpt lat="43.39634" lon="6.7008">
        <ele>106.297</ele>
        <time>2021-10-09T10:22:02Z</time>
      </trkpt>
      <trkpt lat="43.39618" lon="6.70064">
        <ele>106.465</ele>
        <time>2021-10-09T10:22:11Z</time>
      </trkpt>
      <trkpt lat="43.39609" lon="6.70061">
        <ele>106.802</ele>
        <time>2021-10-09T10:22:15Z</time>
      </trkpt>
      <trkpt lat="43.39589" lon="6.70064">
        <ele>108.176</ele>
        <time>2021-10-09T10:22:24Z</time>
      </trkpt>
      <trkpt lat="43.39524" lon="6.70101">
        <ele>106.572</ele>
        <time>2021-10-09T10:22:41Z</time>
      </trkpt>
      <trkpt lat="43.39502" lon="6.70108">
        <ele>105.459</ele>
        <time>2021-10-09T10:22:45Z</time>
      </trkpt>
      <trkpt lat="43.3947" lon="6.70109">
        <ele>104.817</ele>
        <time>2021-10-09T10:22:52Z</time>
      </trkpt>
      <trkpt lat="43.39395" lon="6.70089">
        <ele>102.77</ele>
        <time>2021-10-09T10:23:04Z</time>
      </trkpt>
      <trkpt lat="43.39367" lon="6.70072">
        <ele>102.196</ele>
        <time>2021-10-09T10:23:10Z</time>
      </trkpt>
      <trkpt lat="43.3926" lon="6.69941">
        <ele>102.654</ele>
        <time>2021-10-09T10:23:42Z</time>
      </trkpt>
      <trkpt lat="43.39216" lon="6.69919">
        <ele>102.487</ele>
        <time>2021-10-09T10:23:52Z</time>
      </trkpt>
      <trkpt lat="43.3918" lon="6.69871">
        <ele>105.666</ele>
        <time>2021-10-09T10:24:01Z</time>
      </trkpt>
      <trkpt lat="43.39144" lon="6.69848">
        <ele>108.896</ele>
        <time>2021-10-09T10:24:26Z</time>
      </trkpt>
      <trkpt lat="43.39138" lon="6.69839">
        <ele>109.446</ele>
        <time>2021-10-09T10:24:32Z</time>
      </trkpt>
      <trkpt lat="43.39133" lon="6.69827">
        <ele>110.676</ele>
        <time>2021-10-09T10:24:39Z</time>
      </trkpt>
      <trkpt lat="43.3913" lon="6.698">
        <ele>113.934</ele>
        <time>2021-10-09T10:24:51Z</time>
      </trkpt>
      <trkpt lat="43.39129" lon="6.69719">
        <ele>125.191</ele>
        <time>2021-10-09T10:25:33Z</time>
      </trkpt>
      <trkpt lat="43.3909" lon="6.69553">
        <ele>143.909</ele>
        <time>2021-10-09T10:27:16Z</time>
      </trkpt>
      <trkpt lat="43.39067" lon="6.69527">
        <ele>148.722</ele>
        <time>2021-10-09T10:28:42Z</time>
      </trkpt>
      <trkpt lat="43.39048" lon="6.69519">
        <ele>149.895</ele>
        <time>2021-10-09T10:28:56Z</time>
      </trkpt>
      <trkpt lat="43.38981" lon="6.69464">
        <ele>159.982</ele>
        <time>2021-10-09T10:29:52Z</time>
      </trkpt>
      <trkpt lat="43.38963" lon="6.69434">
        <ele>162.529</ele>
        <time>2021-10-09T10:30:13Z</time>
      </trkpt>
      <trkpt lat="43.38948" lon="6.69386">
        <ele>170.114</ele>
        <time>2021-10-09T10:30:44Z</time>
      </trkpt>
      <trkpt lat="43.38934" lon="6.69351">
        <ele>175.691</ele>
        <time>2021-10-09T10:31:06Z</time>
      </trkpt>
      <trkpt lat="43.38908" lon="6.69305">
        <ele>185.128</ele>
        <time>2021-10-09T10:31:44Z</time>
      </trkpt>
      <trkpt lat="43.38881" lon="6.69296">
        <ele>188.478</ele>
        <time>2021-10-09T10:33:07Z</time>
      </trkpt>
      <trkpt lat="43.38826" lon="6.6926">
        <ele>196.388</ele>
        <time>2021-10-09T10:34:35Z</time>
      </trkpt>
      <trkpt lat="43.38792" lon="6.69213">
        <ele>205.862</ele>
        <time>2021-10-09T10:35:29Z</time>
      </trkpt>
      <trkpt lat="43.38741" lon="6.69162">
        <ele>210.132</ele>
        <time>2021-10-09T10:36:39Z</time>
      </trkpt>
      <trkpt lat="43.38708" lon="6.69135">
        <ele>210.352</ele>
        <time>2021-10-09T10:37:02Z</time>
      </trkpt>
      <trkpt lat="43.38714" lon="6.6911">
        <ele>215.581</ele>
        <time>2021-10-09T10:37:17Z</time>
      </trkpt>
      <trkpt lat="43.38741" lon="6.69105">
        <ele>219.918</ele>
        <time>2021-10-09T10:37:36Z</time>
      </trkpt>
      <trkpt lat="43.38751" lon="6.69109">
        <ele>220.414</ele>
        <time>2021-10-09T10:37:44Z</time>
      </trkpt>
      <trkpt lat="43.38768" lon="6.69123">
        <ele>220.572</ele>
        <time>2021-10-09T10:37:57Z</time>
      </trkpt>
      <trkpt lat="43.38788" lon="6.69127">
        <ele>221.529</ele>
        <time>2021-10-09T10:38:10Z</time>
      </trkpt>
      <trkpt lat="43.38803" lon="6.69143">
        <ele>220.596</ele>
        <time>2021-10-09T10:38:21Z</time>
      </trkpt>
      <trkpt lat="43.38814" lon="6.69147">
        <ele>220.793</ele>
        <time>2021-10-09T10:38:40Z</time>
      </trkpt>
      <trkpt lat="43.38823" lon="6.69135">
        <ele>221.608</ele>
        <time>2021-10-09T10:39:35Z</time>
      </trkpt>
      <trkpt lat="43.38924" lon="6.69052">
        <ele>211.384</ele>
        <time>2021-10-09T10:39:58Z</time>
      </trkpt>
      <trkpt lat="43.39036" lon="6.69023">
        <ele>189.108</ele>
        <time>2021-10-09T10:40:20Z</time>
      </trkpt>
      <trkpt lat="43.39073" lon="6.68998">
        <ele>183.912</ele>
        <time>2021-10-09T10:40:28Z</time>
      </trkpt>
      <trkpt lat="43.39096" lon="6.68991">
        <ele>179.218</ele>
        <time>2021-10-09T10:40:33Z</time>
      </trkpt>
      <trkpt lat="43.39104" lon="6.68981">
        <ele>177.641</ele>
        <time>2021-10-09T10:40:35Z</time>
      </trkpt>
      <trkpt lat="43.39112" lon="6.68957">
        <ele>174.844</ele>
        <time>2021-10-09T10:40:39Z</time>
      </trkpt>
      <trkpt lat="43.39122" lon="6.68945">
        <ele>172.18</ele>
        <time>2021-10-09T10:40:42Z</time>
      </trkpt>
      <trkpt lat="43.39134" lon="6.68944">
        <ele>169.052</ele>
        <time>2021-10-09T10:40:45Z</time>
      </trkpt>
      <trkpt lat="43.39147" lon="6.68949">
        <ele>165.798</ele>
        <time>2021-10-09T10:40:48Z</time>
      </trkpt>
      <trkpt lat="43.39159" lon="6.68947">
        <ele>162.927</ele>
        <time>2021-10-09T10:40:51Z</time>
      </trkpt>
      <trkpt lat="43.39167" lon="6.68938">
        <ele>161.853</ele>
        <time>2021-10-09T10:40:53Z</time>
      </trkpt>
      <trkpt lat="43.3919" lon="6.68923">
        <ele>157.555</ele>
        <time>2021-10-09T10:40:57Z</time>
      </trkpt>
      <trkpt lat="43.39203" lon="6.68919">
        <ele>155.574</ele>
        <time>2021-10-09T10:40:59Z</time>
      </trkpt>
      <trkpt lat="43.39258" lon="6.68916">
        <ele>149.038</ele>
        <time>2021-10-09T10:41:07Z</time>
      </trkpt>
      <trkpt lat="43.39279" lon="6.68924">
        <ele>146.443</ele>
        <time>2021-10-09T10:41:14Z</time>
      </trkpt>
      <trkpt lat="43.393" lon="6.68915">
        <ele>142.633</ele>
        <time>2021-10-09T10:41:22Z</time>
      </trkpt>
      <trkpt lat="43.39337" lon="6.68886">
        <ele>139.65</ele>
        <time>2021-10-09T10:41:32Z</time>
      </trkpt>
      <trkpt lat="43.39408" lon="6.68913">
        <ele>124.825</ele>
        <time>2021-10-09T10:41:46Z</time>
      </trkpt>
      <trkpt lat="43.39437" lon="6.68931">
        <ele>118.297</ele>
        <time>2021-10-09T10:41:52Z</time>
      </trkpt>
      <trkpt lat="43.39448" lon="6.6893">
        <ele>117.162</ele>
        <time>2021-10-09T10:41:54Z</time>
      </trkpt>
      <trkpt lat="43.39513" lon="6.68874">
        <ele>110.393</ele>
        <time>2021-10-09T10:42:11Z</time>
      </trkpt>
      <trkpt lat="43.39523" lon="6.68862">
        <ele>108.162</ele>
        <time>2021-10-09T10:42:14Z</time>
      </trkpt>
      <trkpt lat="43.39535" lon="6.6884">
        <ele>106.354</ele>
        <time>2021-10-09T10:42:19Z</time>
      </trkpt>
      <trkpt lat="43.39538" lon="6.68824">
        <ele>105.497</ele>
        <time>2021-10-09T10:42:22Z</time>
      </trkpt>
      <trkpt lat="43.39518" lon="6.68783">
        <ele>105.427</ele>
        <time>2021-10-09T10:42:31Z</time>
      </trkpt>
      <trkpt lat="43.39479" lon="6.68739">
        <ele>106.723</ele>
        <time>2021-10-09T10:42:58Z</time>
      </trkpt>
      <trkpt lat="43.39462" lon="6.68686">
        <ele>101.691</ele>
        <time>2021-10-09T10:43:15Z</time>
      </trkpt>
      <trkpt lat="43.39466" lon="6.68638">
        <ele>95.736</ele>
        <time>2021-10-09T10:43:22Z</time>
      </trkpt>
      <trkpt lat="43.39482" lon="6.68546">
        <ele>87.126</ele>
        <time>2021-10-09T10:43:32Z</time>
      </trkpt>
      <trkpt lat="43.39481" lon="6.68532">
        <ele>86.96</ele>
        <time>2021-10-09T10:43:35Z</time>
      </trkpt>
      <trkpt lat="43.39471" lon="6.68523">
        <ele>87.038</ele>
        <time>2021-10-09T10:43:39Z</time>
      </trkpt>
      <trkpt lat="43.3946" lon="6.6852">
        <ele>86.728</ele>
        <time>2021-10-09T10:43:42Z</time>
      </trkpt>
      <trkpt lat="43.39449" lon="6.68521">
        <ele>86.639</ele>
        <time>2021-10-09T10:43:47Z</time>
      </trkpt>
      <trkpt lat="43.39436" lon="6.68513">
        <ele>86.055</ele>
        <time>2021-10-09T10:43:50Z</time>
      </trkpt>
      <trkpt lat="43.394" lon="6.68467">
        <ele>81.611</ele>
        <time>2021-10-09T10:43:58Z</time>
      </trkpt>
      <trkpt lat="43.3938" lon="6.68425">
        <ele>78.662</ele>
        <time>2021-10-09T10:44:04Z</time>
      </trkpt>
      <trkpt lat="43.39369" lon="6.68414">
        <ele>77.919</ele>
        <time>2021-10-09T10:44:07Z</time>
      </trkpt>
      <trkpt lat="43.39363" lon="6.68401">
        <ele>77.075</ele>
        <time>2021-10-09T10:44:10Z</time>
      </trkpt>
      <trkpt lat="43.39355" lon="6.68352">
        <ele>73.526</ele>
        <time>2021-10-09T10:44:19Z</time>
      </trkpt>
      <trkpt lat="43.39349" lon="6.68341">
        <ele>72.169</ele>
        <time>2021-10-09T10:44:21Z</time>
      </trkpt>
      <trkpt lat="43.39341" lon="6.68333">
        <ele>71.456</ele>
        <time>2021-10-09T10:44:23Z</time>
      </trkpt>
      <trkpt lat="43.39321" lon="6.68339">
        <ele>71.744</ele>
        <time>2021-10-09T10:44:30Z</time>
      </trkpt>
      <trkpt lat="43.3931" lon="6.68336">
        <ele>71.489</ele>
        <time>2021-10-09T10:44:34Z</time>
      </trkpt>
      <trkpt lat="43.39305" lon="6.68322">
        <ele>70.055</ele>
        <time>2021-10-09T10:44:38Z</time>
      </trkpt>
      <trkpt lat="43.39316" lon="6.68295">
        <ele>70.789</ele>
        <time>2021-10-09T10:44:45Z</time>
      </trkpt>
      <trkpt lat="43.39316" lon="6.68279">
        <ele>71.164</ele>
        <time>2021-10-09T10:44:48Z</time>
      </trkpt>
      <trkpt lat="43.39311" lon="6.68269">
        <ele>72.004</ele>
        <time>2021-10-09T10:44:52Z</time>
      </trkpt>
      <trkpt lat="43.39277" lon="6.68242">
        <ele>78.618</ele>
        <time>2021-10-09T10:45:14Z</time>
      </trkpt>
      <trkpt lat="43.39271" lon="6.68231">
        <ele>79.053</ele>
        <time>2021-10-09T10:45:20Z</time>
      </trkpt>
      <trkpt lat="43.39271" lon="6.682">
        <ele>76.714</ele>
        <time>2021-10-09T10:45:30Z</time>
      </trkpt>
      <trkpt lat="43.3928" lon="6.68171">
        <ele>75.11</ele>
        <time>2021-10-09T10:45:38Z</time>
      </trkpt>
      <trkpt lat="43.39298" lon="6.68136">
        <ele>74.713</ele>
        <time>2021-10-09T10:45:49Z</time>
      </trkpt>
      <trkpt lat="43.39327" lon="6.68096">
        <ele>77.19</ele>
        <time>2021-10-09T10:46:04Z</time>
      </trkpt>
      <trkpt lat="43.39326" lon="6.68027">
        <ele>80.288</ele>
        <time>2021-10-09T10:46:31Z</time>
      </trkpt>
      <trkpt lat="43.39333" lon="6.68015">
        <ele>80.225</ele>
        <time>2021-10-09T10:46:37Z</time>
      </trkpt>
      <trkpt lat="43.39336" lon="6.68001">
        <ele>78.753</ele>
        <time>2021-10-09T10:46:40Z</time>
      </trkpt>
      <trkpt lat="43.39332" lon="6.67971">
        <ele>76.043</ele>
        <time>2021-10-09T10:46:46Z</time>
      </trkpt>
      <trkpt lat="43.39323" lon="6.67953">
        <ele>74.842</ele>
        <time>2021-10-09T10:46:58Z</time>
      </trkpt>
      <trkpt lat="43.39307" lon="6.67893">
        <ele>66.171</ele>
        <time>2021-10-09T10:48:03Z</time>
      </trkpt>
      <trkpt lat="43.393" lon="6.67882">
        <ele>64.063</ele>
        <time>2021-10-09T10:48:31Z</time>
      </trkpt>
      <trkpt lat="43.393" lon="6.67868">
        <ele>62.133</ele>
        <time>2021-10-09T10:48:53Z</time>
      </trkpt>
      <trkpt lat="43.39306" lon="6.67858">
        <ele>60.771</ele>
        <time>2021-10-09T10:49:03Z</time>
      </trkpt>
      <trkpt lat="43.3932" lon="6.67846">
        <ele>59.054</ele>
        <time>2021-10-09T10:49:39Z</time>
      </trkpt>
      <trkpt lat="43.39318" lon="6.67821">
        <ele>54.722</ele>
        <time>2021-10-09T10:50:28Z</time>
      </trkpt>
      <trkpt lat="43.3931" lon="6.67793">
        <ele>49.385</ele>
        <time>2021-10-09T10:51:05Z</time>
      </trkpt>
      <trkpt lat="43.39317" lon="6.67782">
        <ele>47.477</ele>
        <time>2021-10-09T10:51:12Z</time>
      </trkpt>
      <trkpt lat="43.39325" lon="6.67777">
        <ele>46.693</ele>
        <time>2021-10-09T10:51:20Z</time>
      </trkpt>
      <trkpt lat="43.39333" lon="6.67751">
        <ele>41.674</ele>
        <time>2021-10-09T10:51:30Z</time>
      </trkpt>
      <trkpt lat="43.39328" lon="6.67725">
        <ele>38.668</ele>
        <time>2021-10-09T10:51:46Z</time>
      </trkpt>
      <trkpt lat="43.3926" lon="6.67661">
        <ele>21.891</ele>
        <time>2021-10-09T10:52:28Z</time>
      </trkpt>
      <trkpt lat="43.39251" lon="6.6766">
        <ele>21.5</ele>
        <time>2021-10-09T10:52:32Z</time>
      </trkpt>
      <trkpt lat="43.39231" lon="6.67668">
        <ele>21.857</ele>
        <time>2021-10-09T10:52:41Z</time>
      </trkpt>
      <trkpt lat="43.39221" lon="6.67666">
        <ele>21.655</ele>
        <time>2021-10-09T10:52:44Z</time>
      </trkpt>
      <trkpt lat="43.39222" lon="6.67651">
        <ele>20.561</ele>
        <time>2021-10-09T10:52:51Z</time>
      </trkpt>
      <trkpt lat="43.39215" lon="6.6764">
        <ele>19.886</ele>
        <time>2021-10-09T10:52:57Z</time>
      </trkpt>
      <trkpt lat="43.39215" lon="6.67626">
        <ele>21.245</ele>
        <time>2021-10-09T10:53:01Z</time>
      </trkpt>
      <trkpt lat="43.39257" lon="6.67627">
        <ele>20.695</ele>
        <time>2021-10-09T10:53:16Z</time>
      </trkpt>
      <trkpt lat="43.39278" lon="6.6762">
        <ele>21.39</ele>
        <time>2021-10-09T10:53:23Z</time>
      </trkpt>
      <trkpt lat="43.39338" lon="6.67616">
        <ele>21.991</ele>
        <time>2021-10-09T10:53:38Z</time>
      </trkpt>
      <trkpt lat="43.39358" lon="6.67602">
        <ele>20.886</ele>
        <time>2021-10-09T10:53:42Z</time>
      </trkpt>
      <trkpt lat="43.39387" lon="6.67588">
        <ele>19.219</ele>
        <time>2021-10-09T10:53:48Z</time>
      </trkpt>
      <trkpt lat="43.39404" lon="6.67574">
        <ele>20.795</ele>
        <time>2021-10-09T10:53:53Z</time>
      </trkpt>
      <trkpt lat="43.39414" lon="6.67575">
        <ele>20.727</ele>
        <time>2021-10-09T10:53:56Z</time>
      </trkpt>
      <trkpt lat="43.39424" lon="6.67581">
        <ele>20.449</ele>
        <time>2021-10-09T10:53:59Z</time>
      </trkpt>
      <trkpt lat="43.39456" lon="6.67582">
        <ele>20.14</ele>
        <time>2021-10-09T10:54:08Z</time>
      </trkpt>
      <trkpt lat="43.39467" lon="6.67576">
        <ele>20.025</ele>
        <time>2021-10-09T10:54:11Z</time>
      </trkpt>
      <trkpt lat="43.39487" lon="6.67556">
        <ele>19.757</ele>
        <time>2021-10-09T10:54:17Z</time>
      </trkpt>
      <trkpt lat="43.39517" lon="6.67548">
        <ele>19.156</ele>
        <time>2021-10-09T10:54:25Z</time>
      </trkpt>
      <trkpt lat="43.39521" lon="6.67534">
        <ele>18.892</ele>
        <time>2021-10-09T10:54:30Z</time>
      </trkpt>
      <trkpt lat="43.39531" lon="6.67524">
        <ele>18.871</ele>
        <time>2021-10-09T10:57:50Z</time>
      </trkpt>
      <trkpt lat="43.39571" lon="6.675">
        <ele>18.506</ele>
        <time>2021-10-09T10:58:02Z</time>
      </trkpt>
      <trkpt lat="43.39673" lon="6.67472">
        <ele>18</ele>
        <time>2021-10-09T10:58:29Z</time>
      </trkpt>
      <trkpt lat="43.39705" lon="6.67476">
        <ele>18</ele>
        <time>2021-10-09T10:58:36Z</time>
      </trkpt>
      <trkpt lat="43.39721" lon="6.67494">
        <ele>17.955</ele>
        <time>2021-10-09T10:58:40Z</time>
      </trkpt>
      <trkpt lat="43.3973" lon="6.67492">
        <ele>17.979</ele>
        <time>2021-10-09T10:58:48Z</time>
      </trkpt>
      <trkpt lat="43.39738" lon="6.67479">
        <ele>18</ele>
        <time>2021-10-09T10:58:57Z</time>
      </trkpt>
      <trkpt lat="43.3974" lon="6.67464">
        <ele>18</ele>
        <time>2021-10-09T10:59:00Z</time>
      </trkpt>
      <trkpt lat="43.39738" lon="6.67435">
        <ele>18</ele>
        <time>2021-10-09T10:59:07Z</time>
      </trkpt>
      <trkpt lat="43.39748" lon="6.67364">
        <ele>17.959</ele>
        <time>2021-10-09T10:59:23Z</time>
      </trkpt>
      <trkpt lat="43.39748" lon="6.67319">
        <ele>17.201</ele>
        <time>2021-10-09T10:59:32Z</time>
      </trkpt>
      <trkpt lat="43.39734" lon="6.67266">
        <ele>17.391</ele>
        <time>2021-10-09T10:59:44Z</time>
      </trkpt>
      <trkpt lat="43.39721" lon="6.67247">
        <ele>17.281</ele>
        <time>2021-10-09T10:59:50Z</time>
      </trkpt>
      <trkpt lat="43.39712" lon="6.67246">
        <ele>17.095</ele>
        <time>2021-10-09T10:59:57Z</time>
      </trkpt>
      <trkpt lat="43.39711" lon="6.6725">
        <ele>17.078</ele>
        <time>2021-10-09T11:04:19Z</time>
      </trkpt>
      <trkpt lat="43.3971" lon="6.67243">
        <ele>17.064</ele>
        <time>2021-10-09T11:05:03Z</time>
      </trkpt>
      <trkpt lat="43.3967" lon="6.67199">
        <ele>16.128</ele>
        <time>2021-10-09T11:05:34Z</time>
      </trkpt>
      <trkpt lat="43.39658" lon="6.67195">
        <ele>16.042</ele>
        <time>2021-10-09T11:05:38Z</time>
      </trkpt>
      <trkpt lat="43.39635" lon="6.67197">
        <ele>16.238</ele>
        <time>2021-10-09T11:05:46Z</time>
      </trkpt>
      <trkpt lat="43.39576" lon="6.67226">
        <ele>18.665</ele>
        <time>2021-10-09T11:06:06Z</time>
      </trkpt>
      <trkpt lat="43.3956" lon="6.67213">
        <ele>19.254</ele>
        <time>2021-10-09T11:06:12Z</time>
      </trkpt>
      <trkpt lat="43.39536" lon="6.67163">
        <ele>18.596</ele>
        <time>2021-10-09T11:06:24Z</time>
      </trkpt>
      <trkpt lat="43.39519" lon="6.67145">
        <ele>18.364</ele>
        <time>2021-10-09T11:06:31Z</time>
      </trkpt>
      <trkpt lat="43.395" lon="6.67135">
        <ele>18.34</ele>
        <time>2021-10-09T11:06:39Z</time>
      </trkpt>
      <trkpt lat="43.3949" lon="6.6711">
        <ele>16.704</ele>
        <time>2021-10-09T11:06:46Z</time>
      </trkpt>
      <trkpt lat="43.39482" lon="6.67102">
        <ele>16.267</ele>
        <time>2021-10-09T11:06:50Z</time>
      </trkpt>
      <trkpt lat="43.39461" lon="6.67093">
        <ele>16.443</ele>
        <time>2021-10-09T11:06:59Z</time>
      </trkpt>
      <trkpt lat="43.39447" lon="6.67075">
        <ele>16.203</ele>
        <time>2021-10-09T11:07:06Z</time>
      </trkpt>
      <trkpt lat="43.39396" lon="6.66976">
        <ele>16.202</ele>
        <time>2021-10-09T11:07:30Z</time>
      </trkpt>
      <trkpt lat="43.39367" lon="6.66946">
        <ele>17.392</ele>
        <time>2021-10-09T11:07:39Z</time>
      </trkpt>
      <trkpt lat="43.39314" lon="6.66905">
        <ele>17.174</ele>
        <time>2021-10-09T11:07:54Z</time>
      </trkpt>
      <trkpt lat="43.39279" lon="6.66889">
        <ele>17.4</ele>
        <time>2021-10-09T11:08:02Z</time>
      </trkpt>
      <trkpt lat="43.3927" lon="6.6688">
        <ele>17.062</ele>
        <time>2021-10-09T11:08:04Z</time>
      </trkpt>
      <trkpt lat="43.39242" lon="6.66818">
        <ele>15.164</ele>
        <time>2021-10-09T11:08:16Z</time>
      </trkpt>
      <trkpt lat="43.39242" lon="6.66802">
        <ele>15.281</ele>
        <time>2021-10-09T11:08:21Z</time>
      </trkpt>
      <trkpt lat="43.3925" lon="6.66791">
        <ele>15.638</ele>
        <time>2021-10-09T11:08:25Z</time>
      </trkpt>
      <trkpt lat="43.39279" lon="6.66715">
        <ele>20.15</ele>
        <time>2021-10-09T11:08:48Z</time>
      </trkpt>
      <trkpt lat="43.3928" lon="6.66703">
        <ele>21.153</ele>
        <time>2021-10-09T11:08:54Z</time>
      </trkpt>
      <trkpt lat="43.39273" lon="6.66677">
        <ele>23.824</ele>
        <time>2021-10-09T11:09:07Z</time>
      </trkpt>
      <trkpt lat="43.39265" lon="6.66668">
        <ele>25.647</ele>
        <time>2021-10-09T11:09:14Z</time>
      </trkpt>
      <trkpt lat="43.39264" lon="6.66653">
        <ele>27.539</ele>
        <time>2021-10-09T11:09:20Z</time>
      </trkpt>
      <trkpt lat="43.39289" lon="6.6659">
        <ele>32.641</ele>
        <time>2021-10-09T11:09:38Z</time>
      </trkpt>
      <trkpt lat="43.39289" lon="6.66505">
        <ele>39.587</ele>
        <time>2021-10-09T11:10:26Z</time>
      </trkpt>
      <trkpt lat="43.39285" lon="6.6648">
        <ele>40.36</ele>
        <time>2021-10-09T11:10:58Z</time>
      </trkpt>
      <trkpt lat="43.39278" lon="6.6647">
        <ele>41.305</ele>
        <time>2021-10-09T11:11:09Z</time>
      </trkpt>
      <trkpt lat="43.39235" lon="6.66449">
        <ele>46.212</ele>
        <time>2021-10-09T11:12:02Z</time>
      </trkpt>
      <trkpt lat="43.39213" lon="6.66387">
        <ele>50.122</ele>
        <time>2021-10-09T11:12:27Z</time>
      </trkpt>
      <trkpt lat="43.39188" lon="6.66342">
        <ele>55.006</ele>
        <time>2021-10-09T11:12:45Z</time>
      </trkpt>
      <trkpt lat="43.39151" lon="6.66322">
        <ele>56.885</ele>
        <time>2021-10-09T11:12:58Z</time>
      </trkpt>
      <trkpt lat="43.3914" lon="6.66319">
        <ele>57.015</ele>
        <time>2021-10-09T11:13:02Z</time>
      </trkpt>
      <trkpt lat="43.39112" lon="6.66299">
        <ele>58.065</ele>
        <time>2021-10-09T11:13:14Z</time>
      </trkpt>
      <trkpt lat="43.39075" lon="6.66245">
        <ele>61.589</ele>
        <time>2021-10-09T11:13:34Z</time>
      </trkpt>
      <trkpt lat="43.3905" lon="6.66223">
        <ele>63.473</ele>
        <time>2021-10-09T11:13:46Z</time>
      </trkpt>
      <trkpt lat="43.3904" lon="6.66218">
        <ele>63.746</ele>
        <time>2021-10-09T11:13:52Z</time>
      </trkpt>
      <trkpt lat="43.3903" lon="6.66219">
        <ele>63.415</ele>
        <time>2021-10-09T11:13:57Z</time>
      </trkpt>
      <trkpt lat="43.39021" lon="6.66215">
        <ele>63.443</ele>
        <time>2021-10-09T11:14:03Z</time>
      </trkpt>
      <trkpt lat="43.3901" lon="6.66193">
        <ele>64.752</ele>
        <time>2021-10-09T11:14:15Z</time>
      </trkpt>
      <trkpt lat="43.39008" lon="6.66179">
        <ele>65.679</ele>
        <time>2021-10-09T11:14:21Z</time>
      </trkpt>
      <trkpt lat="43.39013" lon="6.66128">
        <ele>69.524</ele>
        <time>2021-10-09T11:14:41Z</time>
      </trkpt>
      <trkpt lat="43.39011" lon="6.66101">
        <ele>71.065</ele>
        <time>2021-10-09T11:14:51Z</time>
      </trkpt>
      <trkpt lat="43.39016" lon="6.66074">
        <ele>73.204</ele>
        <time>2021-10-09T11:14:59Z</time>
      </trkpt>
      <trkpt lat="43.39017" lon="6.66044">
        <ele>74.625</ele>
        <time>2021-10-09T11:15:07Z</time>
      </trkpt>
      <trkpt lat="43.39013" lon="6.66028">
        <ele>74.906</ele>
        <time>2021-10-09T11:15:11Z</time>
      </trkpt>
      <trkpt lat="43.39005" lon="6.66019">
        <ele>74.374</ele>
        <time>2021-10-09T11:15:15Z</time>
      </trkpt>
      <trkpt lat="43.38986" lon="6.6601">
        <ele>73.081</ele>
        <time>2021-10-09T11:15:22Z</time>
      </trkpt>
      <trkpt lat="43.38958" lon="6.66002">
        <ele>72.385</ele>
        <time>2021-10-09T11:15:31Z</time>
      </trkpt>
      <trkpt lat="43.38926" lon="6.65962">
        <ele>74.715</ele>
        <time>2021-10-09T11:15:48Z</time>
      </trkpt>
      <trkpt lat="43.38872" lon="6.65918">
        <ele>77.32</ele>
        <time>2021-10-09T11:16:11Z</time>
      </trkpt>
      <trkpt lat="43.38851" lon="6.6591">
        <ele>77.59</ele>
        <time>2021-10-09T11:16:17Z</time>
      </trkpt>
      <trkpt lat="43.38804" lon="6.6591">
        <ele>77.754</ele>
        <time>2021-10-09T11:16:29Z</time>
      </trkpt>
      <trkpt lat="43.38792" lon="6.65916">
        <ele>77.867</ele>
        <time>2021-10-09T11:16:32Z</time>
      </trkpt>
      <trkpt lat="43.38781" lon="6.65928">
        <ele>77.295</ele>
        <time>2021-10-09T11:16:35Z</time>
      </trkpt>
      <trkpt lat="43.38775" lon="6.65941">
        <ele>76.352</ele>
        <time>2021-10-09T11:16:37Z</time>
      </trkpt>
      <trkpt lat="43.38766" lon="6.65977">
        <ele>74.684</ele>
        <time>2021-10-09T11:16:41Z</time>
      </trkpt>
      <trkpt lat="43.38743" lon="6.66017">
        <ele>74.425</ele>
        <time>2021-10-09T11:16:47Z</time>
      </trkpt>
      <trkpt lat="43.38727" lon="6.66032">
        <ele>75.267</ele>
        <time>2021-10-09T11:16:51Z</time>
      </trkpt>
      <trkpt lat="43.38692" lon="6.66086">
        <ele>76.611</ele>
        <time>2021-10-09T11:17:03Z</time>
      </trkpt>
      <trkpt lat="43.38649" lon="6.66187">
        <ele>77.175</ele>
        <time>2021-10-09T11:17:27Z</time>
      </trkpt>
      <trkpt lat="43.38641" lon="6.66194">
        <ele>77.1</ele>
        <time>2021-10-09T11:17:31Z</time>
      </trkpt>
      <trkpt lat="43.38621" lon="6.662">
        <ele>77.769</ele>
        <time>2021-10-09T11:17:38Z</time>
      </trkpt>
      <trkpt lat="43.38601" lon="6.66196">
        <ele>76.95</ele>
        <time>2021-10-09T11:17:44Z</time>
      </trkpt>
      <trkpt lat="43.38579" lon="6.66182">
        <ele>77.735</ele>
        <time>2021-10-09T11:17:50Z</time>
      </trkpt>
      <trkpt lat="43.38565" lon="6.66161">
        <ele>78.122</ele>
        <time>2021-10-09T11:17:56Z</time>
      </trkpt>
      <trkpt lat="43.38555" lon="6.66119">
        <ele>78.105</ele>
        <time>2021-10-09T11:18:03Z</time>
      </trkpt>
      <trkpt lat="43.38554" lon="6.66089">
        <ele>78.437</ele>
        <time>2021-10-09T11:18:08Z</time>
      </trkpt>
      <trkpt lat="43.38566" lon="6.66062">
        <ele>79.245</ele>
        <time>2021-10-09T11:18:12Z</time>
      </trkpt>
      <trkpt lat="43.38569" lon="6.66047">
        <ele>79.28</ele>
        <time>2021-10-09T11:18:14Z</time>
      </trkpt>
      <trkpt lat="43.38563" lon="6.66037">
        <ele>79.688</ele>
        <time>2021-10-09T11:18:16Z</time>
      </trkpt>
      <trkpt lat="43.38498" lon="6.6597">
        <ele>75.358</ele>
        <time>2021-10-09T11:18:32Z</time>
      </trkpt>
      <trkpt lat="43.38491" lon="6.65954">
        <ele>74.855</ele>
        <time>2021-10-09T11:18:34Z</time>
      </trkpt>
      <trkpt lat="43.38482" lon="6.65897">
        <ele>74.303</ele>
        <time>2021-10-09T11:18:40Z</time>
      </trkpt>
      <trkpt lat="43.38482" lon="6.65879">
        <ele>73.837</ele>
        <time>2021-10-09T11:18:42Z</time>
      </trkpt>
      <trkpt lat="43.38488" lon="6.65863">
        <ele>74.63</ele>
        <time>2021-10-09T11:18:44Z</time>
      </trkpt>
      <trkpt lat="43.38508" lon="6.65846">
        <ele>78.206</ele>
        <time>2021-10-09T11:18:48Z</time>
      </trkpt>
      <trkpt lat="43.38514" lon="6.65832">
        <ele>79.931</ele>
        <time>2021-10-09T11:18:51Z</time>
      </trkpt>
      <trkpt lat="43.38503" lon="6.65822">
        <ele>78.377</ele>
        <time>2021-10-09T11:18:54Z</time>
      </trkpt>
      <trkpt lat="43.38469" lon="6.65813">
        <ele>73.109</ele>
        <time>2021-10-09T11:19:02Z</time>
      </trkpt>
      <trkpt lat="43.38449" lon="6.65814">
        <ele>69.235</ele>
        <time>2021-10-09T11:19:06Z</time>
      </trkpt>
      <trkpt lat="43.38439" lon="6.6581">
        <ele>67.329</ele>
        <time>2021-10-09T11:19:08Z</time>
      </trkpt>
      <trkpt lat="43.38436" lon="6.65797">
        <ele>67.528</ele>
        <time>2021-10-09T11:19:10Z</time>
      </trkpt>
      <trkpt lat="43.38439" lon="6.65747">
        <ele>65.527</ele>
        <time>2021-10-09T11:19:16Z</time>
      </trkpt>
      <trkpt lat="43.38444" lon="6.6573">
        <ele>66.021</ele>
        <time>2021-10-09T11:19:18Z</time>
      </trkpt>
      <trkpt lat="43.38478" lon="6.65677">
        <ele>67.452</ele>
        <time>2021-10-09T11:19:26Z</time>
      </trkpt>
      <trkpt lat="43.38488" lon="6.65645">
        <ele>66.838</ele>
        <time>2021-10-09T11:19:30Z</time>
      </trkpt>
      <trkpt lat="43.38491" lon="6.65609">
        <ele>63.11</ele>
        <time>2021-10-09T11:19:34Z</time>
      </trkpt>
      <trkpt lat="43.38491" lon="6.6557">
        <ele>61.098</ele>
        <time>2021-10-09T11:19:38Z</time>
      </trkpt>
      <trkpt lat="43.38496" lon="6.65551">
        <ele>61.448</ele>
        <time>2021-10-09T11:19:40Z</time>
      </trkpt>
      <trkpt lat="43.38512" lon="6.65522">
        <ele>64.075</ele>
        <time>2021-10-09T11:19:44Z</time>
      </trkpt>
      <trkpt lat="43.3851" lon="6.65509">
        <ele>63.936</ele>
        <time>2021-10-09T11:19:48Z</time>
      </trkpt>
      <trkpt lat="43.385" lon="6.65516">
        <ele>63.01</ele>
        <time>2021-10-09T11:19:51Z</time>
      </trkpt>
      <trkpt lat="43.38468" lon="6.6552">
        <ele>58.362</ele>
        <time>2021-10-09T11:20:01Z</time>
      </trkpt>
      <trkpt lat="43.38458" lon="6.65513">
        <ele>56.164</ele>
        <time>2021-10-09T11:20:05Z</time>
      </trkpt>
      <trkpt lat="43.38459" lon="6.655">
        <ele>57.549</ele>
        <time>2021-10-09T11:20:09Z</time>
      </trkpt>
      <trkpt lat="43.38512" lon="6.65443">
        <ele>67.136</ele>
        <time>2021-10-09T11:20:38Z</time>
      </trkpt>
      <trkpt lat="43.38519" lon="6.6543">
        <ele>69.204</ele>
        <time>2021-10-09T11:20:41Z</time>
      </trkpt>
      <trkpt lat="43.38523" lon="6.65414">
        <ele>71.78</ele>
        <time>2021-10-09T11:20:44Z</time>
      </trkpt>
      <trkpt lat="43.38517" lon="6.65401">
        <ele>73.103</ele>
        <time>2021-10-09T11:20:47Z</time>
      </trkpt>
      <trkpt lat="43.38475" lon="6.65367">
        <ele>67.031</ele>
        <time>2021-10-09T11:21:05Z</time>
      </trkpt>
      <trkpt lat="43.38452" lon="6.65315">
        <ele>65.765</ele>
        <time>2021-10-09T11:21:14Z</time>
      </trkpt>
      <trkpt lat="43.3844" lon="6.65265">
        <ele>66.316</ele>
        <time>2021-10-09T11:21:20Z</time>
      </trkpt>
      <trkpt lat="43.38429" lon="6.65238">
        <ele>65.021</ele>
        <time>2021-10-09T11:21:24Z</time>
      </trkpt>
      <trkpt lat="43.38426" lon="6.65194">
        <ele>65.566</ele>
        <time>2021-10-09T11:21:30Z</time>
      </trkpt>
      <trkpt lat="43.38417" lon="6.65129">
        <ele>60.57</ele>
        <time>2021-10-09T11:21:38Z</time>
      </trkpt>
      <trkpt lat="43.38418" lon="6.65089">
        <ele>61.581</ele>
        <time>2021-10-09T11:21:42Z</time>
      </trkpt>
      <trkpt lat="43.38413" lon="6.65072">
        <ele>60.251</ele>
        <time>2021-10-09T11:21:44Z</time>
      </trkpt>
      <trkpt lat="43.38405" lon="6.6506">
        <ele>58.171</ele>
        <time>2021-10-09T11:21:46Z</time>
      </trkpt>
      <trkpt lat="43.38398" lon="6.65029">
        <ele>60.425</ele>
        <time>2021-10-09T11:21:50Z</time>
      </trkpt>
      <trkpt lat="43.38391" lon="6.65015">
        <ele>61.369</ele>
        <time>2021-10-09T11:21:52Z</time>
      </trkpt>
      <trkpt lat="43.38365" lon="6.64982">
        <ele>55.594</ele>
        <time>2021-10-09T11:21:58Z</time>
      </trkpt>
      <trkpt lat="43.38359" lon="6.64968">
        <ele>54.224</ele>
        <time>2021-10-09T11:22:00Z</time>
      </trkpt>
      <trkpt lat="43.38352" lon="6.64932">
        <ele>57.461</ele>
        <time>2021-10-09T11:22:04Z</time>
      </trkpt>
      <trkpt lat="43.38347" lon="6.64918">
        <ele>57.521</ele>
        <time>2021-10-09T11:22:06Z</time>
      </trkpt>
      <trkpt lat="43.38339" lon="6.64913">
        <ele>56.671</ele>
        <time>2021-10-09T11:22:09Z</time>
      </trkpt>
      <trkpt lat="43.38331" lon="6.64916">
        <ele>55.771</ele>
        <time>2021-10-09T11:22:17Z</time>
      </trkpt>
      <trkpt lat="43.38321" lon="6.64913">
        <ele>54.615</ele>
        <time>2021-10-09T11:22:48Z</time>
      </trkpt>
      <trkpt lat="43.38315" lon="6.64892">
        <ele>54.196</ele>
        <time>2021-10-09T11:23:56Z</time>
      </trkpt>
      <trkpt lat="43.38311" lon="6.64847">
        <ele>54.388</ele>
        <time>2021-10-09T11:28:33Z</time>
      </trkpt>
      <trkpt lat="43.38306" lon="6.64835">
        <ele>55.687</ele>
        <time>2021-10-09T11:29:01Z</time>
      </trkpt>
      <trkpt lat="43.38306" lon="6.6481">
        <ele>56.838</ele>
        <time>2021-10-09T11:29:36Z</time>
      </trkpt>
      <trkpt lat="43.38297" lon="6.6481">
        <ele>57.56</ele>
        <time>2021-10-09T11:30:11Z</time>
      </trkpt>
      <trkpt lat="43.38278" lon="6.64802">
        <ele>59.02</ele>
        <time>2021-10-09T11:32:37Z</time>
      </trkpt>
      <trkpt lat="43.38264" lon="6.64782">
        <ele>60.431</ele>
        <time>2021-10-09T11:33:17Z</time>
      </trkpt>
      <trkpt lat="43.38227" lon="6.6477">
        <ele>63.336</ele>
        <time>2021-10-09T11:34:51Z</time>
      </trkpt>
      <trkpt lat="43.38156" lon="6.64765">
        <ele>66.244</ele>
        <time>2021-10-09T11:36:46Z</time>
      </trkpt>
      <trkpt lat="43.38146" lon="6.64756">
        <ele>69.404</ele>
        <time>2021-10-09T11:37:03Z</time>
      </trkpt>
      <trkpt lat="43.38128" lon="6.64751">
        <ele>70.028</ele>
        <time>2021-10-09T11:37:26Z</time>
      </trkpt>
      <trkpt lat="43.381" lon="6.64757">
        <ele>68.005</ele>
        <time>2021-10-09T11:37:58Z</time>
      </trkpt>
      <trkpt lat="43.38091" lon="6.64753">
        <ele>70.156</ele>
        <time>2021-10-09T11:38:05Z</time>
      </trkpt>
      <trkpt lat="43.38084" lon="6.64741">
        <ele>72.148</ele>
        <time>2021-10-09T11:38:10Z</time>
      </trkpt>
      <trkpt lat="43.38076" lon="6.64715">
        <ele>73.735</ele>
        <time>2021-10-09T11:38:17Z</time>
      </trkpt>
      <trkpt lat="43.38075" lon="6.647">
        <ele>73.702</ele>
        <time>2021-10-09T11:38:20Z</time>
      </trkpt>
      <trkpt lat="43.38083" lon="6.64662">
        <ele>72.348</ele>
        <time>2021-10-09T11:38:29Z</time>
      </trkpt>
      <trkpt lat="43.38092" lon="6.64638">
        <ele>72.017</ele>
        <time>2021-10-09T11:38:35Z</time>
      </trkpt>
      <trkpt lat="43.38097" lon="6.64597">
        <ele>73.276</ele>
        <time>2021-10-09T11:38:47Z</time>
      </trkpt>
      <trkpt lat="43.38105" lon="6.64587">
        <ele>72.416</ele>
        <time>2021-10-09T11:38:54Z</time>
      </trkpt>
      <trkpt lat="43.38123" lon="6.64592">
        <ele>75.964</ele>
        <time>2021-10-09T11:39:05Z</time>
      </trkpt>
      <trkpt lat="43.3815" lon="6.64575">
        <ele>81.483</ele>
        <time>2021-10-09T11:39:22Z</time>
      </trkpt>
      <trkpt lat="43.38172" lon="6.64551">
        <ele>87.739</ele>
        <time>2021-10-09T11:39:46Z</time>
      </trkpt>
      <trkpt lat="43.38174" lon="6.64538">
        <ele>88.456</ele>
        <time>2021-10-09T11:39:51Z</time>
      </trkpt>
      <trkpt lat="43.38186" lon="6.64518">
        <ele>92.654</ele>
        <time>2021-10-09T11:40:13Z</time>
      </trkpt>
      <trkpt lat="43.38186" lon="6.64505">
        <ele>93.234</ele>
        <time>2021-10-09T11:40:21Z</time>
      </trkpt>
      <trkpt lat="43.38192" lon="6.64495">
        <ele>95.317</ele>
        <time>2021-10-09T11:40:34Z</time>
      </trkpt>
      <trkpt lat="43.38201" lon="6.64493">
        <ele>97.592</ele>
        <time>2021-10-09T11:40:51Z</time>
      </trkpt>
      <trkpt lat="43.38205" lon="6.64484">
        <ele>98.588</ele>
        <time>2021-10-09T11:41:02Z</time>
      </trkpt>
      <trkpt lat="43.38208" lon="6.64458">
        <ele>99.709</ele>
        <time>2021-10-09T11:41:15Z</time>
      </trkpt>
      <trkpt lat="43.38201" lon="6.64414">
        <ele>99.053</ele>
        <time>2021-10-09T11:41:27Z</time>
      </trkpt>
      <trkpt lat="43.38201" lon="6.64398">
        <ele>98.245</ele>
        <time>2021-10-09T11:41:30Z</time>
      </trkpt>
      <trkpt lat="43.38215" lon="6.64357">
        <ele>98.523</ele>
        <time>2021-10-09T11:41:37Z</time>
      </trkpt>
      <trkpt lat="43.38234" lon="6.64321">
        <ele>101.466</ele>
        <time>2021-10-09T11:41:44Z</time>
      </trkpt>
      <trkpt lat="43.38233" lon="6.64275">
        <ele>101.103</ele>
        <time>2021-10-09T11:41:53Z</time>
      </trkpt>
      <trkpt lat="43.38262" lon="6.64239">
        <ele>103.223</ele>
        <time>2021-10-09T11:42:09Z</time>
      </trkpt>
      <trkpt lat="43.38268" lon="6.64226">
        <ele>103.228</ele>
        <time>2021-10-09T11:42:14Z</time>
      </trkpt>
      <trkpt lat="43.3827" lon="6.64211">
        <ele>102.358</ele>
        <time>2021-10-09T11:42:19Z</time>
      </trkpt>
      <trkpt lat="43.38264" lon="6.64199">
        <ele>101.077</ele>
        <time>2021-10-09T11:42:23Z</time>
      </trkpt>
      <trkpt lat="43.38247" lon="6.64179">
        <ele>100.26</ele>
        <time>2021-10-09T11:42:28Z</time>
      </trkpt>
      <trkpt lat="43.38224" lon="6.64163">
        <ele>102.807</ele>
        <time>2021-10-09T11:42:32Z</time>
      </trkpt>
      <trkpt lat="43.38218" lon="6.6415">
        <ele>104.599</ele>
        <time>2021-10-09T11:42:34Z</time>
      </trkpt>
      <trkpt lat="43.38221" lon="6.64135">
        <ele>105.538</ele>
        <time>2021-10-09T11:42:36Z</time>
      </trkpt>
      <trkpt lat="43.38229" lon="6.64124">
        <ele>104.937</ele>
        <time>2021-10-09T11:42:38Z</time>
      </trkpt>
      <trkpt lat="43.38262" lon="6.64092">
        <ele>101.779</ele>
        <time>2021-10-09T11:42:46Z</time>
      </trkpt>
      <trkpt lat="43.38291" lon="6.64056">
        <ele>100.151</ele>
        <time>2021-10-09T11:42:55Z</time>
      </trkpt>
      <trkpt lat="43.38302" lon="6.6403">
        <ele>99.394</ele>
        <time>2021-10-09T11:43:03Z</time>
      </trkpt>
      <trkpt lat="43.383" lon="6.63968">
        <ele>103.345</ele>
        <time>2021-10-09T11:43:16Z</time>
      </trkpt>
      <trkpt lat="43.38295" lon="6.63939">
        <ele>102.798</ele>
        <time>2021-10-09T11:43:22Z</time>
      </trkpt>
      <trkpt lat="43.38289" lon="6.63924">
        <ele>103.566</ele>
        <time>2021-10-09T11:43:25Z</time>
      </trkpt>
      <trkpt lat="43.38281" lon="6.63911">
        <ele>104.572</ele>
        <time>2021-10-09T11:43:28Z</time>
      </trkpt>
      <trkpt lat="43.3825" lon="6.63884">
        <ele>109.962</ele>
        <time>2021-10-09T11:43:37Z</time>
      </trkpt>
      <trkpt lat="43.38233" lon="6.63862">
        <ele>110.759</ele>
        <time>2021-10-09T11:43:43Z</time>
      </trkpt>
      <trkpt lat="43.38169" lon="6.63822">
        <ele>116.3</ele>
        <time>2021-10-09T11:44:17Z</time>
      </trkpt>
      <trkpt lat="43.38092" lon="6.63794">
        <ele>124.625</ele>
        <time>2021-10-09T11:45:05Z</time>
      </trkpt>
      <trkpt lat="43.38054" lon="6.63775">
        <ele>127.155</ele>
        <time>2021-10-09T11:45:33Z</time>
      </trkpt>
      <trkpt lat="43.38006" lon="6.6376">
        <ele>131.712</ele>
        <time>2021-10-09T11:46:05Z</time>
      </trkpt>
      <trkpt lat="43.37978" lon="6.63755">
        <ele>133.833</ele>
        <time>2021-10-09T11:46:24Z</time>
      </trkpt>
      <trkpt lat="43.37929" lon="6.63761">
        <ele>140.453</ele>
        <time>2021-10-09T11:46:56Z</time>
      </trkpt>
      <trkpt lat="43.3787" lon="6.63762">
        <ele>146.979</ele>
        <time>2021-10-09T11:47:31Z</time>
      </trkpt>
      <trkpt lat="43.37833" lon="6.63755">
        <ele>151.1</ele>
        <time>2021-10-09T11:47:54Z</time>
      </trkpt>
      <trkpt lat="43.37805" lon="6.63756">
        <ele>155.171</ele>
        <time>2021-10-09T11:48:12Z</time>
      </trkpt>
      <trkpt lat="43.37756" lon="6.63742">
        <ele>159.947</ele>
        <time>2021-10-09T11:48:44Z</time>
      </trkpt>
      <trkpt lat="43.3775" lon="6.6373">
        <ele>159.213</ele>
        <time>2021-10-09T11:48:50Z</time>
      </trkpt>
      <trkpt lat="43.37746" lon="6.63704">
        <ele>156.529</ele>
        <time>2021-10-09T11:49:02Z</time>
      </trkpt>
      <trkpt lat="43.3773" lon="6.63687">
        <ele>157.894</ele>
        <time>2021-10-09T11:49:11Z</time>
      </trkpt>
      <trkpt lat="43.37703" lon="6.63628">
        <ele>158.303</ele>
        <time>2021-10-09T11:49:27Z</time>
      </trkpt>
      <trkpt lat="43.37703" lon="6.63614">
        <ele>158.715</ele>
        <time>2021-10-09T11:49:30Z</time>
      </trkpt>
      <trkpt lat="43.3772" lon="6.63592">
        <ele>155.909</ele>
        <time>2021-10-09T11:49:36Z</time>
      </trkpt>
      <trkpt lat="43.37725" lon="6.6358">
        <ele>155.124</ele>
        <time>2021-10-09T11:49:39Z</time>
      </trkpt>
      <trkpt lat="43.37727" lon="6.63534">
        <ele>158.172</ele>
        <time>2021-10-09T11:49:48Z</time>
      </trkpt>
      <trkpt lat="43.37736" lon="6.63492">
        <ele>158.752</ele>
        <time>2021-10-09T11:49:57Z</time>
      </trkpt>
      <trkpt lat="43.37739" lon="6.6345">
        <ele>160.144</ele>
        <time>2021-10-09T11:50:06Z</time>
      </trkpt>
      <trkpt lat="43.37712" lon="6.63373">
        <ele>163.803</ele>
        <time>2021-10-09T11:50:30Z</time>
      </trkpt>
      <trkpt lat="43.37704" lon="6.63365">
        <ele>164.363</ele>
        <time>2021-10-09T11:50:35Z</time>
      </trkpt>
      <trkpt lat="43.37684" lon="6.63362">
        <ele>165.258</ele>
        <time>2021-10-09T11:50:46Z</time>
      </trkpt>
      <trkpt lat="43.37655" lon="6.63365">
        <ele>167.346</ele>
        <time>2021-10-09T11:51:01Z</time>
      </trkpt>
      <trkpt lat="43.37646" lon="6.63373">
        <ele>169.097</ele>
        <time>2021-10-09T11:51:07Z</time>
      </trkpt>
      <trkpt lat="43.37649" lon="6.63385">
        <ele>170.615</ele>
        <time>2021-10-09T11:51:14Z</time>
      </trkpt>
      <trkpt lat="43.37669" lon="6.63414">
        <ele>171.461</ele>
        <time>2021-10-09T11:51:33Z</time>
      </trkpt>
      <trkpt lat="43.37676" lon="6.63439">
        <ele>172.46</ele>
        <time>2021-10-09T11:51:45Z</time>
      </trkpt>
      <trkpt lat="43.37675" lon="6.63481">
        <ele>173.462</ele>
        <time>2021-10-09T11:52:03Z</time>
      </trkpt>
      <trkpt lat="43.37668" lon="6.63507">
        <ele>175.152</ele>
        <time>2021-10-09T11:52:11Z</time>
      </trkpt>
      <trkpt lat="43.37637" lon="6.63567">
        <ele>175.153</ele>
        <time>2021-10-09T11:52:31Z</time>
      </trkpt>
      <trkpt lat="43.37604" lon="6.63604">
        <ele>183.288</ele>
        <time>2021-10-09T11:52:47Z</time>
      </trkpt>
      <trkpt lat="43.376" lon="6.63618">
        <ele>184.62</ele>
        <time>2021-10-09T11:52:52Z</time>
      </trkpt>
      <trkpt lat="43.37603" lon="6.63645">
        <ele>185.511</ele>
        <time>2021-10-09T11:53:06Z</time>
      </trkpt>
      <trkpt lat="43.37611" lon="6.63671">
        <ele>186.089</ele>
        <time>2021-10-09T11:53:20Z</time>
      </trkpt>
      <trkpt lat="43.37622" lon="6.63692">
        <ele>185.637</ele>
        <time>2021-10-09T11:53:32Z</time>
      </trkpt>
      <trkpt lat="43.3763" lon="6.63718">
        <ele>186.478</ele>
        <time>2021-10-09T11:53:45Z</time>
      </trkpt>
      <trkpt lat="43.3763" lon="6.6373">
        <ele>187.77</ele>
        <time>2021-10-09T11:53:52Z</time>
      </trkpt>
      <trkpt lat="43.37619" lon="6.63754">
        <ele>193.986</ele>
        <time>2021-10-09T11:54:06Z</time>
      </trkpt>
      <trkpt lat="43.37621" lon="6.63768">
        <ele>195.989</ele>
        <time>2021-10-09T11:54:13Z</time>
      </trkpt>
      <trkpt lat="43.37662" lon="6.63841">
        <ele>198.363</ele>
        <time>2021-10-09T11:57:38Z</time>
      </trkpt>
      <trkpt lat="43.37678" lon="6.63912">
        <ele>203.974</ele>
        <time>2021-10-09T12:02:48Z</time>
      </trkpt>
      <trkpt lat="43.37699" lon="6.63938">
        <ele>202.454</ele>
        <time>2021-10-09T12:04:37Z</time>
      </trkpt>
      <trkpt lat="43.37733" lon="6.63945">
        <ele>198.532</ele>
        <time>2021-10-09T12:04:46Z</time>
      </trkpt>
      <trkpt lat="43.37744" lon="6.63952">
        <ele>196.133</ele>
        <time>2021-10-09T12:04:49Z</time>
      </trkpt>
      <trkpt lat="43.37744" lon="6.63967">
        <ele>194.226</ele>
        <time>2021-10-09T12:04:53Z</time>
      </trkpt>
      <trkpt lat="43.37729" lon="6.63995">
        <ele>192.636</ele>
        <time>2021-10-09T12:04:59Z</time>
      </trkpt>
      <trkpt lat="43.37717" lon="6.64009">
        <ele>191.932</ele>
        <time>2021-10-09T12:05:06Z</time>
      </trkpt>
      <trkpt lat="43.37697" lon="6.64013">
        <ele>192.651</ele>
        <time>2021-10-09T12:05:21Z</time>
      </trkpt>
      <trkpt lat="43.37672" lon="6.64029">
        <ele>191.428</ele>
        <time>2021-10-09T12:06:15Z</time>
      </trkpt>
      <trkpt lat="43.37671" lon="6.64042">
        <ele>188.698</ele>
        <time>2021-10-09T12:06:19Z</time>
      </trkpt>
      <trkpt lat="43.37678" lon="6.6405">
        <ele>186.02</ele>
        <time>2021-10-09T12:06:30Z</time>
      </trkpt>
      <trkpt lat="43.37674" lon="6.64065">
        <ele>182.98</ele>
        <time>2021-10-09T12:06:39Z</time>
      </trkpt>
      <trkpt lat="43.37645" lon="6.64096">
        <ele>178.428</ele>
        <time>2021-10-09T12:06:52Z</time>
      </trkpt>
      <trkpt lat="43.37626" lon="6.64111">
        <ele>177.168</ele>
        <time>2021-10-09T12:06:57Z</time>
      </trkpt>
      <trkpt lat="43.37629" lon="6.64123">
        <ele>173.774</ele>
        <time>2021-10-09T12:07:02Z</time>
      </trkpt>
      <trkpt lat="43.37672" lon="6.64125">
        <ele>167.392</ele>
        <time>2021-10-09T12:07:10Z</time>
      </trkpt>
      <trkpt lat="43.37705" lon="6.64105">
        <ele>167.729</ele>
        <time>2021-10-09T12:07:17Z</time>
      </trkpt>
      <trkpt lat="43.37728" lon="6.64107">
        <ele>163.927</ele>
        <time>2021-10-09T12:07:23Z</time>
      </trkpt>
      <trkpt lat="43.37775" lon="6.64095">
        <ele>160.768</ele>
        <time>2021-10-09T12:07:32Z</time>
      </trkpt>
      <trkpt lat="43.37788" lon="6.64098">
        <ele>158.251</ele>
        <time>2021-10-09T12:07:35Z</time>
      </trkpt>
      <trkpt lat="43.37831" lon="6.64093">
        <ele>154.935</ele>
        <time>2021-10-09T12:07:43Z</time>
      </trkpt>
      <trkpt lat="43.37853" lon="6.64084">
        <ele>155.259</ele>
        <time>2021-10-09T12:07:47Z</time>
      </trkpt>
      <trkpt lat="43.37862" lon="6.64084">
        <ele>154.855</ele>
        <time>2021-10-09T12:07:49Z</time>
      </trkpt>
      <trkpt lat="43.37882" lon="6.64092">
        <ele>151.307</ele>
        <time>2021-10-09T12:07:58Z</time>
      </trkpt>
      <trkpt lat="43.37901" lon="6.64095">
        <ele>149.612</ele>
        <time>2021-10-09T12:08:05Z</time>
      </trkpt>
      <trkpt lat="43.37957" lon="6.64116">
        <ele>142.031</ele>
        <time>2021-10-09T12:08:23Z</time>
      </trkpt>
      <trkpt lat="43.37966" lon="6.64124">
        <ele>139.34</ele>
        <time>2021-10-09T12:08:26Z</time>
      </trkpt>
      <trkpt lat="43.37995" lon="6.64141">
        <ele>135.194</ele>
        <time>2021-10-09T12:08:33Z</time>
      </trkpt>
      <trkpt lat="43.38047" lon="6.6419">
        <ele>129.566</ele>
        <time>2021-10-09T12:08:47Z</time>
      </trkpt>
      <trkpt lat="43.38057" lon="6.64231">
        <ele>123.426</ele>
        <time>2021-10-09T12:08:56Z</time>
      </trkpt>
      <trkpt lat="43.38054" lon="6.64256">
        <ele>119.521</ele>
        <time>2021-10-09T12:09:03Z</time>
      </trkpt>
      <trkpt lat="43.38058" lon="6.64269">
        <ele>117.881</ele>
        <time>2021-10-09T12:09:08Z</time>
      </trkpt>
      <trkpt lat="43.38065" lon="6.64277">
        <ele>117.13</ele>
        <time>2021-10-09T12:09:14Z</time>
      </trkpt>
      <trkpt lat="43.38084" lon="6.64284">
        <ele>114.747</ele>
        <time>2021-10-09T12:09:29Z</time>
      </trkpt>
      <trkpt lat="43.38094" lon="6.64283">
        <ele>113.996</ele>
        <time>2021-10-09T12:09:37Z</time>
      </trkpt>
      <trkpt lat="43.38123" lon="6.64265">
        <ele>113.653</ele>
        <time>2021-10-09T12:10:00Z</time>
      </trkpt>
      <trkpt lat="43.38147" lon="6.64266">
        <ele>108.886</ele>
        <time>2021-10-09T12:10:07Z</time>
      </trkpt>
      <trkpt lat="43.38191" lon="6.64238">
        <ele>105.018</ele>
        <time>2021-10-09T12:10:19Z</time>
      </trkpt>
      <trkpt lat="43.38207" lon="6.6422">
        <ele>103.51</ele>
        <time>2021-10-09T12:10:24Z</time>
      </trkpt>
      <trkpt lat="43.38217" lon="6.64228">
        <ele>102.799</ele>
        <time>2021-10-09T12:10:28Z</time>
      </trkpt>
      <trkpt lat="43.38223" lon="6.64238">
        <ele>102.171</ele>
        <time>2021-10-09T12:10:30Z</time>
      </trkpt>
      <trkpt lat="43.38225" lon="6.64252">
        <ele>101.4</ele>
        <time>2021-10-09T12:10:32Z</time>
      </trkpt>
      <trkpt lat="43.38222" lon="6.64266">
        <ele>100.455</ele>
        <time>2021-10-09T12:10:34Z</time>
      </trkpt>
      <trkpt lat="43.38224" lon="6.64295">
        <ele>99.461</ele>
        <time>2021-10-09T12:10:41Z</time>
      </trkpt>
      <trkpt lat="43.38206" lon="6.64336">
        <ele>96.657</ele>
        <time>2021-10-09T12:10:57Z</time>
      </trkpt>
      <trkpt lat="43.38194" lon="6.6434">
        <ele>96.216</ele>
        <time>2021-10-09T12:12:10Z</time>
      </trkpt>
      <trkpt lat="43.38163" lon="6.64364">
        <ele>94.075</ele>
        <time>2021-10-09T12:12:16Z</time>
      </trkpt>
      <trkpt lat="43.38146" lon="6.64392">
        <ele>91.387</ele>
        <time>2021-10-09T12:12:20Z</time>
      </trkpt>
      <trkpt lat="43.38133" lon="6.64425">
        <ele>86.566</ele>
        <time>2021-10-09T12:12:24Z</time>
      </trkpt>
      <trkpt lat="43.38122" lon="6.6444">
        <ele>83.153</ele>
        <time>2021-10-09T12:12:26Z</time>
      </trkpt>
      <trkpt lat="43.38109" lon="6.64447">
        <ele>80.01</ele>
        <time>2021-10-09T12:12:28Z</time>
      </trkpt>
      <trkpt lat="43.38066" lon="6.64426">
        <ele>82.547</ele>
        <time>2021-10-09T12:12:34Z</time>
      </trkpt>
      <trkpt lat="43.3805" lon="6.64429">
        <ele>82.284</ele>
        <time>2021-10-09T12:12:36Z</time>
      </trkpt>
      <trkpt lat="43.38027" lon="6.64453">
        <ele>76.805</ele>
        <time>2021-10-09T12:12:40Z</time>
      </trkpt>
      <trkpt lat="43.38014" lon="6.64459">
        <ele>75.616</ele>
        <time>2021-10-09T12:12:42Z</time>
      </trkpt>
      <trkpt lat="43.37951" lon="6.64447">
        <ele>79.604</ele>
        <time>2021-10-09T12:12:52Z</time>
      </trkpt>
      <trkpt lat="43.37895" lon="6.64457">
        <ele>81.528</ele>
        <time>2021-10-09T12:13:02Z</time>
      </trkpt>
      <trkpt lat="43.37864" lon="6.64458">
        <ele>84.431</ele>
        <time>2021-10-09T12:13:08Z</time>
      </trkpt>
      <trkpt lat="43.37835" lon="6.64487">
        <ele>86.745</ele>
        <time>2021-10-09T12:13:16Z</time>
      </trkpt>
      <trkpt lat="43.37793" lon="6.64512">
        <ele>90.05</ele>
        <time>2021-10-09T12:13:27Z</time>
      </trkpt>
      <trkpt lat="43.37782" lon="6.64514">
        <ele>91.302</ele>
        <time>2021-10-09T12:13:30Z</time>
      </trkpt>
      <trkpt lat="43.37764" lon="6.64525">
        <ele>93.355</ele>
        <time>2021-10-09T12:13:36Z</time>
      </trkpt>
      <trkpt lat="43.37741" lon="6.6457">
        <ele>94.508</ele>
        <time>2021-10-09T12:13:57Z</time>
      </trkpt>
      <trkpt lat="43.37726" lon="6.64587">
        <ele>95.743</ele>
        <time>2021-10-09T12:14:10Z</time>
      </trkpt>
      <trkpt lat="43.37689" lon="6.64599">
        <ele>96.501</ele>
        <time>2021-10-09T12:14:26Z</time>
      </trkpt>
      <trkpt lat="43.3766" lon="6.64591">
        <ele>97.243</ele>
        <time>2021-10-09T12:14:40Z</time>
      </trkpt>
      <trkpt lat="43.37641" lon="6.64579">
        <ele>98.241</ele>
        <time>2021-10-09T12:14:49Z</time>
      </trkpt>
      <trkpt lat="43.3762" lon="6.64577">
        <ele>98.844</ele>
        <time>2021-10-09T12:14:55Z</time>
      </trkpt>
      <trkpt lat="43.37596" lon="6.64583">
        <ele>99.251</ele>
        <time>2021-10-09T12:15:01Z</time>
      </trkpt>
      <trkpt lat="43.37574" lon="6.64593">
        <ele>99.05</ele>
        <time>2021-10-09T12:15:07Z</time>
      </trkpt>
      <trkpt lat="43.37501" lon="6.64654">
        <ele>99.315</ele>
        <time>2021-10-09T12:15:28Z</time>
      </trkpt>
      <trkpt lat="43.37464" lon="6.6468">
        <ele>100.256</ele>
        <time>2021-10-09T12:15:42Z</time>
      </trkpt>
      <trkpt lat="43.37366" lon="6.64763">
        <ele>99.853</ele>
        <time>2021-10-09T12:16:18Z</time>
      </trkpt>
      <trkpt lat="43.37355" lon="6.64767">
        <ele>99.681</ele>
        <time>2021-10-09T12:16:21Z</time>
      </trkpt>
      <trkpt lat="43.37282" lon="6.64771">
        <ele>100.856</ele>
        <time>2021-10-09T12:16:42Z</time>
      </trkpt>
      <trkpt lat="43.37271" lon="6.64764">
        <ele>102.291</ele>
        <time>2021-10-09T12:16:46Z</time>
      </trkpt>
      <trkpt lat="43.3723" lon="6.64698">
        <ele>101.29</ele>
        <time>2021-10-09T12:17:08Z</time>
      </trkpt>
      <trkpt lat="43.3722" lon="6.64691">
        <ele>102.677</ele>
        <time>2021-10-09T12:17:12Z</time>
      </trkpt>
      <trkpt lat="43.37189" lon="6.647">
        <ele>102.211</ele>
        <time>2021-10-09T12:17:24Z</time>
      </trkpt>
      <trkpt lat="43.37103" lon="6.64741">
        <ele>106.071</ele>
        <time>2021-10-09T12:17:56Z</time>
      </trkpt>
      <trkpt lat="43.3707" lon="6.64766">
        <ele>104.73</ele>
        <time>2021-10-09T12:18:08Z</time>
      </trkpt>
      <trkpt lat="43.37051" lon="6.64773">
        <ele>105.613</ele>
        <time>2021-10-09T12:18:14Z</time>
      </trkpt>
      <trkpt lat="43.3703" lon="6.64775">
        <ele>105.99</ele>
        <time>2021-10-09T12:18:21Z</time>
      </trkpt>
      <trkpt lat="43.37012" lon="6.64772">
        <ele>105.508</ele>
        <time>2021-10-09T12:18:27Z</time>
      </trkpt>
      <trkpt lat="43.36985" lon="6.64762">
        <ele>104.566</ele>
        <time>2021-10-09T12:18:36Z</time>
      </trkpt>
      <trkpt lat="43.36964" lon="6.64758">
        <ele>104.928</ele>
        <time>2021-10-09T12:18:43Z</time>
      </trkpt>
      <trkpt lat="43.36924" lon="6.64766">
        <ele>109.869</ele>
        <time>2021-10-09T12:18:58Z</time>
      </trkpt>
      <trkpt lat="43.36894" lon="6.64785">
        <ele>111.752</ele>
        <time>2021-10-09T12:19:11Z</time>
      </trkpt>
      <trkpt lat="43.36885" lon="6.64795">
        <ele>110.987</ele>
        <time>2021-10-09T12:19:16Z</time>
      </trkpt>
      <trkpt lat="43.36873" lon="6.64818">
        <ele>112.089</ele>
        <time>2021-10-09T12:19:24Z</time>
      </trkpt>
      <trkpt lat="43.36864" lon="6.64855">
        <ele>113.689</ele>
        <time>2021-10-09T12:19:40Z</time>
      </trkpt>
      <trkpt lat="43.36854" lon="6.64863">
        <ele>112.527</ele>
        <time>2021-10-09T12:19:46Z</time>
      </trkpt>
      <trkpt lat="43.36801" lon="6.64875">
        <ele>116.012</ele>
        <time>2021-10-09T12:20:05Z</time>
      </trkpt>
      <trkpt lat="43.36736" lon="6.64879">
        <ele>119.454</ele>
        <time>2021-10-09T12:20:28Z</time>
      </trkpt>
      <trkpt lat="43.36705" lon="6.6489">
        <ele>122.139</ele>
        <time>2021-10-09T12:20:40Z</time>
      </trkpt>
      <trkpt lat="43.36608" lon="6.64941">
        <ele>122.768</ele>
        <time>2021-10-09T12:21:22Z</time>
      </trkpt>
      <trkpt lat="43.36572" lon="6.64975">
        <ele>121.796</ele>
        <time>2021-10-09T12:21:54Z</time>
      </trkpt>
      <trkpt lat="43.36566" lon="6.64989">
        <ele>121.547</ele>
        <time>2021-10-09T12:21:59Z</time>
      </trkpt>
      <trkpt lat="43.36566" lon="6.65033">
        <ele>124.104</ele>
        <time>2021-10-09T12:22:09Z</time>
      </trkpt>
      <trkpt lat="43.36571" lon="6.6509">
        <ele>127.325</ele>
        <time>2021-10-09T12:22:21Z</time>
      </trkpt>
      <trkpt lat="43.36582" lon="6.6513">
        <ele>128.769</ele>
        <time>2021-10-09T12:22:30Z</time>
      </trkpt>
      <trkpt lat="43.36587" lon="6.65157">
        <ele>127.787</ele>
        <time>2021-10-09T12:22:36Z</time>
      </trkpt>
      <trkpt lat="43.36589" lon="6.65202">
        <ele>127.482</ele>
        <time>2021-10-09T12:22:47Z</time>
      </trkpt>
      <trkpt lat="43.36581" lon="6.6529">
        <ele>132.199</ele>
        <time>2021-10-09T12:23:11Z</time>
      </trkpt>
      <trkpt lat="43.36584" lon="6.65305">
        <ele>132.832</ele>
        <time>2021-10-09T12:23:15Z</time>
      </trkpt>
      <trkpt lat="43.36594" lon="6.65334">
        <ele>135.134</ele>
        <time>2021-10-09T12:23:23Z</time>
      </trkpt>
      <trkpt lat="43.36599" lon="6.65458">
        <ele>141.072</ele>
        <time>2021-10-09T12:23:52Z</time>
      </trkpt>
      <trkpt lat="43.36615" lon="6.65534">
        <ele>139.983</ele>
        <time>2021-10-09T12:24:24Z</time>
      </trkpt>
      <trkpt lat="43.36611" lon="6.65559">
        <ele>141.535</ele>
        <time>2021-10-09T12:24:32Z</time>
      </trkpt>
      <trkpt lat="43.36611" lon="6.65587">
        <ele>141.9</ele>
        <time>2021-10-09T12:24:40Z</time>
      </trkpt>
      <trkpt lat="43.36637" lon="6.65662">
        <ele>145.458</ele>
        <time>2021-10-09T12:25:09Z</time>
      </trkpt>
      <trkpt lat="43.36679" lon="6.65749">
        <ele>152.476</ele>
        <time>2021-10-09T12:25:48Z</time>
      </trkpt>
      <trkpt lat="43.36682" lon="6.65761">
        <ele>153.181</ele>
        <time>2021-10-09T12:25:54Z</time>
      </trkpt>
      <trkpt lat="43.36681" lon="6.65775">
        <ele>153.217</ele>
        <time>2021-10-09T12:26:00Z</time>
      </trkpt>
      <trkpt lat="43.36677" lon="6.65787">
        <ele>153.154</ele>
        <time>2021-10-09T12:26:06Z</time>
      </trkpt>
      <trkpt lat="43.36657" lon="6.65815">
        <ele>153.33</ele>
        <time>2021-10-09T12:26:21Z</time>
      </trkpt>
      <trkpt lat="43.36653" lon="6.65826">
        <ele>154.767</ele>
        <time>2021-10-09T12:26:26Z</time>
      </trkpt>
      <trkpt lat="43.36649" lon="6.65855">
        <ele>157.089</ele>
        <time>2021-10-09T12:26:35Z</time>
      </trkpt>
      <trkpt lat="43.36651" lon="6.65867">
        <ele>157.257</ele>
        <time>2021-10-09T12:26:39Z</time>
      </trkpt>
      <trkpt lat="43.36659" lon="6.65875">
        <ele>156.5</ele>
        <time>2021-10-09T12:26:44Z</time>
      </trkpt>
      <trkpt lat="43.36705" lon="6.65857">
        <ele>159.394</ele>
        <time>2021-10-09T12:27:10Z</time>
      </trkpt>
      <trkpt lat="43.36713" lon="6.65864">
        <ele>160.544</ele>
        <time>2021-10-09T12:27:16Z</time>
      </trkpt>
      <trkpt lat="43.36723" lon="6.65887">
        <ele>163.096</ele>
        <time>2021-10-09T12:27:28Z</time>
      </trkpt>
      <trkpt lat="43.36741" lon="6.65966">
        <ele>172.579</ele>
        <time>2021-10-09T12:28:02Z</time>
      </trkpt>
      <trkpt lat="43.36756" lon="6.66017">
        <ele>176.87</ele>
        <time>2021-10-09T12:28:23Z</time>
      </trkpt>
      <trkpt lat="43.36761" lon="6.66043">
        <ele>178.655</ele>
        <time>2021-10-09T12:28:37Z</time>
      </trkpt>
      <trkpt lat="43.36757" lon="6.66083">
        <ele>179.579</ele>
        <time>2021-10-09T12:28:54Z</time>
      </trkpt>
      <trkpt lat="43.3676" lon="6.66109">
        <ele>180.516</ele>
        <time>2021-10-09T12:29:06Z</time>
      </trkpt>
      <trkpt lat="43.36765" lon="6.66133">
        <ele>181.044</ele>
        <time>2021-10-09T12:29:18Z</time>
      </trkpt>
      <trkpt lat="43.36765" lon="6.66146">
        <ele>181.255</ele>
        <time>2021-10-09T12:29:23Z</time>
      </trkpt>
      <trkpt lat="43.36756" lon="6.66186">
        <ele>182.121</ele>
        <time>2021-10-09T12:29:40Z</time>
      </trkpt>
      <trkpt lat="43.36746" lon="6.6621">
        <ele>183.762</ele>
        <time>2021-10-09T12:29:52Z</time>
      </trkpt>
      <trkpt lat="43.36734" lon="6.66229">
        <ele>185.595</ele>
        <time>2021-10-09T12:30:12Z</time>
      </trkpt>
      <trkpt lat="43.36729" lon="6.66253">
        <ele>185.576</ele>
        <time>2021-10-09T12:37:05Z</time>
      </trkpt>
      <trkpt lat="43.36727" lon="6.6625">
        <ele>185.717</ele>
        <time>2021-10-09T12:37:14Z</time>
      </trkpt>
      <trkpt lat="43.36708" lon="6.66249">
        <ele>186.919</ele>
        <time>2021-10-09T12:38:39Z</time>
      </trkpt>
      <trkpt lat="43.36697" lon="6.6626">
        <ele>187.107</ele>
        <time>2021-10-09T12:41:48Z</time>
      </trkpt>
      <trkpt lat="43.3669" lon="6.66286">
        <ele>185.262</ele>
        <time>2021-10-09T12:41:57Z</time>
      </trkpt>
      <trkpt lat="43.36672" lon="6.66296">
        <ele>187.274</ele>
        <time>2021-10-09T12:42:05Z</time>
      </trkpt>
      <trkpt lat="43.36669" lon="6.66325">
        <ele>185.008</ele>
        <time>2021-10-09T12:42:11Z</time>
      </trkpt>
      <trkpt lat="43.3667" lon="6.66386">
        <ele>180.94</ele>
        <time>2021-10-09T12:42:57Z</time>
      </trkpt>
      <trkpt lat="43.36683" lon="6.66436">
        <ele>172.974</ele>
        <time>2021-10-09T12:44:08Z</time>
      </trkpt>
      <trkpt lat="43.36685" lon="6.66452">
        <ele>171.682</ele>
        <time>2021-10-09T12:44:12Z</time>
      </trkpt>
      <trkpt lat="43.36685" lon="6.66491">
        <ele>168.018</ele>
        <time>2021-10-09T12:44:24Z</time>
      </trkpt>
      <trkpt lat="43.36699" lon="6.66563">
        <ele>154.406</ele>
        <time>2021-10-09T12:45:01Z</time>
      </trkpt>
      <trkpt lat="43.36705" lon="6.66576">
        <ele>149.505</ele>
        <time>2021-10-09T12:45:05Z</time>
      </trkpt>
      <trkpt lat="43.36718" lon="6.66627">
        <ele>140.808</ele>
        <time>2021-10-09T12:45:19Z</time>
      </trkpt>
      <trkpt lat="43.36724" lon="6.66669">
        <ele>140.13</ele>
        <time>2021-10-09T12:45:39Z</time>
      </trkpt>
      <trkpt lat="43.36725" lon="6.66668">
        <ele>140.167</ele>
        <time>2021-10-09T12:45:49Z</time>
      </trkpt>
      <trkpt lat="43.36728" lon="6.66696">
        <ele>138.646</ele>
        <time>2021-10-09T12:46:29Z</time>
      </trkpt>
      <trkpt lat="43.36726" lon="6.66791">
        <ele>127.287</ele>
        <time>2021-10-09T12:46:47Z</time>
      </trkpt>
      <trkpt lat="43.3673" lon="6.66821">
        <ele>122.852</ele>
        <time>2021-10-09T12:46:52Z</time>
      </trkpt>
      <trkpt lat="43.36728" lon="6.66855">
        <ele>119.931</ele>
        <time>2021-10-09T12:46:58Z</time>
      </trkpt>
      <trkpt lat="43.36723" lon="6.66866">
        <ele>119.432</ele>
        <time>2021-10-09T12:47:00Z</time>
      </trkpt>
      <trkpt lat="43.36713" lon="6.66877">
        <ele>119.372</ele>
        <time>2021-10-09T12:47:03Z</time>
      </trkpt>
      <trkpt lat="43.36702" lon="6.66876">
        <ele>121.378</ele>
        <time>2021-10-09T12:47:06Z</time>
      </trkpt>
      <trkpt lat="43.36692" lon="6.66885">
        <ele>123.778</ele>
        <time>2021-10-09T12:47:10Z</time>
      </trkpt>
      <trkpt lat="43.367" lon="6.66892">
        <ele>121.314</ele>
        <time>2021-10-09T12:47:25Z</time>
      </trkpt>
      <trkpt lat="43.3671" lon="6.6693">
        <ele>121.173</ele>
        <time>2021-10-09T12:47:49Z</time>
      </trkpt>
      <trkpt lat="43.36711" lon="6.6697">
        <ele>121.87</ele>
        <time>2021-10-09T12:48:07Z</time>
      </trkpt>
      <trkpt lat="43.36708" lon="6.66998">
        <ele>122.32</ele>
        <time>2021-10-09T12:48:18Z</time>
      </trkpt>
      <trkpt lat="43.36699" lon="6.67037">
        <ele>122.33</ele>
        <time>2021-10-09T12:48:30Z</time>
      </trkpt>
      <trkpt lat="43.36689" lon="6.67062">
        <ele>122.541</ele>
        <time>2021-10-09T12:48:35Z</time>
      </trkpt>
      <trkpt lat="43.36683" lon="6.67091">
        <ele>120.855</ele>
        <time>2021-10-09T12:48:41Z</time>
      </trkpt>
      <trkpt lat="43.36694" lon="6.67138">
        <ele>113.435</ele>
        <time>2021-10-09T12:48:50Z</time>
      </trkpt>
      <trkpt lat="43.36692" lon="6.672">
        <ele>110.21</ele>
        <time>2021-10-09T12:48:56Z</time>
      </trkpt>
      <trkpt lat="43.36688" lon="6.67217">
        <ele>110.207</ele>
        <time>2021-10-09T12:48:59Z</time>
      </trkpt>
      <trkpt lat="43.36667" lon="6.67224">
        <ele>113.077</ele>
        <time>2021-10-09T12:49:05Z</time>
      </trkpt>
      <trkpt lat="43.36659" lon="6.67252">
        <ele>113.21</ele>
        <time>2021-10-09T12:49:10Z</time>
      </trkpt>
      <trkpt lat="43.36661" lon="6.6727">
        <ele>113.079</ele>
        <time>2021-10-09T12:49:13Z</time>
      </trkpt>
      <trkpt lat="43.36654" lon="6.67299">
        <ele>115.053</ele>
        <time>2021-10-09T12:49:20Z</time>
      </trkpt>
      <trkpt lat="43.36658" lon="6.67312">
        <ele>114.892</ele>
        <time>2021-10-09T12:49:24Z</time>
      </trkpt>
      <trkpt lat="43.36692" lon="6.67341">
        <ele>112.956</ele>
        <time>2021-10-09T12:49:51Z</time>
      </trkpt>
      <trkpt lat="43.36698" lon="6.67352">
        <ele>112.928</ele>
        <time>2021-10-09T12:49:58Z</time>
      </trkpt>
      <trkpt lat="43.36706" lon="6.67391">
        <ele>115.472</ele>
        <time>2021-10-09T12:50:18Z</time>
      </trkpt>
      <trkpt lat="43.36705" lon="6.67413">
        <ele>116.946</ele>
        <time>2021-10-09T12:51:06Z</time>
      </trkpt>
      <trkpt lat="43.36727" lon="6.67485">
        <ele>114.605</ele>
        <time>2021-10-09T12:51:22Z</time>
      </trkpt>
      <trkpt lat="43.36754" lon="6.67552">
        <ele>116.467</ele>
        <time>2021-10-09T12:51:38Z</time>
      </trkpt>
      <trkpt lat="43.36764" lon="6.67596">
        <ele>118.585</ele>
        <time>2021-10-09T12:51:47Z</time>
      </trkpt>
      <trkpt lat="43.36759" lon="6.67623">
        <ele>121.553</ele>
        <time>2021-10-09T12:51:55Z</time>
      </trkpt>
      <trkpt lat="43.36751" lon="6.67646">
        <ele>124.411</ele>
        <time>2021-10-09T12:52:05Z</time>
      </trkpt>
      <trkpt lat="43.36744" lon="6.67699">
        <ele>132.587</ele>
        <time>2021-10-09T12:52:30Z</time>
      </trkpt>
      <trkpt lat="43.36766" lon="6.67844">
        <ele>149.913</ele>
        <time>2021-10-09T12:53:50Z</time>
      </trkpt>
      <trkpt lat="43.36762" lon="6.67882">
        <ele>155.766</ele>
        <time>2021-10-09T12:54:16Z</time>
      </trkpt>
      <trkpt lat="43.36769" lon="6.67933">
        <ele>159.201</ele>
        <time>2021-10-09T12:54:50Z</time>
      </trkpt>
      <trkpt lat="43.36766" lon="6.67947">
        <ele>159.467</ele>
        <time>2021-10-09T12:54:59Z</time>
      </trkpt>
      <trkpt lat="43.36761" lon="6.67952">
        <ele>158.985</ele>
        <time>2021-10-09T12:55:31Z</time>
      </trkpt>
      <trkpt lat="43.36763" lon="6.67953">
        <ele>158.895</ele>
        <time>2021-10-09T12:56:55Z</time>
      </trkpt>
      <trkpt lat="43.3675" lon="6.67993">
        <ele>155.395</ele>
        <time>2021-10-09T12:57:14Z</time>
      </trkpt>
      <trkpt lat="43.36741" lon="6.68">
        <ele>156.223</ele>
        <time>2021-10-09T12:57:18Z</time>
      </trkpt>
      <trkpt lat="43.36712" lon="6.68004">
        <ele>160.928</ele>
        <time>2021-10-09T12:57:30Z</time>
      </trkpt>
      <trkpt lat="43.36703" lon="6.68012">
        <ele>162.988</ele>
        <time>2021-10-09T12:57:34Z</time>
      </trkpt>
      <trkpt lat="43.36697" lon="6.68025">
        <ele>164.276</ele>
        <time>2021-10-09T12:57:38Z</time>
      </trkpt>
      <trkpt lat="43.36696" lon="6.6804">
        <ele>163.858</ele>
        <time>2021-10-09T12:57:42Z</time>
      </trkpt>
      <trkpt lat="43.36701" lon="6.68068">
        <ele>161.541</ele>
        <time>2021-10-09T12:57:50Z</time>
      </trkpt>
      <trkpt lat="43.36722" lon="6.68121">
        <ele>159.356</ele>
        <time>2021-10-09T12:58:05Z</time>
      </trkpt>
      <trkpt lat="43.36721" lon="6.68148">
        <ele>157.643</ele>
        <time>2021-10-09T12:58:11Z</time>
      </trkpt>
      <trkpt lat="43.36706" lon="6.68187">
        <ele>158.499</ele>
        <time>2021-10-09T12:58:20Z</time>
      </trkpt>
      <trkpt lat="43.36698" lon="6.68198">
        <ele>158.735</ele>
        <time>2021-10-09T12:58:23Z</time>
      </trkpt>
      <trkpt lat="43.36654" lon="6.68242">
        <ele>156.12</ele>
        <time>2021-10-09T12:58:38Z</time>
      </trkpt>
      <trkpt lat="43.36643" lon="6.68247">
        <ele>154.26</ele>
        <time>2021-10-09T12:58:41Z</time>
      </trkpt>
      <trkpt lat="43.36632" lon="6.68245">
        <ele>153.257</ele>
        <time>2021-10-09T12:58:44Z</time>
      </trkpt>
      <trkpt lat="43.36606" lon="6.68224">
        <ele>155.151</ele>
        <time>2021-10-09T12:58:53Z</time>
      </trkpt>
      <trkpt lat="43.36566" lon="6.68201">
        <ele>152.893</ele>
        <time>2021-10-09T12:59:05Z</time>
      </trkpt>
      <trkpt lat="43.3655" lon="6.68181">
        <ele>154.83</ele>
        <time>2021-10-09T12:59:11Z</time>
      </trkpt>
      <trkpt lat="43.36533" lon="6.68146">
        <ele>160.037</ele>
        <time>2021-10-09T12:59:20Z</time>
      </trkpt>
      <trkpt lat="43.36524" lon="6.68137">
        <ele>160.284</ele>
        <time>2021-10-09T12:59:23Z</time>
      </trkpt>
      <trkpt lat="43.3649" lon="6.6813">
        <ele>157.83</ele>
        <time>2021-10-09T12:59:32Z</time>
      </trkpt>
      <trkpt lat="43.36455" lon="6.68116">
        <ele>163.083</ele>
        <time>2021-10-09T12:59:41Z</time>
      </trkpt>
      <trkpt lat="43.36446" lon="6.68122">
        <ele>164.052</ele>
        <time>2021-10-09T12:59:44Z</time>
      </trkpt>
      <trkpt lat="43.36441" lon="6.68134">
        <ele>164.049</ele>
        <time>2021-10-09T12:59:47Z</time>
      </trkpt>
      <trkpt lat="43.36439" lon="6.6818">
        <ele>161.39</ele>
        <time>2021-10-09T12:59:56Z</time>
      </trkpt>
      <trkpt lat="43.36449" lon="6.68258">
        <ele>155.799</ele>
        <time>2021-10-09T13:00:11Z</time>
      </trkpt>
      <trkpt lat="43.36449" lon="6.68277">
        <ele>154.989</ele>
        <time>2021-10-09T13:00:14Z</time>
      </trkpt>
      <trkpt lat="43.36444" lon="6.68301">
        <ele>154.154</ele>
        <time>2021-10-09T13:00:18Z</time>
      </trkpt>
      <trkpt lat="43.36434" lon="6.68321">
        <ele>153.252</ele>
        <time>2021-10-09T13:00:22Z</time>
      </trkpt>
      <trkpt lat="43.36423" lon="6.68333">
        <ele>153.173</ele>
        <time>2021-10-09T13:00:25Z</time>
      </trkpt>
      <trkpt lat="43.36392" lon="6.68352">
        <ele>155.978</ele>
        <time>2021-10-09T13:00:32Z</time>
      </trkpt>
      <trkpt lat="43.36363" lon="6.68364">
        <ele>158.525</ele>
        <time>2021-10-09T13:00:38Z</time>
      </trkpt>
      <trkpt lat="43.36357" lon="6.68373">
        <ele>157.688</ele>
        <time>2021-10-09T13:00:40Z</time>
      </trkpt>
      <trkpt lat="43.3634" lon="6.68416">
        <ele>154.962</ele>
        <time>2021-10-09T13:00:48Z</time>
      </trkpt>
      <trkpt lat="43.36337" lon="6.68431">
        <ele>156.616</ele>
        <time>2021-10-09T13:00:50Z</time>
      </trkpt>
      <trkpt lat="43.36338" lon="6.68447">
        <ele>157.927</ele>
        <time>2021-10-09T13:00:53Z</time>
      </trkpt>
      <trkpt lat="43.36369" lon="6.68483">
        <ele>161.268</ele>
        <time>2021-10-09T13:01:13Z</time>
      </trkpt>
      <trkpt lat="43.36386" lon="6.68515">
        <ele>164.432</ele>
        <time>2021-10-09T13:01:25Z</time>
      </trkpt>
      <trkpt lat="43.36409" lon="6.68542">
        <ele>167.556</ele>
        <time>2021-10-09T13:01:37Z</time>
      </trkpt>
      <trkpt lat="43.36419" lon="6.68545">
        <ele>166.712</ele>
        <time>2021-10-09T13:01:41Z</time>
      </trkpt>
      <trkpt lat="43.36436" lon="6.68558">
        <ele>165.906</ele>
        <time>2021-10-09T13:01:49Z</time>
      </trkpt>
      <trkpt lat="43.36451" lon="6.68578">
        <ele>166.576</ele>
        <time>2021-10-09T13:01:58Z</time>
      </trkpt>
      <trkpt lat="43.36516" lon="6.6871">
        <ele>158.28</ele>
        <time>2021-10-09T13:02:24Z</time>
      </trkpt>
      <trkpt lat="43.36519" lon="6.68739">
        <ele>155.658</ele>
        <time>2021-10-09T13:02:28Z</time>
      </trkpt>
      <trkpt lat="43.36516" lon="6.68769">
        <ele>153.05</ele>
        <time>2021-10-09T13:02:33Z</time>
      </trkpt>
      <trkpt lat="43.36512" lon="6.68786">
        <ele>152.17</ele>
        <time>2021-10-09T13:02:36Z</time>
      </trkpt>
      <trkpt lat="43.36504" lon="6.68801">
        <ele>151.05</ele>
        <time>2021-10-09T13:02:39Z</time>
      </trkpt>
      <trkpt lat="43.36493" lon="6.68809">
        <ele>151.386</ele>
        <time>2021-10-09T13:02:42Z</time>
      </trkpt>
      <trkpt lat="43.36473" lon="6.68809">
        <ele>154.92</ele>
        <time>2021-10-09T13:02:48Z</time>
      </trkpt>
      <trkpt lat="43.36442" lon="6.68842">
        <ele>147.855</ele>
        <time>2021-10-09T13:02:56Z</time>
      </trkpt>
      <trkpt lat="43.36401" lon="6.68839">
        <ele>155.415</ele>
        <time>2021-10-09T13:03:05Z</time>
      </trkpt>
      <trkpt lat="43.36372" lon="6.6885">
        <ele>161.508</ele>
        <time>2021-10-09T13:03:24Z</time>
      </trkpt>
      <trkpt lat="43.36351" lon="6.68903">
        <ele>155.541</ele>
        <time>2021-10-09T13:03:40Z</time>
      </trkpt>
      <trkpt lat="43.36331" lon="6.68934">
        <ele>154.525</ele>
        <time>2021-10-09T13:03:50Z</time>
      </trkpt>
      <trkpt lat="43.36302" lon="6.6896">
        <ele>155.998</ele>
        <time>2021-10-09T13:03:59Z</time>
      </trkpt>
      <trkpt lat="43.36296" lon="6.68973">
        <ele>157.171</ele>
        <time>2021-10-09T13:04:01Z</time>
      </trkpt>
      <trkpt lat="43.36277" lon="6.69039">
        <ele>163.808</ele>
        <time>2021-10-09T13:05:21Z</time>
      </trkpt>
      <trkpt lat="43.36272" lon="6.69046">
        <ele>166.338</ele>
        <time>2021-10-09T13:05:38Z</time>
      </trkpt>
      <trkpt lat="43.36266" lon="6.69029">
        <ele>168.385</ele>
        <time>2021-10-09T13:06:20Z</time>
      </trkpt>
      <trkpt lat="43.3626" lon="6.69038">
        <ele>171.13</ele>
        <time>2021-10-09T13:06:40Z</time>
      </trkpt>
      <trkpt lat="43.36255" lon="6.69059">
        <ele>173.375</ele>
        <time>2021-10-09T13:07:04Z</time>
      </trkpt>
      <trkpt lat="43.3624" lon="6.69097">
        <ele>181.664</ele>
        <time>2021-10-09T13:07:55Z</time>
      </trkpt>
      <trkpt lat="43.36233" lon="6.69134">
        <ele>188.839</ele>
        <time>2021-10-09T13:08:18Z</time>
      </trkpt>
      <trkpt lat="43.36232" lon="6.69148">
        <ele>190.486</ele>
        <time>2021-10-09T13:08:23Z</time>
      </trkpt>
      <trkpt lat="43.36244" lon="6.692">
        <ele>190.801</ele>
        <time>2021-10-09T13:08:45Z</time>
      </trkpt>
      <trkpt lat="43.36251" lon="6.69272">
        <ele>195.627</ele>
        <time>2021-10-09T13:09:11Z</time>
      </trkpt>
      <trkpt lat="43.36289" lon="6.69317">
        <ele>193.781</ele>
        <time>2021-10-09T13:09:37Z</time>
      </trkpt>
      <trkpt lat="43.36311" lon="6.6936">
        <ele>194.834</ele>
        <time>2021-10-09T13:09:58Z</time>
      </trkpt>
      <trkpt lat="43.36325" lon="6.69394">
        <ele>195.781</ele>
        <time>2021-10-09T13:10:17Z</time>
      </trkpt>
      <trkpt lat="43.36329" lon="6.69419">
        <ele>196.769</ele>
        <time>2021-10-09T13:10:29Z</time>
      </trkpt>
      <trkpt lat="43.36329" lon="6.69434">
        <ele>198.1</ele>
        <time>2021-10-09T13:10:35Z</time>
      </trkpt>
      <trkpt lat="43.36319" lon="6.69471">
        <ele>200.537</ele>
        <time>2021-10-09T13:10:55Z</time>
      </trkpt>
      <trkpt lat="43.36311" lon="6.69474">
        <ele>201.539</ele>
        <time>2021-10-09T13:11:05Z</time>
      </trkpt>
      <trkpt lat="43.36292" lon="6.69443">
        <ele>205.975</ele>
        <time>2021-10-09T13:11:30Z</time>
      </trkpt>
      <trkpt lat="43.36277" lon="6.69427">
        <ele>206.969</ele>
        <time>2021-10-09T13:11:46Z</time>
      </trkpt>
      <trkpt lat="43.36253" lon="6.69387">
        <ele>209.745</ele>
        <time>2021-10-09T13:12:25Z</time>
      </trkpt>
      <trkpt lat="43.36217" lon="6.69367">
        <ele>214.122</ele>
        <time>2021-10-09T13:12:52Z</time>
      </trkpt>
      <trkpt lat="43.36202" lon="6.69351">
        <ele>217.902</ele>
        <time>2021-10-09T13:13:06Z</time>
      </trkpt>
      <trkpt lat="43.36182" lon="6.69323">
        <ele>223.732</ele>
        <time>2021-10-09T13:13:27Z</time>
      </trkpt>
      <trkpt lat="43.36153" lon="6.69304">
        <ele>229.107</ele>
        <time>2021-10-09T13:14:25Z</time>
      </trkpt>
      <trkpt lat="43.36129" lon="6.69268">
        <ele>235.581</ele>
        <time>2021-10-09T13:15:34Z</time>
      </trkpt>
      <trkpt lat="43.36102" lon="6.69253">
        <ele>240.088</ele>
        <time>2021-10-09T13:16:16Z</time>
      </trkpt>
      <trkpt lat="43.36094" lon="6.69241">
        <ele>239.304</ele>
        <time>2021-10-09T13:16:33Z</time>
      </trkpt>
      <trkpt lat="43.36085" lon="6.69248">
        <ele>240.528</ele>
        <time>2021-10-09T13:20:07Z</time>
      </trkpt>
      <trkpt lat="43.36073" lon="6.69248">
        <ele>240.959</ele>
        <time>2021-10-09T13:20:11Z</time>
      </trkpt>
      <trkpt lat="43.36048" lon="6.69274">
        <ele>236.161</ele>
        <time>2021-10-09T13:20:20Z</time>
      </trkpt>
      <trkpt lat="43.36021" lon="6.69291">
        <ele>232.781</ele>
        <time>2021-10-09T13:20:26Z</time>
      </trkpt>
      <trkpt lat="43.35961" lon="6.69294">
        <ele>226.556</ele>
        <time>2021-10-09T13:20:38Z</time>
      </trkpt>
      <trkpt lat="43.35934" lon="6.69302">
        <ele>224.663</ele>
        <time>2021-10-09T13:20:42Z</time>
      </trkpt>
      <trkpt lat="43.35887" lon="6.69327">
        <ele>216.923</ele>
        <time>2021-10-09T13:20:48Z</time>
      </trkpt>
      <trkpt lat="43.35849" lon="6.69358">
        <ele>214.322</ele>
        <time>2021-10-09T13:20:58Z</time>
      </trkpt>
      <trkpt lat="43.35827" lon="6.69393">
        <ele>209.886</ele>
        <time>2021-10-09T13:21:06Z</time>
      </trkpt>
      <trkpt lat="43.35819" lon="6.69421">
        <ele>207.316</ele>
        <time>2021-10-09T13:21:12Z</time>
      </trkpt>
      <trkpt lat="43.35804" lon="6.69461">
        <ele>203.603</ele>
        <time>2021-10-09T13:21:20Z</time>
      </trkpt>
      <trkpt lat="43.35794" lon="6.69503">
        <ele>202.45</ele>
        <time>2021-10-09T13:21:34Z</time>
      </trkpt>
      <trkpt lat="43.35797" lon="6.69518">
        <ele>200.941</ele>
        <time>2021-10-09T13:21:40Z</time>
      </trkpt>
      <trkpt lat="43.35794" lon="6.69561">
        <ele>197.216</ele>
        <time>2021-10-09T13:21:50Z</time>
      </trkpt>
      <trkpt lat="43.35782" lon="6.69604">
        <ele>195.009</ele>
        <time>2021-10-09T13:21:58Z</time>
      </trkpt>
      <trkpt lat="43.35766" lon="6.69647">
        <ele>192.071</ele>
        <time>2021-10-09T13:22:04Z</time>
      </trkpt>
      <trkpt lat="43.35757" lon="6.69695">
        <ele>187.772</ele>
        <time>2021-10-09T13:22:16Z</time>
      </trkpt>
      <trkpt lat="43.35757" lon="6.69709">
        <ele>185.896</ele>
        <time>2021-10-09T13:22:38Z</time>
      </trkpt>
      <trkpt lat="43.35754" lon="6.69711">
        <ele>186.267</ele>
        <time>2021-10-09T13:22:42Z</time>
      </trkpt>
      <trkpt lat="43.35752" lon="6.69725">
        <ele>184.405</ele>
        <time>2021-10-09T13:27:19Z</time>
      </trkpt>
      <trkpt lat="43.35743" lon="6.6973">
        <ele>185.628</ele>
        <time>2021-10-09T13:27:23Z</time>
      </trkpt>
      <trkpt lat="43.35723" lon="6.69722">
        <ele>192.014</ele>
        <time>2021-10-09T13:27:28Z</time>
      </trkpt>
      <trkpt lat="43.35711" lon="6.69723">
        <ele>194.712</ele>
        <time>2021-10-09T13:27:31Z</time>
      </trkpt>
      <trkpt lat="43.3569" lon="6.6974">
        <ele>195.895</ele>
        <time>2021-10-09T13:27:37Z</time>
      </trkpt>
      <trkpt lat="43.35668" lon="6.69777">
        <ele>194.029</ele>
        <time>2021-10-09T13:27:46Z</time>
      </trkpt>
      <trkpt lat="43.35635" lon="6.69858">
        <ele>188.344</ele>
        <time>2021-10-09T13:27:59Z</time>
      </trkpt>
      <trkpt lat="43.35602" lon="6.69925">
        <ele>185.107</ele>
        <time>2021-10-09T13:28:07Z</time>
      </trkpt>
      <trkpt lat="43.35569" lon="6.70053">
        <ele>181.043</ele>
        <time>2021-10-09T13:28:21Z</time>
      </trkpt>
      <trkpt lat="43.35569" lon="6.70066">
        <ele>181.287</ele>
        <time>2021-10-09T13:28:23Z</time>
      </trkpt>
      <trkpt lat="43.35576" lon="6.70093">
        <ele>183.032</ele>
        <time>2021-10-09T13:28:27Z</time>
      </trkpt>
      <trkpt lat="43.356" lon="6.70142">
        <ele>183.01</ele>
        <time>2021-10-09T13:28:35Z</time>
      </trkpt>
      <trkpt lat="43.35629" lon="6.70224">
        <ele>179.674</ele>
        <time>2021-10-09T13:28:47Z</time>
      </trkpt>
      <trkpt lat="43.35643" lon="6.70254">
        <ele>175.868</ele>
        <time>2021-10-09T13:28:51Z</time>
      </trkpt>
      <trkpt lat="43.35652" lon="6.70285">
        <ele>174.881</ele>
        <time>2021-10-09T13:28:55Z</time>
      </trkpt>
      <trkpt lat="43.3569" lon="6.7035">
        <ele>168.799</ele>
        <time>2021-10-09T13:29:05Z</time>
      </trkpt>
      <trkpt lat="43.35697" lon="6.70375">
        <ele>167.794</ele>
        <time>2021-10-09T13:29:09Z</time>
      </trkpt>
      <trkpt lat="43.35695" lon="6.70421">
        <ele>169.848</ele>
        <time>2021-10-09T13:29:15Z</time>
      </trkpt>
      <trkpt lat="43.35703" lon="6.70443">
        <ele>169.118</ele>
        <time>2021-10-09T13:29:19Z</time>
      </trkpt>
      <trkpt lat="43.35741" lon="6.70483">
        <ele>163.493</ele>
        <time>2021-10-09T13:29:31Z</time>
      </trkpt>
      <trkpt lat="43.35775" lon="6.70486">
        <ele>155.183</ele>
        <time>2021-10-09T13:29:41Z</time>
      </trkpt>
      <trkpt lat="43.35794" lon="6.705">
        <ele>151.748</ele>
        <time>2021-10-09T13:29:46Z</time>
      </trkpt>
      <trkpt lat="43.35822" lon="6.7053">
        <ele>147.197</ele>
        <time>2021-10-09T13:29:56Z</time>
      </trkpt>
      <trkpt lat="43.35831" lon="6.70536">
        <ele>144.545</ele>
        <time>2021-10-09T13:29:59Z</time>
      </trkpt>
      <trkpt lat="43.35866" lon="6.7057">
        <ele>136.793</ele>
        <time>2021-10-09T13:30:12Z</time>
      </trkpt>
      <trkpt lat="43.3589" lon="6.7057">
        <ele>132.207</ele>
        <time>2021-10-09T13:30:18Z</time>
      </trkpt>
      <trkpt lat="43.35916" lon="6.70595">
        <ele>129.314</ele>
        <time>2021-10-09T13:30:27Z</time>
      </trkpt>
      <trkpt lat="43.35928" lon="6.70595">
        <ele>127.699</ele>
        <time>2021-10-09T13:30:31Z</time>
      </trkpt>
      <trkpt lat="43.35946" lon="6.70579">
        <ele>124.516</ele>
        <time>2021-10-09T13:30:37Z</time>
      </trkpt>
      <trkpt lat="43.35955" lon="6.7058">
        <ele>123.146</ele>
        <time>2021-10-09T13:30:41Z</time>
      </trkpt>
      <trkpt lat="43.35961" lon="6.7059">
        <ele>122.896</ele>
        <time>2021-10-09T13:30:45Z</time>
      </trkpt>
      <trkpt lat="43.3596" lon="6.70577">
        <ele>122.237</ele>
        <time>2021-10-09T13:30:52Z</time>
      </trkpt>
      <trkpt lat="43.35951" lon="6.70568">
        <ele>123.012</ele>
        <time>2021-10-09T13:30:57Z</time>
      </trkpt>
      <trkpt lat="43.35933" lon="6.70559">
        <ele>125.532</ele>
        <time>2021-10-09T13:31:06Z</time>
      </trkpt>
      <trkpt lat="43.3589" lon="6.70523">
        <ele>130.377</ele>
        <time>2021-10-09T13:31:32Z</time>
      </trkpt>
      <trkpt lat="43.35862" lon="6.70515">
        <ele>135.39</ele>
        <time>2021-10-09T13:31:47Z</time>
      </trkpt>
      <trkpt lat="43.35822" lon="6.70474">
        <ele>139.855</ele>
        <time>2021-10-09T13:32:18Z</time>
      </trkpt>
      <trkpt lat="43.35788" lon="6.7045">
        <ele>145.137</ele>
        <time>2021-10-09T13:32:43Z</time>
      </trkpt>
      <trkpt lat="43.35759" lon="6.70441">
        <ele>153.64</ele>
        <time>2021-10-09T13:33:01Z</time>
      </trkpt>
      <trkpt lat="43.35739" lon="6.70412">
        <ele>155.47</ele>
        <time>2021-10-09T13:33:17Z</time>
      </trkpt>
      <trkpt lat="43.35737" lon="6.70398">
        <ele>154.388</ele>
        <time>2021-10-09T13:33:23Z</time>
      </trkpt>
      <trkpt lat="43.35746" lon="6.70344">
        <ele>148.894</ele>
        <time>2021-10-09T13:33:46Z</time>
      </trkpt>
      <trkpt lat="43.35733" lon="6.70306">
        <ele>151.116</ele>
        <time>2021-10-09T13:34:04Z</time>
      </trkpt>
      <trkpt lat="43.35725" lon="6.70296">
        <ele>153.069</ele>
        <time>2021-10-09T13:34:10Z</time>
      </trkpt>
      <trkpt lat="43.35707" lon="6.70281">
        <ele>157.995</ele>
        <time>2021-10-09T13:34:20Z</time>
      </trkpt>
      <trkpt lat="43.35693" lon="6.70262">
        <ele>161.063</ele>
        <time>2021-10-09T13:34:30Z</time>
      </trkpt>
      <trkpt lat="43.35677" lon="6.70227">
        <ele>164.354</ele>
        <time>2021-10-09T13:34:45Z</time>
      </trkpt>
      <trkpt lat="43.35674" lon="6.70202">
        <ele>164.167</ele>
        <time>2021-10-09T13:34:53Z</time>
      </trkpt>
      <trkpt lat="43.3568" lon="6.70175">
        <ele>161.222</ele>
        <time>2021-10-09T13:35:00Z</time>
      </trkpt>
      <trkpt lat="43.35677" lon="6.70128">
        <ele>159.708</ele>
        <time>2021-10-09T13:35:10Z</time>
      </trkpt>
      <trkpt lat="43.35671" lon="6.70114">
        <ele>160.362</ele>
        <time>2021-10-09T13:35:13Z</time>
      </trkpt>
      <trkpt lat="43.35639" lon="6.70066">
        <ele>168.016</ele>
        <time>2021-10-09T13:35:25Z</time>
      </trkpt>
      <trkpt lat="43.35637" lon="6.70051">
        <ele>169.095</ele>
        <time>2021-10-09T13:35:28Z</time>
      </trkpt>
      <trkpt lat="43.35639" lon="6.70035">
        <ele>168.863</ele>
        <time>2021-10-09T13:35:31Z</time>
      </trkpt>
      <trkpt lat="43.35657" lon="6.70012">
        <ele>162.943</ele>
        <time>2021-10-09T13:35:37Z</time>
      </trkpt>
      <trkpt lat="43.35681" lon="6.6997">
        <ele>158.937</ele>
        <time>2021-10-09T13:35:46Z</time>
      </trkpt>
      <trkpt lat="43.35681" lon="6.69923">
        <ele>165.442</ele>
        <time>2021-10-09T13:35:55Z</time>
      </trkpt>
      <trkpt lat="43.35695" lon="6.69902">
        <ele>163.396</ele>
        <time>2021-10-09T13:36:01Z</time>
      </trkpt>
      <trkpt lat="43.35715" lon="6.69893">
        <ele>157.628</ele>
        <time>2021-10-09T13:36:05Z</time>
      </trkpt>
      <trkpt lat="43.35726" lon="6.69884">
        <ele>155.37</ele>
        <time>2021-10-09T13:36:07Z</time>
      </trkpt>
      <trkpt lat="43.35735" lon="6.69871">
        <ele>154.985</ele>
        <time>2021-10-09T13:36:09Z</time>
      </trkpt>
      <trkpt lat="43.35746" lon="6.69841">
        <ele>157.863</ele>
        <time>2021-10-09T13:36:13Z</time>
      </trkpt>
      <trkpt lat="43.35753" lon="6.69831">
        <ele>158.608</ele>
        <time>2021-10-09T13:36:15Z</time>
      </trkpt>
      <trkpt lat="43.35783" lon="6.69837">
        <ele>150.273</ele>
        <time>2021-10-09T13:36:21Z</time>
      </trkpt>
      <trkpt lat="43.35806" lon="6.69849">
        <ele>145.727</ele>
        <time>2021-10-09T13:36:25Z</time>
      </trkpt>
      <trkpt lat="43.35855" lon="6.69891">
        <ele>135.485</ele>
        <time>2021-10-09T13:36:32Z</time>
      </trkpt>
      <trkpt lat="43.35867" lon="6.69892">
        <ele>135.934</ele>
        <time>2021-10-09T13:36:34Z</time>
      </trkpt>
      <trkpt lat="43.35876" lon="6.6988">
        <ele>135.85</ele>
        <time>2021-10-09T13:36:36Z</time>
      </trkpt>
      <trkpt lat="43.35881" lon="6.69865">
        <ele>136.699</ele>
        <time>2021-10-09T13:36:38Z</time>
      </trkpt>
      <trkpt lat="43.35883" lon="6.69784">
        <ele>137.863</ele>
        <time>2021-10-09T13:36:48Z</time>
      </trkpt>
      <trkpt lat="43.35887" lon="6.69747">
        <ele>135.171</ele>
        <time>2021-10-09T13:36:52Z</time>
      </trkpt>
      <trkpt lat="43.35881" lon="6.69695">
        <ele>140.014</ele>
        <time>2021-10-09T13:36:58Z</time>
      </trkpt>
      <trkpt lat="43.35885" lon="6.69684">
        <ele>139.445</ele>
        <time>2021-10-09T13:37:00Z</time>
      </trkpt>
      <trkpt lat="43.35916" lon="6.69688">
        <ele>125.665</ele>
        <time>2021-10-09T13:37:06Z</time>
      </trkpt>
      <trkpt lat="43.35925" lon="6.6968">
        <ele>125.066</ele>
        <time>2021-10-09T13:37:08Z</time>
      </trkpt>
      <trkpt lat="43.35943" lon="6.69645">
        <ele>130.906</ele>
        <time>2021-10-09T13:37:14Z</time>
      </trkpt>
      <trkpt lat="43.35952" lon="6.69651">
        <ele>130.041</ele>
        <time>2021-10-09T13:37:17Z</time>
      </trkpt>
      <trkpt lat="43.35956" lon="6.69703">
        <ele>120.792</ele>
        <time>2021-10-09T13:37:25Z</time>
      </trkpt>
      <trkpt lat="43.35959" lon="6.69718">
        <ele>117.986</ele>
        <time>2021-10-09T13:37:27Z</time>
      </trkpt>
      <trkpt lat="43.35971" lon="6.69746">
        <ele>116.701</ele>
        <time>2021-10-09T13:37:31Z</time>
      </trkpt>
      <trkpt lat="43.35988" lon="6.69803">
        <ele>112.081</ele>
        <time>2021-10-09T13:37:39Z</time>
      </trkpt>
      <trkpt lat="43.36004" lon="6.69822">
        <ele>110.926</ele>
        <time>2021-10-09T13:37:43Z</time>
      </trkpt>
      <trkpt lat="43.36027" lon="6.69863">
        <ele>110.316</ele>
        <time>2021-10-09T13:37:49Z</time>
      </trkpt>
      <trkpt lat="43.36045" lon="6.69903">
        <ele>109.188</ele>
        <time>2021-10-09T13:37:55Z</time>
      </trkpt>
      <trkpt lat="43.3605" lon="6.69934">
        <ele>104.39</ele>
        <time>2021-10-09T13:37:59Z</time>
      </trkpt>
      <trkpt lat="43.36063" lon="6.69962">
        <ele>103.682</ele>
        <time>2021-10-09T13:38:04Z</time>
      </trkpt>
      <trkpt lat="43.36065" lon="6.69996">
        <ele>98.224</ele>
        <time>2021-10-09T13:38:09Z</time>
      </trkpt>
      <trkpt lat="43.36072" lon="6.70022">
        <ele>96.114</ele>
        <time>2021-10-09T13:38:13Z</time>
      </trkpt>
      <trkpt lat="43.36119" lon="6.70141">
        <ele>85.24</ele>
        <time>2021-10-09T13:38:34Z</time>
      </trkpt>
      <trkpt lat="43.36128" lon="6.70151">
        <ele>84.171</ele>
        <time>2021-10-09T13:38:36Z</time>
      </trkpt>
      <trkpt lat="43.3615" lon="6.70162">
        <ele>83.442</ele>
        <time>2021-10-09T13:38:40Z</time>
      </trkpt>
      <trkpt lat="43.36161" lon="6.70163">
        <ele>83.921</ele>
        <time>2021-10-09T13:38:42Z</time>
      </trkpt>
      <trkpt lat="43.36181" lon="6.70151">
        <ele>88.609</ele>
        <time>2021-10-09T13:38:46Z</time>
      </trkpt>
      <trkpt lat="43.36194" lon="6.70148">
        <ele>90.424</ele>
        <time>2021-10-09T13:38:49Z</time>
      </trkpt>
      <trkpt lat="43.36212" lon="6.70162">
        <ele>87.877</ele>
        <time>2021-10-09T13:38:54Z</time>
      </trkpt>
      <trkpt lat="43.36232" lon="6.7021">
        <ele>78.748</ele>
        <time>2021-10-09T13:39:06Z</time>
      </trkpt>
      <trkpt lat="43.36234" lon="6.70236">
        <ele>73.147</ele>
        <time>2021-10-09T13:39:10Z</time>
      </trkpt>
      <trkpt lat="43.36244" lon="6.70262">
        <ele>69.775</ele>
        <time>2021-10-09T13:39:14Z</time>
      </trkpt>
      <trkpt lat="43.36252" lon="6.70295">
        <ele>66.067</ele>
        <time>2021-10-09T13:39:20Z</time>
      </trkpt>
      <trkpt lat="43.36272" lon="6.70313">
        <ele>63.471</ele>
        <time>2021-10-09T13:39:26Z</time>
      </trkpt>
      <trkpt lat="43.36281" lon="6.70314">
        <ele>63.233</ele>
        <time>2021-10-09T13:39:30Z</time>
      </trkpt>
      <trkpt lat="43.36291" lon="6.70309">
        <ele>64.044</ele>
        <time>2021-10-09T13:39:34Z</time>
      </trkpt>
      <trkpt lat="43.36315" lon="6.7028">
        <ele>70.155</ele>
        <time>2021-10-09T13:39:46Z</time>
      </trkpt>
      <trkpt lat="43.36324" lon="6.70283">
        <ele>69.952</ele>
        <time>2021-10-09T13:39:50Z</time>
      </trkpt>
      <trkpt lat="43.36339" lon="6.70306">
        <ele>66.563</ele>
        <time>2021-10-09T13:39:58Z</time>
      </trkpt>
      <trkpt lat="43.36341" lon="6.70334">
        <ele>63.561</ele>
        <time>2021-10-09T13:40:06Z</time>
      </trkpt>
      <trkpt lat="43.36338" lon="6.70365">
        <ele>60.897</ele>
        <time>2021-10-09T13:40:14Z</time>
      </trkpt>
      <trkpt lat="43.3634" lon="6.70391">
        <ele>58.77</ele>
        <time>2021-10-09T13:40:20Z</time>
      </trkpt>
      <trkpt lat="43.36331" lon="6.70422">
        <ele>54.856</ele>
        <time>2021-10-09T13:40:26Z</time>
      </trkpt>
      <trkpt lat="43.36333" lon="6.70436">
        <ele>53.671</ele>
        <time>2021-10-09T13:40:29Z</time>
      </trkpt>
      <trkpt lat="43.36329" lon="6.70466">
        <ele>48.975</ele>
        <time>2021-10-09T13:40:35Z</time>
      </trkpt>
      <trkpt lat="43.36332" lon="6.70497">
        <ele>45.036</ele>
        <time>2021-10-09T13:40:41Z</time>
      </trkpt>
      <trkpt lat="43.36339" lon="6.70508">
        <ele>43.798</ele>
        <time>2021-10-09T13:40:44Z</time>
      </trkpt>
      <trkpt lat="43.36382" lon="6.70521">
        <ele>43.076</ele>
        <time>2021-10-09T13:40:56Z</time>
      </trkpt>
      <trkpt lat="43.36402" lon="6.70511">
        <ele>43.324</ele>
        <time>2021-10-09T13:41:04Z</time>
      </trkpt>
      <trkpt lat="43.36421" lon="6.7052">
        <ele>40.44</ele>
        <time>2021-10-09T13:41:11Z</time>
      </trkpt>
      <trkpt lat="43.36442" lon="6.70519">
        <ele>38.759</ele>
        <time>2021-10-09T13:41:17Z</time>
      </trkpt>
      <trkpt lat="43.36469" lon="6.70505">
        <ele>38.124</ele>
        <time>2021-10-09T13:41:27Z</time>
      </trkpt>
      <trkpt lat="43.36476" lon="6.70496">
        <ele>38.943</ele>
        <time>2021-10-09T13:41:32Z</time>
      </trkpt>
      <trkpt lat="43.3648" lon="6.70484">
        <ele>40.242</ele>
        <time>2021-10-09T13:41:38Z</time>
      </trkpt>
      <trkpt lat="43.36491" lon="6.70483">
        <ele>39.506</ele>
        <time>2021-10-09T13:41:43Z</time>
      </trkpt>
      <trkpt lat="43.36497" lon="6.70493">
        <ele>37.708</ele>
        <time>2021-10-09T13:41:46Z</time>
      </trkpt>
      <trkpt lat="43.36507" lon="6.70497">
        <ele>36.453</ele>
        <time>2021-10-09T13:41:51Z</time>
      </trkpt>
      <trkpt lat="43.36518" lon="6.70495">
        <ele>35.996</ele>
        <time>2021-10-09T13:41:55Z</time>
      </trkpt>
      <trkpt lat="43.36536" lon="6.70508">
        <ele>34.752</ele>
        <time>2021-10-09T13:42:02Z</time>
      </trkpt>
      <trkpt lat="43.36548" lon="6.70506">
        <ele>34.847</ele>
        <time>2021-10-09T13:42:05Z</time>
      </trkpt>
      <trkpt lat="43.36569" lon="6.70496">
        <ele>35.416</ele>
        <time>2021-10-09T13:42:11Z</time>
      </trkpt>
      <trkpt lat="43.36574" lon="6.70508">
        <ele>34.534</ele>
        <time>2021-10-09T13:42:14Z</time>
      </trkpt>
      <trkpt lat="43.36566" lon="6.70548">
        <ele>31.015</ele>
        <time>2021-10-09T13:42:24Z</time>
      </trkpt>
      <trkpt lat="43.36575" lon="6.70593">
        <ele>26.656</ele>
        <time>2021-10-09T13:42:33Z</time>
      </trkpt>
      <trkpt lat="43.36586" lon="6.70618">
        <ele>24.68</ele>
        <time>2021-10-09T13:42:39Z</time>
      </trkpt>
      <trkpt lat="43.36605" lon="6.70633">
        <ele>23.742</ele>
        <time>2021-10-09T13:42:44Z</time>
      </trkpt>
      <trkpt lat="43.36635" lon="6.70673">
        <ele>22.308</ele>
        <time>2021-10-09T13:42:53Z</time>
      </trkpt>
      <trkpt lat="43.36646" lon="6.70673">
        <ele>22.503</ele>
        <time>2021-10-09T13:42:56Z</time>
      </trkpt>
      <trkpt lat="43.36667" lon="6.70661">
        <ele>21.573</ele>
        <time>2021-10-09T13:43:01Z</time>
      </trkpt>
      <trkpt lat="43.36678" lon="6.70658">
        <ele>20.853</ele>
        <time>2021-10-09T13:43:03Z</time>
      </trkpt>
      <trkpt lat="43.36691" lon="6.70661">
        <ele>20.135</ele>
        <time>2021-10-09T13:43:05Z</time>
      </trkpt>
      <trkpt lat="43.367" lon="6.70672">
        <ele>19.491</ele>
        <time>2021-10-09T13:43:07Z</time>
      </trkpt>
      <trkpt lat="43.36721" lon="6.70712">
        <ele>18.124</ele>
        <time>2021-10-09T13:43:16Z</time>
      </trkpt>
      <trkpt lat="43.36727" lon="6.70701">
        <ele>17.314</ele>
        <time>2021-10-09T13:43:22Z</time>
      </trkpt>
      <trkpt lat="43.36731" lon="6.7064">
        <ele>16.329</ele>
        <time>2021-10-09T13:43:33Z</time>
      </trkpt>
      <trkpt lat="43.36738" lon="6.70629">
        <ele>15.685</ele>
        <time>2021-10-09T13:43:35Z</time>
      </trkpt>
      <trkpt lat="43.36748" lon="6.70625">
        <ele>14.275</ele>
        <time>2021-10-09T13:43:37Z</time>
      </trkpt>
      <trkpt lat="43.36759" lon="6.70632">
        <ele>12.835</ele>
        <time>2021-10-09T13:43:39Z</time>
      </trkpt>
      <trkpt lat="43.36767" lon="6.70643">
        <ele>11.635</ele>
        <time>2021-10-09T13:43:41Z</time>
      </trkpt>
      <trkpt lat="43.36778" lon="6.70648">
        <ele>10.135</ele>
        <time>2021-10-09T13:43:44Z</time>
      </trkpt>
      <trkpt lat="43.36795" lon="6.70607">
        <ele>9.323</ele>
        <time>2021-10-09T13:43:53Z</time>
      </trkpt>
      <trkpt lat="43.36785" lon="6.70566">
        <ele>10.467</ele>
        <time>2021-10-09T13:44:06Z</time>
      </trkpt>
      <trkpt lat="43.36793" lon="6.70542">
        <ele>10.874</ele>
        <time>2021-10-09T13:44:15Z</time>
      </trkpt>
      <trkpt lat="43.36789" lon="6.70517">
        <ele>12.211</ele>
        <time>2021-10-09T13:44:23Z</time>
      </trkpt>
      <trkpt lat="43.36799" lon="6.70433">
        <ele>16.626</ele>
        <time>2021-10-09T13:44:45Z</time>
      </trkpt>
      <trkpt lat="43.36809" lon="6.70426">
        <ele>15.89</ele>
        <time>2021-10-09T13:44:49Z</time>
      </trkpt>
      <trkpt lat="43.36837" lon="6.70443">
        <ele>13.988</ele>
        <time>2021-10-09T13:45:03Z</time>
      </trkpt>
      <trkpt lat="43.36852" lon="6.70461">
        <ele>17.242</ele>
        <time>2021-10-09T13:45:14Z</time>
      </trkpt>
      <trkpt lat="43.36869" lon="6.70492">
        <ele>20.617</ele>
        <time>2021-10-09T13:45:29Z</time>
      </trkpt>
      <trkpt lat="43.36876" lon="6.70516">
        <ele>22.348</ele>
        <time>2021-10-09T13:45:40Z</time>
      </trkpt>
      <trkpt lat="43.36879" lon="6.70543">
        <ele>23.377</ele>
        <time>2021-10-09T13:45:55Z</time>
      </trkpt>
      <trkpt lat="43.36883" lon="6.70555">
        <ele>23.907</ele>
        <time>2021-10-09T13:46:03Z</time>
      </trkpt>
      <trkpt lat="43.36892" lon="6.70555">
        <ele>26.507</ele>
        <time>2021-10-09T13:46:09Z</time>
      </trkpt>
      <trkpt lat="43.36944" lon="6.70527">
        <ele>38.682</ele>
        <time>2021-10-09T13:47:01Z</time>
      </trkpt>
      <trkpt lat="43.36982" lon="6.70512">
        <ele>45.876</ele>
        <time>2021-10-09T13:48:01Z</time>
      </trkpt>
      <trkpt lat="43.37006" lon="6.70482">
        <ele>49.555</ele>
        <time>2021-10-09T13:48:28Z</time>
      </trkpt>
      <trkpt lat="43.37055" lon="6.7041">
        <ele>55.707</ele>
        <time>2021-10-09T13:49:07Z</time>
      </trkpt>
      <trkpt lat="43.37093" lon="6.70345">
        <ele>58.262</ele>
        <time>2021-10-09T13:49:31Z</time>
      </trkpt>
      <trkpt lat="43.37115" lon="6.70281">
        <ele>57.876</ele>
        <time>2021-10-09T13:49:47Z</time>
      </trkpt>
      <trkpt lat="43.37128" lon="6.7023">
        <ele>57.675</ele>
        <time>2021-10-09T13:50:03Z</time>
      </trkpt>
      <trkpt lat="43.37137" lon="6.70207">
        <ele>58.262</ele>
        <time>2021-10-09T13:50:13Z</time>
      </trkpt>
      <trkpt lat="43.37152" lon="6.70191">
        <ele>60.331</ele>
        <time>2021-10-09T13:50:23Z</time>
      </trkpt>
      <trkpt lat="43.37228" lon="6.70165">
        <ele>69.83</ele>
        <time>2021-10-09T13:51:07Z</time>
      </trkpt>
      <trkpt lat="43.37275" lon="6.7016">
        <ele>77.163</ele>
        <time>2021-10-09T13:51:38Z</time>
      </trkpt>
      <trkpt lat="43.37293" lon="6.70151">
        <ele>78.912</ele>
        <time>2021-10-09T13:51:50Z</time>
      </trkpt>
      <trkpt lat="43.37303" lon="6.70141">
        <ele>80.598</ele>
        <time>2021-10-09T13:52:01Z</time>
      </trkpt>
      <trkpt lat="43.37358" lon="6.70037">
        <ele>95.013</ele>
        <time>2021-10-09T13:54:02Z</time>
      </trkpt>
      <trkpt lat="43.37365" lon="6.70013">
        <ele>97.319</ele>
        <time>2021-10-09T13:54:28Z</time>
      </trkpt>
      <trkpt lat="43.37374" lon="6.70008">
        <ele>99.739</ele>
        <time>2021-10-09T13:54:46Z</time>
      </trkpt>
      <trkpt lat="43.37397" lon="6.70037">
        <ele>104.432</ele>
        <time>2021-10-09T13:55:52Z</time>
      </trkpt>
      <trkpt lat="43.37406" lon="6.7004">
        <ele>104.859</ele>
        <time>2021-10-09T13:56:06Z</time>
      </trkpt>
      <trkpt lat="43.37415" lon="6.70036">
        <ele>105.467</ele>
        <time>2021-10-09T13:56:18Z</time>
      </trkpt>
      <trkpt lat="43.37478" lon="6.69956">
        <ele>113.61</ele>
        <time>2021-10-09T13:59:47Z</time>
      </trkpt>
      <trkpt lat="43.37495" lon="6.69945">
        <ele>115.473</ele>
        <time>2021-10-09T13:59:55Z</time>
      </trkpt>
      <trkpt lat="43.37505" lon="6.69943">
        <ele>116.629</ele>
        <time>2021-10-09T14:00:00Z</time>
      </trkpt>
      <trkpt lat="43.37513" lon="6.69951">
        <ele>117.635</ele>
        <time>2021-10-09T14:00:06Z</time>
      </trkpt>
      <trkpt lat="43.37529" lon="6.69985">
        <ele>118.581</ele>
        <time>2021-10-09T14:00:23Z</time>
      </trkpt>
      <trkpt lat="43.37544" lon="6.70001">
        <ele>119.089</ele>
        <time>2021-10-09T14:00:35Z</time>
      </trkpt>
      <trkpt lat="43.37552" lon="6.70005">
        <ele>119.831</ele>
        <time>2021-10-09T14:00:41Z</time>
      </trkpt>
      <trkpt lat="43.376" lon="6.7">
        <ele>122.015</ele>
        <time>2021-10-09T14:01:13Z</time>
      </trkpt>
      <trkpt lat="43.37622" lon="6.69985">
        <ele>123.699</ele>
        <time>2021-10-09T14:01:21Z</time>
      </trkpt>
      <trkpt lat="43.37653" lon="6.69978">
        <ele>120.825</ele>
        <time>2021-10-09T14:01:30Z</time>
      </trkpt>
      <trkpt lat="43.37674" lon="6.69966">
        <ele>120.116</ele>
        <time>2021-10-09T14:01:34Z</time>
      </trkpt>
      <trkpt lat="43.3771" lon="6.69932">
        <ele>120.859</ele>
        <time>2021-10-09T14:01:42Z</time>
      </trkpt>
      <trkpt lat="43.37724" lon="6.69948">
        <ele>121.629</ele>
        <time>2021-10-09T14:01:47Z</time>
      </trkpt>
      <trkpt lat="43.37727" lon="6.6996">
        <ele>120.402</ele>
        <time>2021-10-09T14:01:59Z</time>
      </trkpt>
      <trkpt lat="43.37751" lon="6.69993">
        <ele>119.99</ele>
        <time>2021-10-09T14:03:40Z</time>
      </trkpt>
      <trkpt lat="43.3777" lon="6.70005">
        <ele>122.89</ele>
        <time>2021-10-09T14:03:52Z</time>
      </trkpt>
      <trkpt lat="43.37776" lon="6.70015">
        <ele>122.175</ele>
        <time>2021-10-09T14:03:58Z</time>
      </trkpt>
      <trkpt lat="43.37802" lon="6.70029">
        <ele>125.748</ele>
        <time>2021-10-09T14:04:17Z</time>
      </trkpt>
      <trkpt lat="43.37839" lon="6.70034">
        <ele>131.159</ele>
        <time>2021-10-09T14:04:56Z</time>
      </trkpt>
      <trkpt lat="43.37858" lon="6.70044">
        <ele>129.2</ele>
        <time>2021-10-09T14:05:06Z</time>
      </trkpt>
      <trkpt lat="43.37884" lon="6.70068">
        <ele>127.747</ele>
        <time>2021-10-09T14:05:18Z</time>
      </trkpt>
      <trkpt lat="43.37892" lon="6.7008">
        <ele>126.543</ele>
        <time>2021-10-09T14:05:21Z</time>
      </trkpt>
      <trkpt lat="43.37913" lon="6.70166">
        <ele>127.444</ele>
        <time>2021-10-09T14:05:33Z</time>
      </trkpt>
      <trkpt lat="43.37931" lon="6.70202">
        <ele>132.027</ele>
        <time>2021-10-09T14:05:41Z</time>
      </trkpt>
      <trkpt lat="43.37947" lon="6.70219">
        <ele>135.421</ele>
        <time>2021-10-09T14:06:03Z</time>
      </trkpt>
      <trkpt lat="43.37954" lon="6.70243">
        <ele>139.237</ele>
        <time>2021-10-09T14:06:35Z</time>
      </trkpt>
      <trkpt lat="43.37952" lon="6.70268">
        <ele>140.913</ele>
        <time>2021-10-09T14:07:05Z</time>
      </trkpt>
      <trkpt lat="43.37961" lon="6.70291">
        <ele>142.754</ele>
        <time>2021-10-09T14:07:28Z</time>
      </trkpt>
      <trkpt lat="43.37968" lon="6.70299">
        <ele>143.462</ele>
        <time>2021-10-09T14:07:39Z</time>
      </trkpt>
      <trkpt lat="43.37977" lon="6.70304">
        <ele>143.671</ele>
        <time>2021-10-09T14:07:49Z</time>
      </trkpt>
      <trkpt lat="43.38043" lon="6.70293">
        <ele>143.622</ele>
        <time>2021-10-09T14:08:30Z</time>
      </trkpt>
      <trkpt lat="43.38095" lon="6.70299">
        <ele>142.125</ele>
        <time>2021-10-09T14:08:43Z</time>
      </trkpt>
      <trkpt lat="43.38135" lon="6.70316">
        <ele>140.593</ele>
        <time>2021-10-09T14:08:49Z</time>
      </trkpt>
      <trkpt lat="43.38176" lon="6.70343">
        <ele>139.493</ele>
        <time>2021-10-09T14:08:55Z</time>
      </trkpt>
      <trkpt lat="43.38187" lon="6.70357">
        <ele>139.289</ele>
        <time>2021-10-09T14:08:57Z</time>
      </trkpt>
      <trkpt lat="43.38214" lon="6.70371">
        <ele>136.182</ele>
        <time>2021-10-09T14:09:01Z</time>
      </trkpt>
      <trkpt lat="43.3824" lon="6.70397">
        <ele>134.368</ele>
        <time>2021-10-09T14:09:05Z</time>
      </trkpt>
      <trkpt lat="43.38283" lon="6.70413">
        <ele>129.152</ele>
        <time>2021-10-09T14:09:10Z</time>
      </trkpt>
      <trkpt lat="43.38304" lon="6.7045">
        <ele>128.744</ele>
        <time>2021-10-09T14:09:18Z</time>
      </trkpt>
      <trkpt lat="43.38322" lon="6.70466">
        <ele>128.493</ele>
        <time>2021-10-09T14:09:24Z</time>
      </trkpt>
      <trkpt lat="43.38344" lon="6.70479">
        <ele>127.339</ele>
        <time>2021-10-09T14:09:29Z</time>
      </trkpt>
      <trkpt lat="43.38354" lon="6.70492">
        <ele>126.876</ele>
        <time>2021-10-09T14:09:31Z</time>
      </trkpt>
      <trkpt lat="43.38358" lon="6.70505">
        <ele>126.71</ele>
        <time>2021-10-09T14:09:33Z</time>
      </trkpt>
      <trkpt lat="43.38371" lon="6.70503">
        <ele>124.795</ele>
        <time>2021-10-09T14:09:37Z</time>
      </trkpt>
      <trkpt lat="43.38399" lon="6.70467">
        <ele>119.567</ele>
        <time>2021-10-09T14:09:46Z</time>
      </trkpt>
      <trkpt lat="43.38408" lon="6.70476">
        <ele>118.725</ele>
        <time>2021-10-09T14:09:51Z</time>
      </trkpt>
      <trkpt lat="43.38409" lon="6.70533">
        <ele>117.707</ele>
        <time>2021-10-09T14:10:00Z</time>
      </trkpt>
      <trkpt lat="43.38438" lon="6.70575">
        <ele>109.966</ele>
        <time>2021-10-09T14:10:12Z</time>
      </trkpt>
      <trkpt lat="43.38448" lon="6.70582">
        <ele>108.542</ele>
        <time>2021-10-09T14:10:14Z</time>
      </trkpt>
      <trkpt lat="43.38485" lon="6.70581">
        <ele>103.997</ele>
        <time>2021-10-09T14:10:20Z</time>
      </trkpt>
      <trkpt lat="43.38495" lon="6.70589">
        <ele>103.204</ele>
        <time>2021-10-09T14:10:22Z</time>
      </trkpt>
      <trkpt lat="43.38518" lon="6.70622">
        <ele>101.749</ele>
        <time>2021-10-09T14:10:28Z</time>
      </trkpt>
      <trkpt lat="43.38568" lon="6.70715">
        <ele>104.997</ele>
        <time>2021-10-09T14:10:54Z</time>
      </trkpt>
      <trkpt lat="43.38586" lon="6.70727">
        <ele>105.093</ele>
        <time>2021-10-09T14:11:09Z</time>
      </trkpt>
      <trkpt lat="43.38634" lon="6.70738">
        <ele>103.664</ele>
        <time>2021-10-09T14:11:36Z</time>
      </trkpt>
      <trkpt lat="43.38645" lon="6.70738">
        <ele>103.355</ele>
        <time>2021-10-09T14:11:41Z</time>
      </trkpt>
      <trkpt lat="43.38652" lon="6.70727">
        <ele>102.604</ele>
        <time>2021-10-09T14:11:46Z</time>
      </trkpt>
      <trkpt lat="43.38661" lon="6.70722">
        <ele>101.951</ele>
        <time>2021-10-09T14:11:50Z</time>
      </trkpt>
      <trkpt lat="43.38669" lon="6.70727">
        <ele>102.117</ele>
        <time>2021-10-09T14:11:52Z</time>
      </trkpt>
      <trkpt lat="43.38679" lon="6.70727">
        <ele>102.176</ele>
        <time>2021-10-09T14:11:54Z</time>
      </trkpt>
      <trkpt lat="43.3869" lon="6.70718">
        <ele>101.797</ele>
        <time>2021-10-09T14:11:59Z</time>
      </trkpt>
      <trkpt lat="43.38707" lon="6.70714">
        <ele>101.916</ele>
        <time>2021-10-09T14:12:26Z</time>
      </trkpt>
      <trkpt lat="43.38725" lon="6.70722">
        <ele>102.662</ele>
        <time>2021-10-09T14:12:50Z</time>
      </trkpt>
      <trkpt lat="43.38746" lon="6.70713">
        <ele>103.09</ele>
        <time>2021-10-09T14:13:04Z</time>
      </trkpt>
      <trkpt lat="43.38776" lon="6.70691">
        <ele>102.667</ele>
        <time>2021-10-09T14:13:11Z</time>
      </trkpt>
      <trkpt lat="43.38786" lon="6.70688">
        <ele>102.336</ele>
        <time>2021-10-09T14:13:13Z</time>
      </trkpt>
      <trkpt lat="43.38807" lon="6.70673">
        <ele>99.692</ele>
        <time>2021-10-09T14:13:19Z</time>
      </trkpt>
      <trkpt lat="43.38839" lon="6.70661">
        <ele>97.56</ele>
        <time>2021-10-09T14:13:28Z</time>
      </trkpt>
      <trkpt lat="43.38847" lon="6.70653">
        <ele>96.726</ele>
        <time>2021-10-09T14:13:31Z</time>
      </trkpt>
      <trkpt lat="43.38866" lon="6.70643">
        <ele>95.273</ele>
        <time>2021-10-09T14:13:35Z</time>
      </trkpt>
      <trkpt lat="43.38886" lon="6.70604">
        <ele>92.781</ele>
        <time>2021-10-09T14:13:55Z</time>
      </trkpt>
      <trkpt lat="43.38895" lon="6.70601">
        <ele>92.844</ele>
        <time>2021-10-09T14:14:14Z</time>
      </trkpt>
      <trkpt lat="43.38905" lon="6.70603">
        <ele>92.649</ele>
        <time>2021-10-09T14:14:24Z</time>
      </trkpt>
      <trkpt lat="43.38912" lon="6.70598">
        <ele>92.274</ele>
        <time>2021-10-09T14:14:36Z</time>
      </trkpt>
      <trkpt lat="43.38935" lon="6.70569">
        <ele>90.795</ele>
        <time>2021-10-09T14:14:59Z</time>
      </trkpt>
      <trkpt lat="43.38955" lon="6.70557">
        <ele>88.448</ele>
        <time>2021-10-09T14:15:05Z</time>
      </trkpt>
      <trkpt lat="43.38965" lon="6.70566">
        <ele>87.472</ele>
        <time>2021-10-09T14:15:09Z</time>
      </trkpt>
      <trkpt lat="43.38975" lon="6.70566">
        <ele>86.201</ele>
        <time>2021-10-09T14:15:13Z</time>
      </trkpt>
      <trkpt lat="43.38992" lon="6.70543">
        <ele>83.015</ele>
        <time>2021-10-09T14:15:21Z</time>
      </trkpt>
      <trkpt lat="43.39009" lon="6.70528">
        <ele>78.014</ele>
        <time>2021-10-09T14:15:30Z</time>
      </trkpt>
      <trkpt lat="43.3902" lon="6.70524">
        <ele>74.927</ele>
        <time>2021-10-09T14:15:34Z</time>
      </trkpt>
      <trkpt lat="43.39026" lon="6.70514">
        <ele>72.146</ele>
        <time>2021-10-09T14:15:39Z</time>
      </trkpt>
      <trkpt lat="43.39035" lon="6.70509">
        <ele>69.036</ele>
        <time>2021-10-09T14:15:47Z</time>
      </trkpt>
      <trkpt lat="43.39052" lon="6.70523">
        <ele>64.946</ele>
        <time>2021-10-09T14:15:55Z</time>
      </trkpt>
      <trkpt lat="43.39057" lon="6.70536">
        <ele>64.507</ele>
        <time>2021-10-09T14:15:58Z</time>
      </trkpt>
      <trkpt lat="43.39055" lon="6.70549">
        <ele>66.079</ele>
        <time>2021-10-09T14:16:02Z</time>
      </trkpt>
      <trkpt lat="43.39059" lon="6.70576">
        <ele>66.879</ele>
        <time>2021-10-09T14:16:10Z</time>
      </trkpt>
      <trkpt lat="43.39083" lon="6.70601">
        <ele>62.049</ele>
        <time>2021-10-09T14:16:40Z</time>
      </trkpt>
      <trkpt lat="43.39104" lon="6.70602">
        <ele>57.356</ele>
        <time>2021-10-09T14:16:47Z</time>
      </trkpt>
      <trkpt lat="43.39113" lon="6.70611">
        <ele>55.743</ele>
        <time>2021-10-09T14:16:49Z</time>
      </trkpt>
      <trkpt lat="43.39126" lon="6.70639">
        <ele>55.434</ele>
        <time>2021-10-09T14:16:53Z</time>
      </trkpt>
      <trkpt lat="43.39154" lon="6.70671">
        <ele>53.162</ele>
        <time>2021-10-09T14:17:00Z</time>
      </trkpt>
      <trkpt lat="43.39186" lon="6.70676">
        <ele>49.887</ele>
        <time>2021-10-09T14:17:06Z</time>
      </trkpt>
      <trkpt lat="43.39227" lon="6.7069">
        <ele>47.195</ele>
        <time>2021-10-09T14:17:18Z</time>
      </trkpt>
      <trkpt lat="43.3926" lon="6.70725">
        <ele>48.845</ele>
        <time>2021-10-09T14:17:35Z</time>
      </trkpt>
      <trkpt lat="43.3927" lon="6.7073">
        <ele>48.047</ele>
        <time>2021-10-09T14:17:49Z</time>
      </trkpt>
      <trkpt lat="43.39269" lon="6.70733">
        <ele>48.678</ele>
        <time>2021-10-09T14:18:00Z</time>
      </trkpt>
      <trkpt lat="43.39259" lon="6.7073">
        <ele>49.585</ele>
        <time>2021-10-09T14:18:12Z</time>
      </trkpt>
      <trkpt lat="43.39256" lon="6.70735">
        <ele>50.75</ele>
        <time>2021-10-09T14:18:27Z</time>
      </trkpt>
      <trkpt lat="43.39258" lon="6.70731">
        <ele>49.984</ele>
        <time>2021-10-09T14:27:17Z</time>
      </trkpt>
      <trkpt lat="43.39267" lon="6.70732">
        <ele>48.781</ele>
        <time>2021-10-09T14:27:34Z</time>
      </trkpt>
      <trkpt lat="43.39284" lon="6.70745">
        <ele>48.384</ele>
        <time>2021-10-09T14:27:51Z</time>
      </trkpt>
      <trkpt lat="43.39291" lon="6.70737">
        <ele>46.286</ele>
        <time>2021-10-09T14:27:56Z</time>
      </trkpt>
      <trkpt lat="43.39286" lon="6.70709">
        <ele>43.235</ele>
        <time>2021-10-09T14:28:03Z</time>
      </trkpt>
      <trkpt lat="43.39265" lon="6.70695">
        <ele>43.209</ele>
        <time>2021-10-09T14:28:09Z</time>
      </trkpt>
      <trkpt lat="43.39263" lon="6.70681">
        <ele>41.044</ele>
        <time>2021-10-09T14:28:15Z</time>
      </trkpt>
      <trkpt lat="43.39256" lon="6.70671">
        <ele>39.536</ele>
        <time>2021-10-09T14:28:19Z</time>
      </trkpt>
      <trkpt lat="43.39259" lon="6.70657">
        <ele>38.492</ele>
        <time>2021-10-09T14:28:22Z</time>
      </trkpt>
      <trkpt lat="43.39268" lon="6.70655">
        <ele>38.798</ele>
        <time>2021-10-09T14:28:26Z</time>
      </trkpt>
      <trkpt lat="43.39278" lon="6.7066">
        <ele>38.437</ele>
        <time>2021-10-09T14:28:39Z</time>
      </trkpt>
      <trkpt lat="43.39306" lon="6.70655">
        <ele>39.836</ele>
        <time>2021-10-09T14:29:12Z</time>
      </trkpt>
      <trkpt lat="43.39331" lon="6.70658">
        <ele>40.432</ele>
        <time>2021-10-09T14:29:49Z</time>
      </trkpt>
      <trkpt lat="43.39347" lon="6.70654">
        <ele>42.687</ele>
        <time>2021-10-09T14:30:07Z</time>
      </trkpt>
      <trkpt lat="43.39406" lon="6.70681">
        <ele>45.786</ele>
        <time>2021-10-09T14:30:31Z</time>
      </trkpt>
      <trkpt lat="43.39425" lon="6.7068">
        <ele>49.736</ele>
        <time>2021-10-09T14:30:41Z</time>
      </trkpt>
      <trkpt lat="43.39444" lon="6.70686">
        <ele>50.122</ele>
        <time>2021-10-09T14:30:50Z</time>
      </trkpt>
      <trkpt lat="43.39453" lon="6.70685">
        <ele>50.903</ele>
        <time>2021-10-09T14:30:54Z</time>
      </trkpt>
      <trkpt lat="43.39457" lon="6.70673">
        <ele>53.825</ele>
        <time>2021-10-09T14:31:04Z</time>
      </trkpt>
      <trkpt lat="43.39486" lon="6.70668">
        <ele>54.09</ele>
        <time>2021-10-09T14:31:22Z</time>
      </trkpt>
      <trkpt lat="43.39494" lon="6.70662">
        <ele>54.151</ele>
        <time>2021-10-09T14:31:27Z</time>
      </trkpt>
      <trkpt lat="43.39497" lon="6.70636">
        <ele>58.402</ele>
        <time>2021-10-09T14:31:39Z</time>
      </trkpt>
      <trkpt lat="43.39504" lon="6.70626">
        <ele>59.322</ele>
        <time>2021-10-09T14:31:44Z</time>
      </trkpt>
      <trkpt lat="43.39514" lon="6.70604">
        <ele>60.991</ele>
        <time>2021-10-09T14:31:52Z</time>
      </trkpt>
      <trkpt lat="43.39534" lon="6.706">
        <ele>59.044</ele>
        <time>2021-10-09T14:32:00Z</time>
      </trkpt>
      <trkpt lat="43.39542" lon="6.7061">
        <ele>57.495</ele>
        <time>2021-10-09T14:32:04Z</time>
      </trkpt>
      <trkpt lat="43.39546" lon="6.70626">
        <ele>55.719</ele>
        <time>2021-10-09T14:32:09Z</time>
      </trkpt>
      <trkpt lat="43.39552" lon="6.70636">
        <ele>53.686</ele>
        <time>2021-10-09T14:32:14Z</time>
      </trkpt>
      <trkpt lat="43.39562" lon="6.70629">
        <ele>54.028</ele>
        <time>2021-10-09T14:32:17Z</time>
      </trkpt>
      <trkpt lat="43.3958" lon="6.70599">
        <ele>56.439</ele>
        <time>2021-10-09T14:32:27Z</time>
      </trkpt>
      <trkpt lat="43.39589" lon="6.70607">
        <ele>56.858</ele>
        <time>2021-10-09T14:32:36Z</time>
      </trkpt>
      <trkpt lat="43.396" lon="6.7063">
        <ele>57.131</ele>
        <time>2021-10-09T14:32:49Z</time>
      </trkpt>
      <trkpt lat="43.39604" lon="6.70671">
        <ele>54.853</ele>
        <time>2021-10-09T14:33:07Z</time>
      </trkpt>
      <trkpt lat="43.39607" lon="6.70683">
        <ele>54.96</ele>
        <time>2021-10-09T14:33:13Z</time>
      </trkpt>
      <trkpt lat="43.39617" lon="6.70683">
        <ele>56.885</ele>
        <time>2021-10-09T14:33:18Z</time>
      </trkpt>
      <trkpt lat="43.39654" lon="6.70669">
        <ele>62.6</ele>
        <time>2021-10-09T14:33:50Z</time>
      </trkpt>
      <trkpt lat="43.39673" lon="6.70652">
        <ele>64.376</ele>
        <time>2021-10-09T14:34:36Z</time>
      </trkpt>
      <trkpt lat="43.39701" lon="6.70645">
        <ele>65.466</ele>
        <time>2021-10-09T14:34:53Z</time>
      </trkpt>
      <trkpt lat="43.39711" lon="6.70645">
        <ele>65.28</ele>
        <time>2021-10-09T14:34:56Z</time>
      </trkpt>
      <trkpt lat="43.39732" lon="6.70656">
        <ele>64.049</ele>
        <time>2021-10-09T14:35:02Z</time>
      </trkpt>
      <trkpt lat="43.39769" lon="6.70589">
        <ele>62.956</ele>
        <time>2021-10-09T14:35:17Z</time>
      </trkpt>
      <trkpt lat="43.39773" lon="6.70574">
        <ele>63.035</ele>
        <time>2021-10-09T14:35:20Z</time>
      </trkpt>
      <trkpt lat="43.39791" lon="6.70556">
        <ele>62.649</ele>
        <time>2021-10-09T14:35:26Z</time>
      </trkpt>
      <trkpt lat="43.39803" lon="6.70533">
        <ele>63.888</ele>
        <time>2021-10-09T14:35:34Z</time>
      </trkpt>
      <trkpt lat="43.39805" lon="6.70518">
        <ele>65.133</ele>
        <time>2021-10-09T14:35:37Z</time>
      </trkpt>
      <trkpt lat="43.39814" lon="6.70512">
        <ele>65.987</ele>
        <time>2021-10-09T14:35:40Z</time>
      </trkpt>
      <trkpt lat="43.39827" lon="6.7049">
        <ele>68.791</ele>
        <time>2021-10-09T14:35:47Z</time>
      </trkpt>
      <trkpt lat="43.39836" lon="6.7049">
        <ele>68.991</ele>
        <time>2021-10-09T14:35:54Z</time>
      </trkpt>
      <trkpt lat="43.39857" lon="6.70521">
        <ele>67.048</ele>
        <time>2021-10-09T14:36:11Z</time>
      </trkpt>
      <trkpt lat="43.3986" lon="6.70535">
        <ele>66.081</ele>
        <time>2021-10-09T14:36:16Z</time>
      </trkpt>
      <trkpt lat="43.3987" lon="6.70559">
        <ele>65.134</ele>
        <time>2021-10-09T14:36:22Z</time>
      </trkpt>
      <trkpt lat="43.39888" lon="6.70582">
        <ele>64.692</ele>
        <time>2021-10-09T14:36:28Z</time>
      </trkpt>
      <trkpt lat="43.39899" lon="6.70589">
        <ele>64.245</ele>
        <time>2021-10-09T14:36:31Z</time>
      </trkpt>
      <trkpt lat="43.39919" lon="6.7059">
        <ele>64.695</ele>
        <time>2021-10-09T14:36:37Z</time>
      </trkpt>
      <trkpt lat="43.39951" lon="6.7056">
        <ele>67.489</ele>
        <time>2021-10-09T14:36:54Z</time>
      </trkpt>
      <trkpt lat="43.39971" lon="6.70551">
        <ele>67.349</ele>
        <time>2021-10-09T14:37:03Z</time>
      </trkpt>
      <trkpt lat="43.3998" lon="6.70543">
        <ele>67.676</ele>
        <time>2021-10-09T14:37:07Z</time>
      </trkpt>
      <trkpt lat="43.39985" lon="6.70531">
        <ele>68.236</ele>
        <time>2021-10-09T14:37:10Z</time>
      </trkpt>
      <trkpt lat="43.39983" lon="6.70504">
        <ele>71.324</ele>
        <time>2021-10-09T14:37:16Z</time>
      </trkpt>
      <trkpt lat="43.40002" lon="6.70447">
        <ele>73.45</ele>
        <time>2021-10-09T14:37:31Z</time>
      </trkpt>
      <trkpt lat="43.40004" lon="6.70431">
        <ele>75.107</ele>
        <time>2021-10-09T14:37:34Z</time>
      </trkpt>
      <trkpt lat="43.40014" lon="6.70426">
        <ele>73.638</ele>
        <time>2021-10-09T14:37:37Z</time>
      </trkpt>
      <trkpt lat="43.40036" lon="6.70429">
        <ele>69.529</ele>
        <time>2021-10-09T14:37:44Z</time>
      </trkpt>
      <trkpt lat="43.40053" lon="6.70419">
        <ele>69.523</ele>
        <time>2021-10-09T14:37:55Z</time>
      </trkpt>
      <trkpt lat="43.40073" lon="6.70421">
        <ele>67.749</ele>
        <time>2021-10-09T14:38:06Z</time>
      </trkpt>
      <trkpt lat="43.40076" lon="6.70436">
        <ele>66.668</ele>
        <time>2021-10-09T14:38:10Z</time>
      </trkpt>
      <trkpt lat="43.40084" lon="6.70447">
        <ele>65.937</ele>
        <time>2021-10-09T14:38:13Z</time>
      </trkpt>
      <trkpt lat="43.40085" lon="6.7046">
        <ele>65.357</ele>
        <time>2021-10-09T14:38:16Z</time>
      </trkpt>
      <trkpt lat="43.40101" lon="6.70477">
        <ele>65.338</ele>
        <time>2021-10-09T14:38:27Z</time>
      </trkpt>
      <trkpt lat="43.40102" lon="6.70492">
        <ele>64.922</ele>
        <time>2021-10-09T14:38:31Z</time>
      </trkpt>
      <trkpt lat="43.40112" lon="6.70519">
        <ele>65.031</ele>
        <time>2021-10-09T14:38:39Z</time>
      </trkpt>
      <trkpt lat="43.40113" lon="6.70534">
        <ele>64.931</ele>
        <time>2021-10-09T14:38:42Z</time>
      </trkpt>
      <trkpt lat="43.40119" lon="6.70544">
        <ele>64.752</ele>
        <time>2021-10-09T14:38:46Z</time>
      </trkpt>
      <trkpt lat="43.40129" lon="6.70546">
        <ele>64.389</ele>
        <time>2021-10-09T14:38:50Z</time>
      </trkpt>
      <trkpt lat="43.40139" lon="6.7057">
        <ele>61.441</ele>
        <time>2021-10-09T14:39:02Z</time>
      </trkpt>
      <trkpt lat="43.40152" lon="6.7059">
        <ele>60.038</ele>
        <time>2021-10-09T14:39:12Z</time>
      </trkpt>
      <trkpt lat="43.40167" lon="6.7063">
        <ele>55.637</ele>
        <time>2021-10-09T14:39:20Z</time>
      </trkpt>
      <trkpt lat="43.40182" lon="6.70647">
        <ele>53.57</ele>
        <time>2021-10-09T14:39:24Z</time>
      </trkpt>
      <trkpt lat="43.40185" lon="6.70662">
        <ele>52.451</ele>
        <time>2021-10-09T14:39:27Z</time>
      </trkpt>
      <trkpt lat="43.40195" lon="6.70686">
        <ele>51.293</ele>
        <time>2021-10-09T14:39:34Z</time>
      </trkpt>
      <trkpt lat="43.40198" lon="6.70698">
        <ele>50.767</ele>
        <time>2021-10-09T14:39:37Z</time>
      </trkpt>
      <trkpt lat="43.40206" lon="6.7071">
        <ele>50.106</ele>
        <time>2021-10-09T14:39:42Z</time>
      </trkpt>
      <trkpt lat="43.40209" lon="6.70725">
        <ele>49.605</ele>
        <time>2021-10-09T14:39:57Z</time>
      </trkpt>
      <trkpt lat="43.40198" lon="6.70794">
        <ele>48.041</ele>
        <time>2021-10-09T14:40:21Z</time>
      </trkpt>
      <trkpt lat="43.40187" lon="6.7082">
        <ele>45.985</ele>
        <time>2021-10-09T14:40:27Z</time>
      </trkpt>
      <trkpt lat="43.40164" lon="6.70849">
        <ele>43.093</ele>
        <time>2021-10-09T14:40:35Z</time>
      </trkpt>
      <trkpt lat="43.40146" lon="6.70883">
        <ele>39.246</ele>
        <time>2021-10-09T14:40:42Z</time>
      </trkpt>
      <trkpt lat="43.40145" lon="6.70909">
        <ele>36.791</ele>
        <time>2021-10-09T14:40:48Z</time>
      </trkpt>
      <trkpt lat="43.40133" lon="6.70959">
        <ele>27.621</ele>
        <time>2021-10-09T14:41:08Z</time>
      </trkpt>
      <trkpt lat="43.4013" lon="6.70991">
        <ele>23.493</ele>
        <time>2021-10-09T14:41:15Z</time>
      </trkpt>
      <trkpt lat="43.40132" lon="6.71023">
        <ele>20.331</ele>
        <time>2021-10-09T14:41:22Z</time>
      </trkpt>
      <trkpt lat="43.40138" lon="6.71046">
        <ele>18.046</ele>
        <time>2021-10-09T14:41:29Z</time>
      </trkpt>
      <trkpt lat="43.4014" lon="6.71099">
        <ele>11.105</ele>
        <time>2021-10-09T14:41:44Z</time>
      </trkpt>
      <trkpt lat="43.40134" lon="6.7114">
        <ele>8.457</ele>
        <time>2021-10-09T14:41:52Z</time>
      </trkpt>
      <trkpt lat="43.40142" lon="6.71195">
        <ele>6.258</ele>
        <time>2021-10-09T14:42:01Z</time>
      </trkpt>
      <trkpt lat="43.40147" lon="6.7127">
        <ele>4.859</ele>
        <time>2021-10-09T14:42:44Z</time>
      </trkpt>
      <trkpt lat="43.40151" lon="6.71284">
        <ele>4.554</ele>
        <time>2021-10-09T14:42:46Z</time>
      </trkpt>
      <trkpt lat="43.4019" lon="6.7124">
        <ele>4.81</ele>
        <time>2021-10-09T14:42:47Z</time>
      </trkpt>
      <trkpt lat="43.40227" lon="6.71209">
        <ele>5.317</ele>
        <time>2021-10-09T14:42:49Z</time>
      </trkpt>
      <trkpt lat="43.40236" lon="6.71247">
        <ele>4.741</ele>
        <time>2021-10-09T14:42:49Z</time>
      </trkpt>
      <trkpt lat="43.40227" lon="6.71348">
        <ele>3.788</ele>
        <time>2021-10-09T14:42:52Z</time>
      </trkpt>
      <trkpt lat="43.40184" lon="6.71342">
        <ele>3.377</ele>
        <time>2021-10-09T14:42:53Z</time>
      </trkpt>
      <trkpt lat="43.40158" lon="6.71351">
        <ele>3.271</ele>
        <time>2021-10-09T14:42:54Z</time>
      </trkpt>
      <trkpt lat="43.40131" lon="6.71372">
        <ele>3.51</ele>
        <time>2021-10-09T14:42:55Z</time>
      </trkpt>
      <trkpt lat="43.40114" lon="6.71376">
        <ele>3.501</ele>
        <time>2021-10-09T14:43:06Z</time>
      </trkpt>
      <trkpt lat="43.4008" lon="6.71445">
        <ele>3</ele>
        <time>2021-10-09T14:43:20Z</time>
      </trkpt>
      <trkpt lat="43.40058" lon="6.71515">
        <ele>2.647</ele>
        <time>2021-10-09T14:43:29Z</time>
      </trkpt>
      <trkpt lat="43.40054" lon="6.71539">
        <ele>2.659</ele>
        <time>2021-10-09T14:43:33Z</time>
      </trkpt>
      <trkpt lat="43.40038" lon="6.71572">
        <ele>2.826</ele>
        <time>2021-10-09T14:43:51Z</time>
      </trkpt>
      <trkpt lat="43.40003" lon="6.71662">
        <ele>5.781</ele>
        <time>2021-10-09T14:44:11Z</time>
      </trkpt>
      <trkpt lat="43.39988" lon="6.71689">
        <ele>7.186</ele>
        <time>2021-10-09T14:44:59Z</time>
      </trkpt>
      <trkpt lat="43.39981" lon="6.71715">
        <ele>7.82</ele>
        <time>2021-10-09T14:45:05Z</time>
      </trkpt>
      <trkpt lat="43.39965" lon="6.71749">
        <ele>8.264</ele>
        <time>2021-10-09T14:45:14Z</time>
      </trkpt>
      <trkpt lat="43.39936" lon="6.71791">
        <ele>8.462</ele>
        <time>2021-10-09T14:45:28Z</time>
      </trkpt>
      <trkpt lat="43.39909" lon="6.71821">
        <ele>8.454</ele>
        <time>2021-10-09T14:45:36Z</time>
      </trkpt>
      <trkpt lat="43.39874" lon="6.71845">
        <ele>8.798</ele>
        <time>2021-10-09T14:45:45Z</time>
      </trkpt>
      <trkpt lat="43.39827" lon="6.71863">
        <ele>9.063</ele>
        <time>2021-10-09T14:45:56Z</time>
      </trkpt>
      <trkpt lat="43.39705" lon="6.71895">
        <ele>9.643</ele>
        <time>2021-10-09T14:46:24Z</time>
      </trkpt>
      <trkpt lat="43.39699" lon="6.71907">
        <ele>9.145</ele>
        <time>2021-10-09T14:46:27Z</time>
      </trkpt>
      <trkpt lat="43.39678" lon="6.72074">
        <ele>8</ele>
        <time>2021-10-09T14:46:49Z</time>
      </trkpt>
      <trkpt lat="43.39647" lon="6.72231">
        <ele>7</ele>
        <time>2021-10-09T14:47:09Z</time>
      </trkpt>
      <trkpt lat="43.39623" lon="6.72389">
        <ele>5</ele>
        <time>2021-10-09T14:47:31Z</time>
      </trkpt>
      <trkpt lat="43.39608" lon="6.72462">
        <ele>4.284</ele>
        <time>2021-10-09T14:47:41Z</time>
      </trkpt>
      <trkpt lat="43.39596" lon="6.72548">
        <ele>3.264</ele>
        <time>2021-10-09T14:47:53Z</time>
      </trkpt>
      <trkpt lat="43.39588" lon="6.72572">
        <ele>3.068</ele>
        <time>2021-10-09T14:47:57Z</time>
      </trkpt>
      <trkpt lat="43.39583" lon="6.726">
        <ele>3.001</ele>
        <time>2021-10-09T14:48:01Z</time>
      </trkpt>
      <trkpt lat="43.39578" lon="6.72614">
        <ele>2.776</ele>
        <time>2021-10-09T14:48:03Z</time>
      </trkpt>
      <trkpt lat="43.39569" lon="6.7262">
        <ele>2.679</ele>
        <time>2021-10-09T14:48:05Z</time>
      </trkpt>
      <trkpt lat="43.39505" lon="6.72594">
        <ele>3</ele>
        <time>2021-10-09T14:48:17Z</time>
      </trkpt>
      <trkpt lat="43.39495" lon="6.72593">
        <ele>3</ele>
        <time>2021-10-09T14:48:19Z</time>
      </trkpt>
      <trkpt lat="43.39365" lon="6.72636">
        <ele>4.74</ele>
        <time>2021-10-09T14:48:49Z</time>
      </trkpt>
      <trkpt lat="43.39357" lon="6.72642">
        <ele>4.925</ele>
        <time>2021-10-09T14:48:51Z</time>
      </trkpt>
      <trkpt lat="43.39319" lon="6.72706">
        <ele>4.651</ele>
        <time>2021-10-09T14:49:03Z</time>
      </trkpt>
      <trkpt lat="43.39306" lon="6.72713">
        <ele>4.666</ele>
        <time>2021-10-09T14:49:06Z</time>
      </trkpt>
      <trkpt lat="43.39296" lon="6.72702">
        <ele>5.217</ele>
        <time>2021-10-09T14:49:09Z</time>
      </trkpt>
      <trkpt lat="43.39292" lon="6.72691">
        <ele>5.453</ele>
        <time>2021-10-09T14:49:11Z</time>
      </trkpt>
      <trkpt lat="43.39278" lon="6.72673">
        <ele>5.811</ele>
        <time>2021-10-09T14:49:15Z</time>
      </trkpt>
      <trkpt lat="43.39269" lon="6.72667">
        <ele>5.93</ele>
        <time>2021-10-09T14:49:17Z</time>
      </trkpt>
      <trkpt lat="43.3926" lon="6.72666">
        <ele>6.097</ele>
        <time>2021-10-09T14:49:19Z</time>
      </trkpt>
      <trkpt lat="43.3925" lon="6.7267">
        <ele>6.386</ele>
        <time>2021-10-09T14:49:21Z</time>
      </trkpt>
      <trkpt lat="43.39244" lon="6.72685">
        <ele>6.463</ele>
        <time>2021-10-09T14:49:24Z</time>
      </trkpt>
      <trkpt lat="43.39248" lon="6.72697">
        <ele>6.304</ele>
        <time>2021-10-09T14:49:26Z</time>
      </trkpt>
      <trkpt lat="43.39254" lon="6.72707">
        <ele>5.91</ele>
        <time>2021-10-09T14:49:28Z</time>
      </trkpt>
      <trkpt lat="43.39272" lon="6.72719">
        <ele>5.143</ele>
        <time>2021-10-09T14:49:32Z</time>
      </trkpt>
      <trkpt lat="43.39283" lon="6.72742">
        <ele>4.147</ele>
        <time>2021-10-09T14:49:39Z</time>
      </trkpt>
      <trkpt lat="43.39283" lon="6.72756">
        <ele>3.7</ele>
        <time>2021-10-09T14:49:42Z</time>
      </trkpt>
      <trkpt lat="43.39258" lon="6.72843">
        <ele>2.218</ele>
        <time>2021-10-09T14:50:01Z</time>
      </trkpt>
      <trkpt lat="43.39243" lon="6.72852">
        <ele>3.069</ele>
        <time>2021-10-09T14:50:09Z</time>
      </trkpt>
      <trkpt lat="43.39234" lon="6.72851">
        <ele>3.877</ele>
        <time>2021-10-09T14:50:16Z</time>
      </trkpt>
      <trkpt lat="43.39226" lon="6.72841">
        <ele>4.73</ele>
        <time>2021-10-09T14:50:26Z</time>
      </trkpt>
      <trkpt lat="43.3922" lon="6.72822">
        <ele>5.404</ele>
        <time>2021-10-09T14:50:47Z</time>
      </trkpt>
      <trkpt lat="43.39211" lon="6.72814">
        <ele>6</ele>
        <time>2021-10-09T14:50:54Z</time>
      </trkpt>
      <trkpt lat="43.3918" lon="6.72806">
        <ele>8.79</ele>
        <time>2021-10-09T14:51:04Z</time>
      </trkpt>
      <trkpt lat="43.39151" lon="6.72811">
        <ele>11.38</ele>
        <time>2021-10-09T14:51:14Z</time>
      </trkpt>
      <trkpt lat="43.39077" lon="6.7288">
        <ele>13.764</ele>
        <time>2021-10-09T14:51:41Z</time>
      </trkpt>
      <trkpt lat="43.39066" lon="6.72886">
        <ele>13.899</ele>
        <time>2021-10-09T14:51:44Z</time>
      </trkpt>
      <trkpt lat="43.39053" lon="6.72882">
        <ele>14.235</ele>
        <time>2021-10-09T14:51:47Z</time>
      </trkpt>
      <trkpt lat="43.38894" lon="6.72774">
        <ele>17.558</ele>
        <time>2021-10-09T14:52:31Z</time>
      </trkpt>
      <trkpt lat="43.38885" lon="6.72784">
        <ele>17.02</ele>
        <time>2021-10-09T14:52:34Z</time>
      </trkpt>
      <trkpt lat="43.38846" lon="6.729">
        <ele>12.714</ele>
        <time>2021-10-09T14:52:49Z</time>
      </trkpt>
      <trkpt lat="43.38804" lon="6.73008">
        <ele>3.74</ele>
        <time>2021-10-09T14:53:01Z</time>
      </trkpt>
      <trkpt lat="43.38797" lon="6.73018">
        <ele>2.524</ele>
        <time>2021-10-09T14:53:06Z</time>
      </trkpt>
      <trkpt lat="43.38813" lon="6.73052">
        <ele>0.989</ele>
        <time>2021-10-09T14:53:32Z</time>
      </trkpt>
      <trkpt lat="43.38822" lon="6.7306">
        <ele>0.957</ele>
        <time>2021-10-09T14:53:36Z</time>
      </trkpt>
      <trkpt lat="43.38829" lon="6.73054">
        <ele>1.252</ele>
        <time>2021-10-09T14:53:44Z</time>
      </trkpt>
      <trkpt lat="43.38834" lon="6.73028">
        <ele>2.851</ele>
        <time>2021-10-09T14:53:55Z</time>
      </trkpt>
      <trkpt lat="43.38843" lon="6.73022">
        <ele>3.773</ele>
        <time>2021-10-09T14:54:00Z</time>
      </trkpt>
      <trkpt lat="43.38863" lon="6.73048">
        <ele>2.538</ele>
        <time>2021-10-09T14:54:26Z</time>
      </trkpt>
      <trkpt lat="43.38903" lon="6.73067">
        <ele>3.786</ele>
        <time>2021-10-09T14:54:39Z</time>
      </trkpt>
      <trkpt lat="43.38914" lon="6.73065">
        <ele>4.803</ele>
        <time>2021-10-09T14:54:42Z</time>
      </trkpt>
      <trkpt lat="43.38921" lon="6.73057">
        <ele>6.059</ele>
        <time>2021-10-09T14:54:45Z</time>
      </trkpt>
      <trkpt lat="43.38931" lon="6.7306">
        <ele>6.744</ele>
        <time>2021-10-09T14:54:50Z</time>
      </trkpt>
      <trkpt lat="43.38932" lon="6.73086">
        <ele>4.97</ele>
        <time>2021-10-09T14:55:14Z</time>
      </trkpt>
      <trkpt lat="43.38926" lon="6.73098">
        <ele>3.384</ele>
        <time>2021-10-09T14:55:26Z</time>
      </trkpt>
      <trkpt lat="43.38949" lon="6.73124">
        <ele>4.717</ele>
        <time>2021-10-09T14:55:56Z</time>
      </trkpt>
      <trkpt lat="43.38967" lon="6.73158">
        <ele>3.227</ele>
        <time>2021-10-09T14:56:07Z</time>
      </trkpt>
      <trkpt lat="43.38969" lon="6.73175">
        <ele>1.762</ele>
        <time>2021-10-09T14:56:15Z</time>
      </trkpt>
      <trkpt lat="43.3898" lon="6.73166">
        <ele>3.271</ele>
        <time>2021-10-09T14:56:31Z</time>
      </trkpt>
      <trkpt lat="43.39009" lon="6.73203">
        <ele>2.429</ele>
        <time>2021-10-09T14:56:52Z</time>
      </trkpt>
      <trkpt lat="43.39028" lon="6.73202">
        <ele>2.856</ele>
        <time>2021-10-09T14:57:02Z</time>
      </trkpt>
      <trkpt lat="43.39042" lon="6.73183">
        <ele>4.438</ele>
        <time>2021-10-09T14:57:12Z</time>
      </trkpt>
      <trkpt lat="43.39053" lon="6.73183">
        <ele>4.513</ele>
        <time>2021-10-09T14:57:17Z</time>
      </trkpt>
      <trkpt lat="43.39072" lon="6.73192">
        <ele>3.327</ele>
        <time>2021-10-09T14:57:29Z</time>
      </trkpt>
      <trkpt lat="43.39092" lon="6.73189">
        <ele>2.517</ele>
        <time>2021-10-09T14:57:40Z</time>
      </trkpt>
      <trkpt lat="43.39115" lon="6.73159">
        <ele>2.588</ele>
        <time>2021-10-09T14:57:51Z</time>
      </trkpt>
      <trkpt lat="43.39116" lon="6.73104">
        <ele>4.979</ele>
        <time>2021-10-09T14:58:08Z</time>
      </trkpt>
      <trkpt lat="43.39124" lon="6.73061">
        <ele>5.956</ele>
        <time>2021-10-09T14:58:20Z</time>
      </trkpt>
      <trkpt lat="43.39159" lon="6.7298">
        <ele>3.036</ele>
        <time>2021-10-09T14:58:33Z</time>
      </trkpt>
      <trkpt lat="43.3919" lon="6.72937">
        <ele>3.495</ele>
        <time>2021-10-09T14:58:45Z</time>
      </trkpt>
      <trkpt lat="43.39219" lon="6.72919">
        <ele>2.238</ele>
        <time>2021-10-09T14:58:55Z</time>
      </trkpt>
      <trkpt lat="43.39241" lon="6.72869">
        <ele>2.785</ele>
        <time>2021-10-09T14:59:10Z</time>
      </trkpt>
      <trkpt lat="43.39261" lon="6.72837">
        <ele>2.303</ele>
        <time>2021-10-09T14:59:26Z</time>
      </trkpt>
      <trkpt lat="43.39279" lon="6.72783">
        <ele>3.063</ele>
        <time>2021-10-09T14:59:43Z</time>
      </trkpt>
      <trkpt lat="43.39289" lon="6.72761">
        <ele>3.41</ele>
        <time>2021-10-09T14:59:51Z</time>
      </trkpt>
      <trkpt lat="43.39298" lon="6.72761">
        <ele>3.215</ele>
        <time>2021-10-09T14:59:55Z</time>
      </trkpt>
      <trkpt lat="43.39364" lon="6.72786">
        <ele>2.186</ele>
        <time>2021-10-09T15:00:13Z</time>
      </trkpt>
      <trkpt lat="43.39385" lon="6.72782">
        <ele>1.963</ele>
        <time>2021-10-09T15:00:19Z</time>
      </trkpt>
      <trkpt lat="43.398" lon="6.72935">
        <ele>0.861</ele>
        <time>2021-10-09T15:01:54Z</time>
      </trkpt>
      <trkpt lat="43.39911" lon="6.72971">
        <ele>1</ele>
        <time>2021-10-09T15:02:12Z</time>
      </trkpt>
      <trkpt lat="43.39973" lon="6.72981">
        <ele>1.022</ele>
        <time>2021-10-09T15:02:22Z</time>
      </trkpt>
      <trkpt lat="43.40215" lon="6.72993">
        <ele>2.426</ele>
        <time>2021-10-09T15:03:02Z</time>
      </trkpt>
      <trkpt lat="43.40243" lon="6.72989">
        <ele>2.525</ele>
        <time>2021-10-09T15:03:06Z</time>
      </trkpt>
      <trkpt lat="43.40324" lon="6.72965">
        <ele>3</ele>
        <time>2021-10-09T15:03:18Z</time>
      </trkpt>
      <trkpt lat="43.40401" lon="6.72919">
        <ele>2.865</ele>
        <time>2021-10-09T15:03:30Z</time>
      </trkpt>
      <trkpt lat="43.40437" lon="6.7289">
        <ele>3</ele>
        <time>2021-10-09T15:03:36Z</time>
      </trkpt>
      <trkpt lat="43.40494" lon="6.7283">
        <ele>3.208</ele>
        <time>2021-10-09T15:03:46Z</time>
      </trkpt>
      <trkpt lat="43.40836" lon="6.72488">
        <ele>2.813</ele>
        <time>2021-10-09T15:04:42Z</time>
      </trkpt>
      <trkpt lat="43.40886" lon="6.72443">
        <ele>3.157</ele>
        <time>2021-10-09T15:04:52Z</time>
      </trkpt>
      <trkpt lat="43.4092" lon="6.72427">
        <ele>3.803</ele>
        <time>2021-10-09T15:04:59Z</time>
      </trkpt>
      <trkpt lat="43.4098" lon="6.72412">
        <ele>4</ele>
        <time>2021-10-09T15:05:12Z</time>
      </trkpt>
      <trkpt lat="43.41018" lon="6.72418">
        <ele>4</ele>
        <time>2021-10-09T15:05:17Z</time>
      </trkpt>
      <trkpt lat="43.41045" lon="6.7243">
        <ele>4</ele>
        <time>2021-10-09T15:05:22Z</time>
      </trkpt>
      <trkpt lat="43.41075" lon="6.72454">
        <ele>4.021</ele>
        <time>2021-10-09T15:05:29Z</time>
      </trkpt>
      <trkpt lat="43.41177" lon="6.72517">
        <ele>4.338</ele>
        <time>2021-10-09T15:06:01Z</time>
      </trkpt>
      <trkpt lat="43.41294" lon="6.72565">
        <ele>4</ele>
        <time>2021-10-09T15:06:37Z</time>
      </trkpt>
      <trkpt lat="43.41306" lon="6.72575">
        <ele>4</ele>
        <time>2021-10-09T15:06:40Z</time>
      </trkpt>
      <trkpt lat="43.41411" lon="6.72626">
        <ele>3.261</ele>
        <time>2021-10-09T15:07:04Z</time>
      </trkpt>
      <trkpt lat="43.41494" lon="6.72677">
        <ele>2.058</ele>
        <time>2021-10-09T15:07:16Z</time>
      </trkpt>
      <trkpt lat="43.41514" lon="6.72693">
        <ele>2</ele>
        <time>2021-10-09T15:07:22Z</time>
      </trkpt>
      <trkpt lat="43.41558" lon="6.72711">
        <ele>2.018</ele>
        <time>2021-10-09T15:07:30Z</time>
      </trkpt>
      <trkpt lat="43.41619" lon="6.72746">
        <ele>2.901</ele>
        <time>2021-10-09T15:07:39Z</time>
      </trkpt>
      <trkpt lat="43.41608" lon="6.72764">
        <ele>3.127</ele>
        <time>2021-10-09T15:07:40Z</time>
      </trkpt>
      <trkpt lat="43.41563" lon="6.72797">
        <ele>2.959</ele>
        <time>2021-10-09T15:07:41Z</time>
      </trkpt>
      <trkpt lat="43.41543" lon="6.72829">
        <ele>3.213</ele>
        <time>2021-10-09T15:07:41Z</time>
      </trkpt>
      <trkpt lat="43.41531" lon="6.7283">
        <ele>3.165</ele>
        <time>2021-10-09T15:07:41Z</time>
      </trkpt>
      <trkpt lat="43.41516" lon="6.72825">
        <ele>3.054</ele>
        <time>2021-10-09T15:07:42Z</time>
      </trkpt>
      <trkpt lat="43.41494" lon="6.72848">
        <ele>3</ele>
        <time>2021-10-09T15:07:42Z</time>
      </trkpt>
      <trkpt lat="43.41435" lon="6.7292">
        <ele>3.869</ele>
        <time>2021-10-09T15:07:45Z</time>
      </trkpt>
      <trkpt lat="43.41376" lon="6.73006">
        <ele>4</ele>
        <time>2021-10-09T15:08:05Z</time>
      </trkpt>
      <trkpt lat="43.4136" lon="6.73022">
        <ele>4</ele>
        <time>2021-10-09T15:08:08Z</time>
      </trkpt>
      <trkpt lat="43.41337" lon="6.73056">
        <ele>4</ele>
        <time>2021-10-09T15:08:11Z</time>
      </trkpt>
      <trkpt lat="43.41315" lon="6.73079">
        <ele>3.995</ele>
        <time>2021-10-09T15:08:16Z</time>
      </trkpt>
      <trkpt lat="43.41255" lon="6.73159">
        <ele>3</ele>
        <time>2021-10-09T15:09:00Z</time>
      </trkpt>
      <trkpt lat="43.41219" lon="6.73199">
        <ele>2.953</ele>
        <time>2021-10-09T15:09:05Z</time>
      </trkpt>
      <trkpt lat="43.41213" lon="6.73215">
        <ele>2.84</ele>
        <time>2021-10-09T15:09:08Z</time>
      </trkpt>
      <trkpt lat="43.4119" lon="6.73248">
        <ele>2.357</ele>
        <time>2021-10-09T15:09:14Z</time>
      </trkpt>
      <trkpt lat="43.41148" lon="6.73345">
        <ele>2</ele>
        <time>2021-10-09T15:09:28Z</time>
      </trkpt>
      <trkpt lat="43.41115" lon="6.73444">
        <ele>1.244</ele>
        <time>2021-10-09T15:09:42Z</time>
      </trkpt>
      <trkpt lat="43.41115" lon="6.73462">
        <ele>1</ele>
        <time>2021-10-09T15:09:45Z</time>
      </trkpt>
      <trkpt lat="43.41123" lon="6.73474">
        <ele>1.06</ele>
        <time>2021-10-09T15:09:48Z</time>
      </trkpt>
      <trkpt lat="43.41174" lon="6.73518">
        <ele>1.117</ele>
        <time>2021-10-09T15:09:58Z</time>
      </trkpt>
      <trkpt lat="43.41198" lon="6.73534">
        <ele>1</ele>
        <time>2021-10-09T15:10:02Z</time>
      </trkpt>
      <trkpt lat="43.41211" lon="6.73538">
        <ele>1</ele>
        <time>2021-10-09T15:10:04Z</time>
      </trkpt>
      <trkpt lat="43.41224" lon="6.73536">
        <ele>1</ele>
        <time>2021-10-09T15:10:06Z</time>
      </trkpt>
      <trkpt lat="43.41235" lon="6.73527">
        <ele>1.048</ele>
        <time>2021-10-09T15:10:08Z</time>
      </trkpt>
      <trkpt lat="43.41249" lon="6.73499">
        <ele>1.522</ele>
        <time>2021-10-09T15:10:12Z</time>
      </trkpt>
      <trkpt lat="43.41263" lon="6.73478">
        <ele>1.903</ele>
        <time>2021-10-09T15:10:17Z</time>
      </trkpt>
      <trkpt lat="43.41276" lon="6.73476">
        <ele>1.963</ele>
        <time>2021-10-09T15:10:19Z</time>
      </trkpt>
      <trkpt lat="43.41312" lon="6.73488">
        <ele>2</ele>
        <time>2021-10-09T15:10:25Z</time>
      </trkpt>
      <trkpt lat="43.41574" lon="6.73552">
        <ele>3</ele>
        <time>2021-10-09T15:11:07Z</time>
      </trkpt>
      <trkpt lat="43.41584" lon="6.7356">
        <ele>3</ele>
        <time>2021-10-09T15:11:09Z</time>
      </trkpt>
      <trkpt lat="43.41591" lon="6.73571">
        <ele>3</ele>
        <time>2021-10-09T15:11:11Z</time>
      </trkpt>
      <trkpt lat="43.4163" lon="6.73671">
        <ele>3</ele>
        <time>2021-10-09T15:11:27Z</time>
      </trkpt>
      <trkpt lat="43.41631" lon="6.73683">
        <ele>3</ele>
        <time>2021-10-09T15:11:29Z</time>
      </trkpt>
      <trkpt lat="43.41623" lon="6.73698">
        <ele>3</ele>
        <time>2021-10-09T15:11:32Z</time>
      </trkpt>
      <trkpt lat="43.41573" lon="6.73734">
        <ele>3</ele>
        <time>2021-10-09T15:11:44Z</time>
      </trkpt>
      <trkpt lat="43.41566" lon="6.73747">
        <ele>3</ele>
        <time>2021-10-09T15:11:47Z</time>
      </trkpt>
      <trkpt lat="43.41564" lon="6.73764">
        <ele>3</ele>
        <time>2021-10-09T15:11:50Z</time>
      </trkpt>
      <trkpt lat="43.41569" lon="6.73779">
        <ele>3</ele>
        <time>2021-10-09T15:11:53Z</time>
      </trkpt>
      <trkpt lat="43.4162" lon="6.73839">
        <ele>2.712</ele>
        <time>2021-10-09T15:12:12Z</time>
      </trkpt>
    </trkseg>
  </trk>
</gpx>